Provisional Data: Chemung River near Elmira, NY


Please select a monitoring station.
Please select start date.
Please select start date.

Toggle Unit: C/F Toggle Unit: C/F
Sample Time Temperature (C) Temperature (F) Specific Conductivity (mS/cm) pH   Turbidity (NTU+) DO (mg/L)
10/22/2021 12:02:59 AM 13.205 55.769 0.28445 7.9086 10.13 13.205
10/22/2021 12:17:59 AM 13.22 55.796 0.2840499 7.9128 28.52499 13.22
10/22/2021 12:32:59 AM 13.2375 55.8275 0.2841 7.9128 24.075 13.2375
10/22/2021 12:47:59 AM 13.2375 55.8275 0.2841 7.9086 17.825 13.2375
10/22/2021 1:02:59 AM 13.22 55.796 0.2844 7.903 14.94501 13.22
10/22/2021 1:18:00 AM 13.205 55.769 0.2847501 7.9037 11.405 13.205
10/22/2021 1:32:59 AM 13.17 55.706 0.2851 7.8981 9.354996 13.17
10/22/2021 1:47:59 AM 13.15 55.67 0.2851 7.8939 8.559998 13.15
10/22/2021 2:02:59 AM 13.1375 55.6475 0.28545 7.8883 8.460007 13.1375
10/22/2021 2:18:00 AM 13.135 55.643 0.2855 7.8848 8.384995 13.135
10/22/2021 2:33:00 AM 13.1025 55.5845 0.2858 7.8799 8.315002 13.1025
10/22/2021 2:48:00 AM 13.1 55.58 0.2858 7.8743 8.634995 13.1
10/22/2021 3:03:00 AM 13.0825 55.5485 0.28585 7.8701 9.675003 13.0825
10/22/2021 3:18:00 AM 13.065 55.517 0.2858 7.8652 9.225006 13.065
10/22/2021 3:33:00 AM 13.0675 55.5215 0.2858 7.8645 8.494995 13.0675
10/22/2021 3:48:00 AM 13.05 55.49 0.2862 7.8603 9.220001 13.05
10/22/2021 4:02:59 AM 13.015 55.427 0.28615 7.8547 8.945007 13.015
10/22/2021 4:17:59 AM 13.015 55.427 0.2865 7.8547 8.839996 13.015
10/22/2021 4:32:59 AM 12.9975 55.3955 0.2865 7.8505 8.979996 12.9975
10/22/2021 4:47:59 AM 12.98 55.364 0.28685 7.8498 9.464996 12.98
10/22/2021 5:02:59 AM 12.9625 55.3325 0.2865 7.8463 9.080002 12.9625
10/22/2021 5:17:59 AM 12.965 55.337 0.2869 7.8414 9.360001 12.965
10/22/2021 5:32:59 AM 12.9625 55.3325 0.2869 7.8414 9.354996 12.9625
10/22/2021 5:47:59 AM 12.965 55.337 0.2871999 7.8365 9.225006 12.965
10/22/2021 6:02:59 AM 12.9625 55.3325 0.2875501 7.8309 9.289993 12.9625
10/22/2021 6:17:59 AM 12.965 55.337 0.2875501 7.8316 9.744995 12.965
10/22/2021 6:33:00 AM 12.965 55.337 0.2879 7.826 9.710007 12.965
10/22/2021 6:47:59 AM 12.9625 55.3325 0.2882499 7.8211 9.779999 12.9625
10/22/2021 7:02:59 AM 12.965 55.337 0.2882499 7.8176 9.809998 12.965
10/22/2021 7:17:59 AM 12.9825 55.3685 0.2882499 7.8113 9.845001 12.9825
10/22/2021 7:32:59 AM 12.9625 55.3325 0.28855 7.8022 10.16499 12.9625
10/22/2021 7:47:59 AM 13.015 55.427 0.2882 7.7728 20.37 13.015
10/22/2021 8:17:59 AM 13.3275 55.9895 0.2857501 7.756701 8.145004 13.3275
10/22/2021 8:32:59 AM 13.395 56.111 0.2851 7.752501 8.389999 13.395
10/22/2021 8:47:59 AM 13.395 56.111 0.2847501 7.743401 8.740005 13.395
10/22/2021 9:02:59 AM 13.1725 55.7105 0.2858 7.733601 9.125 13.1725
10/22/2021 9:17:59 AM 13.065 55.517 0.2865 7.728001 9.839996 13.065
10/22/2021 9:32:59 AM 12.9975 55.3955 0.2865 7.714001 10.33501 12.9975
10/22/2021 9:47:59 AM 12.945 55.301 0.28615 7.699301 11.37 12.945
10/22/2021 10:02:59 AM 12.9125 55.2425 0.2855 7.685301 12.035 12.9125
10/22/2021 10:18:00 AM 12.98 55.364 0.2837501 7.670601 13.21001 12.98
10/22/2021 10:32:59 AM 13.1525 55.6745 0.281 7.660801 13.77 13.1525
10/22/2021 10:47:59 AM 13.255 55.859 0.27885 7.649599 14.36 13.255
10/22/2021 11:03:00 AM 13.305 55.949 0.2775 7.644699 14.42999 13.305
10/22/2021 11:18:00 AM 13.2775 55.8995 0.27715 7.640499 14.465 13.2775
10/22/2021 11:48:00 AM 12.9425 55.2965 0.2785 7.634899 14.22 12.9425
10/22/2021 12:03:00 PM 12.8925 55.2065 0.2785501 7.635599 14.045 12.8925
10/22/2021 12:18:00 PM 12.8575 55.1435 0.2781999 7.635599 13.97501 12.8575
10/22/2021 12:33:00 PM 12.8575 55.1435 0.2779 7.641199 13.39 12.8575
10/22/2021 12:48:00 PM 12.86 55.148 0.2772 7.646099 13.495 12.86
10/22/2021 1:03:00 PM 12.895 55.211 0.27615 7.646799 13.285 12.895
10/22/2021 1:18:00 PM 12.98 55.364 0.2741 7.650999 13.63 12.98
10/22/2021 1:33:00 PM 13.17 55.706 0.2713 7.650999 13.385 13.17
10/22/2021 1:47:59 PM 13.325 55.985 0.2685 7.655199 13.25 13.325
10/22/2021 2:03:00 PM 13.43 56.174 0.2660499 7.660101 13.49 13.43
10/22/2021 2:18:00 PM 13.52 56.336 0.2643 7.665701 13.57001 13.52
10/22/2021 2:32:59 PM 13.3975 56.1155 0.2639501 7.669901 14.12 13.3975
10/22/2021 3:03:00 PM 13.2775 55.8995 0.2633001 7.674801 15.47501 13.2775
10/22/2021 3:17:59 PM 13.26 55.868 0.2626 7.680401 16.10001 13.26
10/22/2021 3:32:59 PM 13.2375 55.8275 0.2622499 7.679701 17 13.2375
10/22/2021 3:48:00 PM 13.2575 55.8635 0.2622499 7.674801 18.42 13.2575
10/22/2021 4:02:59 PM 13.2375 55.8275 0.2619501 7.670601 20.22 13.2375
10/22/2021 4:17:59 PM 13.2025 55.7645 0.2605501 7.660801 23.905 13.2025
10/22/2021 4:32:59 PM 13.135 55.643 0.2588001 7.646099 27.17 13.135
10/22/2021 4:47:59 PM 13.1 55.58 0.2564 7.630699 31.82001 13.1
10/22/2021 5:02:59 PM 13.0525 55.4945 0.254 7.616699 35.33 13.0525
10/22/2021 5:17:59 PM 13 55.4 0.2523001 7.602699 39.88 13
10/22/2021 5:32:59 PM 12.9475 55.3055 0.2512499 7.588699 44.11 12.9475
10/22/2021 5:47:59 PM 12.895 55.211 0.2505501 7.578199 47.065 12.895
10/22/2021 6:02:59 PM 12.845 55.121 0.2498001 7.568399 49.735 12.845
10/22/2021 6:17:59 PM 12.81 55.058 0.24955 7.563499 52.13499 12.81
10/22/2021 6:32:59 PM 12.7775 54.9995 0.24915 7.562799 54.875 12.7775
10/22/2021 6:47:59 PM 12.74 54.932 0.2495 7.563499 56.785 12.74
10/22/2021 7:02:59 PM 12.86 55.148 0.2492 7.558599 57.06 12.86
10/22/2021 7:17:59 PM 12.9975 55.3955 0.2477501 7.562799 59 12.9975
10/22/2021 7:32:59 PM 13.0825 55.5485 0.2466999 7.563499 57.575 13.0825
10/22/2021 7:48:00 PM 13.1175 55.6115 0.2453001 7.562099 57.82001 13.1175
10/22/2021 8:03:00 PM 13.135 55.643 0.2436 7.562799 58.125 13.135
10/22/2021 8:18:00 PM 13.175 55.715 0.2418001 7.562099 58.69 13.175
10/22/2021 8:33:00 PM 13.1925 55.7465 0.2401 7.562799 58.105 13.1925
10/22/2021 8:48:00 PM 13.1575 55.6835 0.2387 7.557199 57.83 13.1575
10/22/2021 9:03:00 PM 12.845 55.121 0.2390499 7.558599 57.48 12.845
10/22/2021 9:18:00 PM 12.6525 54.7745 0.2387501 7.558599 56.185 12.6525
10/22/2021 9:33:00 PM 12.81 55.058 0.2363501 7.553699 54.83501 12.81
10/22/2021 9:48:00 PM 12.945 55.301 0.2342499 7.552999 53.55 12.945
10/22/2021 10:03:00 PM 13.015 55.427 0.23285 7.552999 52.82001 13.015
10/22/2021 10:18:00 PM 13.065 55.517 0.2318 7.552299 51.08 13.065
10/22/2021 10:32:59 PM 13.0975 55.5755 0.2307501 7.552299 49.8 13.0975
10/22/2021 10:48:00 PM 13.1175 55.6115 0.2297 7.5516 49.38499 13.1175
10/22/2021 11:02:59 PM 13.12 55.616 0.2286499 7.552999 47.655 13.12
10/22/2021 11:17:59 PM 13.1175 55.6115 0.2279501 7.552999 47.31 13.1175
10/22/2021 11:32:59 PM 12.755 54.959 0.22945 7.553699 46.575 12.755
10/23/2021 12:02:59 AM 12.8075 55.0535 0.2273501 7.553699 51.405 12.8075
10/23/2021 12:17:59 AM 12.98 55.364 0.2245501 7.552299 94.5 12.98
10/23/2021 12:32:59 AM 13.065 55.517 0.2228 7.552999 88.255 13.065
10/23/2021 12:47:59 AM 13.12 55.616 0.2214 7.552999 78.69501 13.12
10/23/2021 1:02:59 AM 12.9125 55.2425 0.2217501 7.553699 71.435 12.9125
10/23/2021 1:17:59 AM 12.565 54.617 0.2239 7.553699 63.27 12.565
10/23/2021 1:32:59 AM 12.515 54.527 0.2239 7.554399 57.62 12.515
10/23/2021 1:47:59 AM 12.685 54.833 0.2225 7.552999 59.35001 12.685
10/23/2021 2:02:59 AM 12.8025 55.0445 0.2211 7.553699 63.06 12.8025
10/23/2021 2:17:59 AM 12.8725 55.1705 0.2204 7.552299 67.645 12.8725
10/23/2021 2:32:59 AM 12.9075 55.2335 0.2194 7.552999 74.10001 12.9075
10/23/2021 2:47:59 AM 12.9075 55.2335 0.2186 7.552299 83.745 12.9075
10/23/2021 3:02:59 AM 12.91 55.238 0.2179501 7.552999 91.61 12.91
10/23/2021 3:17:59 AM 12.84 55.112 0.2176 7.553699 97.9502 12.84
10/23/2021 3:32:59 AM 12.495 54.491 0.2186999 7.552999 109.2002 12.495
10/23/2021 3:47:59 AM 12.3875 54.2975 0.2186999 7.553699 123.9004 12.3875
10/23/2021 4:02:59 AM 12.5625 54.6125 0.2169501 7.557199 133.0498 12.5625
10/23/2021 4:17:59 AM 12.665 54.797 0.2155501 7.557199 145.6499 12.665
10/23/2021 4:32:59 AM 12.715 54.887 0.21415 7.557899 157.2002 12.715
10/23/2021 4:47:59 AM 12.7525 54.9545 0.2128001 7.557899 165.4497 12.7525
10/23/2021 5:02:59 AM 12.7725 54.9905 0.2116999 7.557199 174.3003 12.7725
10/23/2021 5:17:59 AM 12.7725 54.9905 0.2106999 7.558599 175.2002 12.7725
10/23/2021 5:32:59 AM 12.7725 54.9905 0.2096499 7.557899 181.3501 12.7725
10/23/2021 5:47:59 AM 12.77 54.986 0.2089501 7.557899 180.3003 12.77
10/23/2021 6:03:00 AM 12.4975 54.4955 0.2096499 7.558599 178.3501 12.4975
10/23/2021 6:18:00 AM 12.2325 54.0185 0.2104 7.552999 178.0498 12.2325
10/23/2021 6:33:00 AM 12.3025 54.1445 0.2093501 7.553699 173.8501 12.3025
10/23/2021 6:48:00 AM 12.44 54.392 0.2076 7.552999 170.7002 12.44
10/23/2021 7:03:00 AM 12.525 54.545 0.2061999 7.5488 164.3999 12.525
10/23/2021 7:17:59 AM 12.56 54.608 0.2052 7.5474 161.25 12.56
10/23/2021 7:32:59 AM 12.575 54.635 0.2045 7.5474 153.9004 12.575
10/23/2021 7:47:59 AM 12.58 54.644 0.2038001 7.5439 149.1001 12.58
10/23/2021 8:02:59 AM 12.58 54.644 0.2034499 7.5439 142.9502 12.58
10/23/2021 8:17:59 AM 12.58 54.644 0.2027501 7.5432 137.6997 12.58
10/23/2021 8:48:00 AM 12.5975 54.6755 0.2024 7.539 127.0498 12.5975
10/23/2021 9:02:59 AM 12.5975 54.6755 0.2024 7.5383 121.9502 12.5975
10/23/2021 9:17:59 AM 12.2675 54.0815 0.20415 7.5341 119.8501 12.2675
10/23/2021 9:32:59 AM 12.06 53.708 0.2052 7.5327 112.5 12.06
10/23/2021 9:47:59 AM 12.1125 53.8025 0.2049 7.5341 111.2998 12.1125
10/23/2021 10:02:59 AM 12.265 54.077 0.2038001 7.5341 107.1001 12.265
10/23/2021 10:17:59 AM 12.335 54.203 0.2034499 7.5341 102.8999 12.335
10/23/2021 10:32:59 AM 12.3875 54.2975 0.20315 7.5285 99.75 12.3875
10/23/2021 10:47:59 AM 12.41 54.338 0.2031 7.5285 96.8999 12.41
10/23/2021 11:02:59 AM 12.4425 54.3965 0.2034 7.5285 92.8501 12.4425
10/23/2021 11:17:59 AM 12.44 54.392 0.2034 7.5292 90.75 12.4425
10/23/2021 11:32:59 AM 12.46 54.428 0.2037501 7.5285 93.375 12.46
10/23/2021 11:47:59 AM 12.46 54.428 0.2037501 7.5292 90.77 12.46
10/23/2021 12:02:59 PM 12.1975 53.9555 0.2055 7.5348 88.52 12.1975
10/23/2021 12:17:59 PM 12.0075 53.6135 0.2069 7.5334 87.22 12.0075
10/23/2021 12:32:59 PM 11.9025 53.4245 0.2076 7.5341 83.96001 11.9025
10/23/2021 12:47:59 PM 12.0775 53.7395 0.2069501 7.5334 82.12 12.0775
10/23/2021 1:02:59 PM 12.2325 54.0185 0.2061999 7.5341 79.06 12.2325
10/23/2021 1:17:59 PM 12.3175 54.1715 0.20585 7.5327 76.97501 12.3175
10/23/2021 1:32:59 PM 12.37 54.266 0.20585 7.5383 75.48 12.37
10/23/2021 1:47:59 PM 12.4075 54.3335 0.2061999 7.539 72.825 12.4075
10/23/2021 2:02:59 PM 12.4225 54.3605 0.20615 7.5383 70.88499 12.4225
10/23/2021 2:17:59 PM 12.425 54.365 0.2065 7.5439 69.215 12.425
10/23/2021 2:32:59 PM 12.2675 54.0815 0.20755 7.5432 67.86501 12.2675
10/23/2021 2:48:00 PM 12.06 53.708 0.2089501 7.5481 65.535 12.06
10/23/2021 3:03:00 PM 11.955 53.519 0.2097 7.5488 64.035 11.955
10/23/2021 3:18:00 PM 11.925 53.465 0.2100499 7.5495 61.57001 11.925
10/23/2021 3:33:00 PM 12.06 53.708 0.2093501 7.5495 60.46001 12.06
10/23/2021 3:48:00 PM 12.215 53.987 0.2086499 7.5474 59 12.215
10/23/2021 4:03:00 PM 12.3 54.14 0.2083001 7.552999 57.37 12.3
10/23/2021 4:18:00 PM 12.3675 54.2615 0.2079501 7.553699 55.56 12.3675
10/23/2021 4:32:59 PM 12.405 54.329 0.2079 7.557899 54.77499 12.405
10/23/2021 4:47:59 PM 12.425 54.365 0.2076 7.558599 53.905 12.425
10/23/2021 5:02:59 PM 12.4425 54.3965 0.20755 7.557899 53.145 12.4425
10/23/2021 5:17:59 PM 12.235 54.023 0.2086499 7.563499 51.965 12.235
10/23/2021 5:32:59 PM 12.025 53.645 0.21 7.562799 50.74001 12.025
10/23/2021 5:47:59 PM 11.9425 53.4965 0.2107501 7.564199 50.05 11.9425
10/23/2021 6:02:59 PM 11.975 53.555 0.2104 7.563499 48.52 11.975
10/23/2021 6:17:59 PM 12.165 53.897 0.2094 7.564199 48.49001 12.165
10/23/2021 6:33:00 PM 12.2675 54.0815 0.209 7.567699 48.27499 12.2675
10/23/2021 6:47:59 PM 12.315 54.167 0.2086 7.567699 47.06 12.315
10/23/2021 7:02:59 PM 12.3375 54.2075 0.2086499 7.567699 46.75 12.3375
10/23/2021 7:17:59 PM 12.3575 54.2435 0.2086 7.567699 45.505 12.3575
10/23/2021 7:32:59 PM 12.3725 54.2705 0.209 7.568399 45.05499 12.3725
10/23/2021 7:47:59 PM 12.3725 54.2705 0.2089501 7.567699 44.47 12.3725
10/23/2021 8:02:59 PM 12.3725 54.2705 0.209 7.568399 44.255 12.3725
10/23/2021 8:32:59 PM 11.835 53.303 0.21245 7.567699 43.13499 11.835
10/23/2021 8:47:59 PM 11.905 53.429 0.21215 7.567699 43.45 11.905
10/23/2021 9:02:59 PM 12.06 53.708 0.2111 7.566999 42.44501 12.06
10/23/2021 9:17:59 PM 12.1625 53.8925 0.2107501 7.567699 42.235 12.1625
10/23/2021 9:32:59 PM 12.215 53.987 0.2106999 7.566999 41.75 12.215
10/23/2021 9:47:59 PM 12.2325 54.0185 0.2106999 7.566999 41.25999 12.2325
10/23/2021 10:02:59 PM 12.235 54.023 0.2110499 7.567699 41.44501 12.235
10/23/2021 10:17:59 PM 12.2525 54.0545 0.2110499 7.567699 40.85001 12.2525
10/23/2021 10:32:59 PM 12.2525 54.0545 0.2113501 7.567699 41.03 12.2525
10/23/2021 10:47:59 PM 12.2525 54.0545 0.2114 7.566999 40.16 12.2525
10/23/2021 11:03:00 PM 12.03 53.654 0.2131 7.568399 39.92 12.03
10/23/2021 11:17:59 PM 11.7625 53.1725 0.21485 7.566999 39.77 11.7625
10/23/2021 11:32:59 PM 11.7675 53.1815 0.2156499 7.569099 39.175 11.7675
10/24/2021 12:03:00 AM 12.0425 53.6765 0.2149 7.567699 41.89 12.0425
10/24/2021 12:18:00 AM 12.1625 53.8925 0.21485 7.572599 75.55499 12.1625
10/24/2021 12:33:00 AM 12.2175 53.9915 0.2151999 7.577499 66.19501 12.2175
10/24/2021 12:47:59 AM 12.27 54.086 0.2159 7.582399 58.065 12.27
10/24/2021 1:03:00 AM 12.01 53.618 0.2179501 7.583099 49.91499 12.01
10/24/2021 1:17:59 AM 11.6775 53.0195 0.2211 7.583099 41.78 11.6775
10/24/2021 1:32:59 AM 11.5925 52.8665 0.22255 7.583099 38.41499 11.5925
10/24/2021 1:47:59 AM 11.785 53.213 0.22215 7.583099 37.06 11.785
10/24/2021 2:02:59 AM 11.905 53.429 0.22215 7.586599 36.37 11.905
10/24/2021 2:17:59 AM 11.975 53.555 0.2225 7.587999 35.88499 11.975
10/24/2021 2:32:59 AM 12.0075 53.6135 0.2228 7.587299 35.465 12.0075
10/24/2021 2:47:59 AM 12.0075 53.6135 0.22385 7.592199 35.255 12.0075
10/24/2021 3:02:59 AM 12.0275 53.6495 0.2245501 7.597799 35.19501 12.0275
10/24/2021 3:17:59 AM 12.0275 53.6495 0.2255501 7.597099 34.91499 12.0275
10/24/2021 3:32:59 AM 12.01 53.618 0.2263 7.597799 35.125 12.01
10/24/2021 3:47:59 AM 12.0075 53.6135 0.2269 7.601999 34.95 12.0075
10/24/2021 4:17:59 AM 11.975 53.555 0.2286499 7.606899 34.745 11.975
10/24/2021 4:32:59 AM 11.87 53.366 0.2297 7.606899 34.605 11.87
10/24/2021 4:47:59 AM 11.52 52.736 0.2325 7.606199 34.67 11.52
10/24/2021 5:02:59 AM 11.4175 52.5515 0.2336 7.611099 34.255 11.4175
10/24/2021 5:17:59 AM 11.59 52.862 0.23285 7.611099 33.94 11.59
10/24/2021 5:47:59 AM 11.73 53.114 0.2328001 7.611099 34.145 11.73
10/24/2021 6:02:59 AM 11.745 53.141 0.2332 7.611099 33.45 11.745
10/24/2021 6:17:59 AM 11.765 53.177 0.23385 7.611099 33.005 11.765
10/24/2021 6:32:59 AM 11.765 53.177 0.2342 7.612499 32.35001 11.765
10/24/2021 6:47:59 AM 11.765 53.177 0.2346 7.611799 32.345 11.765
10/24/2021 7:02:59 AM 11.7475 53.1455 0.2349 7.611099 32.13499 11.7475
10/24/2021 7:17:59 AM 11.7475 53.1455 0.2352499 7.611799 31.45 11.7475
10/24/2021 7:32:59 AM 11.7475 53.1455 0.2356 7.611799 31.41 11.7475
10/24/2021 7:48:00 AM 11.73 53.114 0.2359501 7.611799 31.62 11.73
10/24/2021 8:02:59 AM 11.73 53.114 0.2362499 7.611099 30.82001 11.73
10/24/2021 8:17:59 AM 11.7125 53.0825 0.237 7.611799 30.505 11.7125
10/24/2021 8:32:59 AM 11.7125 53.0825 0.2373001 7.611099 30.125 11.7125
10/24/2021 8:47:59 AM 11.455 52.619 0.2394499 7.611799 29.78 11.455
10/24/2021 9:02:59 AM 11.19 52.142 0.24115 7.611099 29.045 11.19
10/24/2021 9:18:00 AM 11.2825 52.3085 0.2412499 7.606899 28.905 11.2825
10/24/2021 9:33:00 AM 11.42 52.556 0.2405501 7.606899 28.63 11.42
10/24/2021 9:47:59 AM 11.525 52.745 0.23985 7.606899 28.07001 11.525
10/24/2021 10:03:00 AM 11.61 52.898 0.23985 7.606899 27.515 11.61
10/24/2021 10:18:00 AM 11.6625 52.9925 0.2394499 7.606899 27.235 11.6625
10/24/2021 10:32:59 AM 11.715 53.087 0.2395 7.606899 26.575 11.715
10/24/2021 10:47:59 AM 11.7325 53.1185 0.2398001 7.606899 26.22501 11.7325
10/24/2021 11:02:59 AM 11.505 52.709 0.2419 7.606899 25.675 11.505
10/24/2021 11:17:59 AM 11.35 52.43 0.2433501 7.606899 25.57001 11.35
10/24/2021 11:33:00 AM 11.2675 52.2815 0.2444 7.606899 25.125 11.2675
10/24/2021 11:47:59 AM 11.245 52.241 0.245 7.631399 24.74001 11.245
10/24/2021 12:03:00 PM 11.2775 52.2995 0.245 7.636299 24.425 11.2775
10/24/2021 12:33:00 PM 11.3 52.34 0.2457501 7.650999 23.595 11.3
10/24/2021 12:47:59 PM 11.33 52.394 0.2457501 7.656601 23.66 11.33
10/24/2021 1:02:59 PM 11.365 52.457 0.2460499 7.660801 22.905 11.365
10/24/2021 1:17:59 PM 11.4025 52.5245 0.2460499 7.670601 22.89999 11.4025
10/24/2021 1:32:59 PM 11.385 52.493 0.2464499 7.681101 22.69 11.385
10/24/2021 1:47:59 PM 11.4 52.52 0.2467501 7.685301 22.485 11.4
10/24/2021 2:02:59 PM 11.555 52.799 0.2457501 7.694401 21.895 11.555
10/24/2021 2:17:59 PM 11.695 53.051 0.2450499 7.704901 21.755 11.695
10/24/2021 2:32:59 PM 11.7825 53.2085 0.2446499 7.709101 21.715 11.7825
10/24/2021 2:47:59 PM 11.8475 53.3255 0.2443001 7.718201 21.44 11.8475
10/24/2021 3:02:59 PM 11.905 53.429 0.2443001 7.723801 21.34 11.905
10/24/2021 3:17:59 PM 11.94 53.492 0.2442499 7.729401 21.065 11.94
10/24/2021 3:33:00 PM 11.955 53.519 0.2442499 7.733601 20.685 11.955
10/24/2021 3:47:59 PM 11.955 53.519 0.2446 7.738501 20.50999 11.955
10/24/2021 4:02:59 PM 11.9775 53.5595 0.2446 7.737801 20.295 11.9775
10/24/2021 4:17:59 PM 11.975 53.555 0.2449501 7.737801 20.23 11.975
10/24/2021 4:32:59 PM 11.975 53.555 0.2453001 7.737801 20.23 11.975
10/24/2021 4:48:00 PM 11.8025 53.2445 0.2467501 7.737801 20.30499 11.8025
10/24/2021 5:02:59 PM 11.6625 52.9925 0.2478001 7.737801 20.22501 11.6625
10/24/2021 5:18:00 PM 11.5775 52.8395 0.24885 7.737801 20.12 11.5775
10/24/2021 5:33:00 PM 11.525 52.745 0.2492 7.737801 20.09 11.525
10/24/2021 5:48:00 PM 11.5275 52.7495 0.2496 7.737801 20.19501 11.5275
10/24/2021 6:03:00 PM 11.4925 52.6865 0.2502499 7.737801 19.815 11.4925
10/24/2021 6:18:00 PM 11.4775 52.6595 0.2506 7.737801 19.77499 11.4775
10/24/2021 6:33:00 PM 11.4425 52.5965 0.2509501 7.737801 19.75 11.4425
10/24/2021 6:48:00 PM 11.5825 52.8485 0.2502499 7.737801 19.64 11.5825
10/24/2021 7:03:00 PM 11.715 53.087 0.24985 7.753201 19.60001 11.715
10/24/2021 7:18:00 PM 11.78 53.204 0.2495 7.753201 19.565 11.78
10/24/2021 7:33:00 PM 11.8125 53.2625 0.2495 7.751801 19.17999 11.8125
10/24/2021 7:48:00 PM 11.85 53.33 0.2495 7.751801 19.215 11.85
10/24/2021 8:02:59 PM 11.8525 53.3345 0.24945 7.748301 19.19 11.8525
10/24/2021 8:17:59 PM 11.885 53.393 0.2498001 7.747601 19.47 11.885
10/24/2021 8:33:00 PM 11.885 53.393 0.2498001 7.748301 19.28999 11.885
10/24/2021 8:47:59 PM 11.9025 53.4245 0.25015 7.742701 19.42999 11.9025
10/24/2021 9:02:59 PM 11.9225 53.4605 0.2501999 7.748301 19.05 11.9225
10/24/2021 9:17:59 PM 11.9225 53.4605 0.2505 7.742701 19.255 11.9225
10/24/2021 9:33:00 PM 11.9375 53.4875 0.25085 7.742701 19.185 11.9375
10/24/2021 9:47:59 PM 11.8675 53.3615 0.2515 7.743401 19.05499 11.8675
10/24/2021 10:18:00 PM 11.47 52.646 0.2546499 7.738501 18.77 11.47
10/24/2021 10:33:00 PM 11.3825 52.4885 0.2554 7.738501 18.84 11.3825
10/24/2021 10:48:00 PM 11.35 52.43 0.2557501 7.739201 18.66499 11.35
10/24/2021 11:17:59 PM 11.4875 52.6775 0.2550499 7.733601 18.39 11.4875
10/24/2021 11:32:59 PM 11.625 52.925 0.254 7.732901 18.35001 11.625
10/25/2021 12:02:59 AM 11.7625 53.1725 0.2533 7.723801 21.925 11.7625
10/25/2021 12:17:59 AM 11.865 53.357 0.2519501 7.728001 46.395 11.865
10/25/2021 12:32:59 AM 11.9225 53.4605 0.25155 7.728701 38.905 11.9225
10/25/2021 12:47:59 AM 11.975 53.555 0.25115 7.728001 31.92999 11.975
10/25/2021 1:03:00 AM 11.715 53.087 0.2529 7.729401 27.8 11.715
10/25/2021 1:17:59 AM 11.485 52.673 0.2546499 7.723101 22.485 11.485
10/25/2021 1:32:59 AM 11.3825 52.4885 0.2553501 7.723801 19.42999 11.3825
10/25/2021 1:47:59 AM 11.315 52.367 0.2560499 7.723801 18.25 11.315
10/25/2021 2:02:59 AM 11.295 52.331 0.2564 7.719601 17.8 11.295
10/25/2021 2:17:59 AM 11.2625 52.2725 0.2567501 7.719601 17.66499 11.2625
10/25/2021 2:32:59 AM 11.3 52.34 0.2568001 7.714701 17.45 11.3
10/25/2021 2:47:59 AM 11.49 52.682 0.2557501 7.718901 17.45 11.49
10/25/2021 3:02:59 AM 11.5925 52.8665 0.2550499 7.718901 17.59 11.5925
10/25/2021 3:17:59 AM 11.6775 53.0195 0.2546999 7.718901 17.41 11.6775
10/25/2021 3:33:00 AM 11.7275 53.1095 0.2543001 7.718201 17.86501 11.7275
10/25/2021 3:48:00 AM 11.7625 53.1725 0.254 7.718201 17.83 11.7625
10/25/2021 4:18:00 AM 11.8175 53.2715 0.2543001 7.714001 18.08 11.8175
10/25/2021 4:33:00 AM 11.8175 53.2715 0.2543001 7.714001 17.765 11.8175
10/25/2021 4:47:59 AM 11.835 53.303 0.2543001 7.714001 17.7 11.835
10/25/2021 5:02:59 AM 11.835 53.303 0.2543001 7.708401 17.87 11.835
10/25/2021 5:17:59 AM 11.8325 53.2985 0.2543001 7.709101 18.11 11.8325
10/25/2021 5:32:59 AM 11.8175 53.2715 0.2546499 7.709101 17.94 11.8175
10/25/2021 5:47:59 AM 11.525 52.745 0.2566999 7.709101 17.94501 11.525
10/25/2021 6:02:59 AM 11.345 52.421 0.2581 7.704201 17.97 11.345
10/25/2021 6:17:59 AM 11.2625 52.2725 0.25885 7.705601 18.075 11.2625
10/25/2021 6:32:59 AM 11.21 52.178 0.2591999 7.700001 17.97 11.21
10/25/2021 6:47:59 AM 11.2975 52.3355 0.25885 7.695801 18.14 11.2975
10/25/2021 7:02:59 AM 11.4725 52.6505 0.2578 7.694401 18.17999 11.4725
10/25/2021 7:18:00 AM 11.5925 52.8665 0.2574 7.688801 18.145 11.5925
10/25/2021 7:33:00 AM 11.6425 52.9565 0.2571 7.685301 18.38499 11.6425
10/25/2021 7:47:59 AM 11.6725 53.0105 0.2571 7.684601 18.35001 11.6725
10/25/2021 8:02:59 AM 11.71 53.078 0.2567501 7.679001 18.55499 11.71
10/25/2021 8:17:59 AM 11.7325 53.1185 0.2566999 7.674101 18.39 11.7325
10/25/2021 8:32:59 AM 11.765 53.177 0.2563501 7.669901 18.495 11.765
10/25/2021 8:47:59 AM 11.7975 53.2355 0.2563501 7.665001 18.565 11.7975
10/25/2021 9:02:59 AM 11.835 53.303 0.2560499 7.660101 18.63 11.835
10/25/2021 9:17:59 AM 11.6975 53.0555 0.2570499 7.660101 18.53 11.6975
10/25/2021 9:32:59 AM 11.5425 52.7765 0.25815 7.651699 18.565 11.5425
10/25/2021 9:47:59 AM 11.4675 52.6415 0.2588001 7.650299 18.52499 11.4675
10/25/2021 10:02:59 AM 11.45 52.61 0.2588001 7.645399 18.52 11.45
10/25/2021 10:17:59 AM 11.485 52.673 0.2584499 7.645399 18.735 11.485
10/25/2021 10:32:59 AM 11.54 52.772 0.25815 7.640499 18.84 11.54
10/25/2021 10:47:59 AM 11.5875 52.8575 0.25745 7.640499 19.11501 11.5875
10/25/2021 11:02:59 AM 11.6775 53.0195 0.2571 7.639799 19.185 11.6775
10/25/2021 11:17:59 AM 11.7425 53.1365 0.2567501 7.640499 19.17999 11.7425
10/25/2021 11:32:59 AM 11.865 53.357 0.2560499 7.640499 19.25 11.865
10/25/2021 11:47:59 AM 11.9725 53.5505 0.2553501 7.640499 19.47 11.9725
10/25/2021 12:03:00 PM 12.025 53.645 0.255 7.641199 19.5 12.025
10/25/2021 12:18:00 PM 12.0775 53.7395 0.255 7.640499 19.675 12.0775
10/25/2021 12:33:00 PM 12.1125 53.8025 0.2546499 7.644699 19.99001 12.1125
10/25/2021 12:48:00 PM 12.18 53.924 0.2543001 7.650299 19.605 12.18
10/25/2021 1:03:00 PM 12.2325 54.0185 0.2532499 7.649599 19.705 12.2325
10/25/2021 1:18:00 PM 12.285 54.113 0.25255 7.655199 19.78 12.285
10/25/2021 1:33:00 PM 12.3525 54.2345 0.2514499 7.660101 19.605 12.3525
10/25/2021 1:48:00 PM 12.425 54.365 0.2505 7.669901 19.815 12.425
10/25/2021 2:02:59 PM 12.475 54.455 0.2494 7.674101 19.92 12.475
10/25/2021 2:17:59 PM 12.545 54.581 0.2483501 7.679001 20.16 12.545
10/25/2021 2:32:59 PM 12.6825 54.8285 0.2466 7.683901 20.16 12.6825
10/25/2021 2:47:59 PM 12.6825 54.8285 0.2459 7.688101 20.37 12.6825
10/25/2021 3:02:59 PM 12.685 54.833 0.2452499 7.693701 20.505 12.685
10/25/2021 3:17:59 PM 12.7025 54.8645 0.2441999 7.698601 20.86 12.7025
10/25/2021 3:32:59 PM 12.685 54.833 0.2428 7.702801 21.48 12.685
10/25/2021 3:47:59 PM 12.755 54.959 0.2414 7.703501 21.62 12.755
10/25/2021 4:02:59 PM 12.7025 54.8645 0.2407501 7.703501 22.515 12.7025
10/25/2021 4:17:59 PM 12.685 54.833 0.2396999 7.698601 23.215 12.685
10/25/2021 4:32:59 PM 12.6675 54.8015 0.239 7.694401 24.19 12.6675
10/25/2021 4:47:59 PM 12.635 54.743 0.2386499 7.693001 25.16 12.635
10/25/2021 5:02:59 PM 12.5825 54.6485 0.238 7.683201 25.715 12.5825
10/25/2021 5:17:59 PM 12.53 54.554 0.2373001 7.679701 26.515 12.53
10/25/2021 5:32:59 PM 12.495 54.491 0.2369501 7.669901 27.565 12.495
10/25/2021 5:47:59 PM 12.46 54.428 0.23655 7.664301 28.185 12.46
10/25/2021 6:02:59 PM 12.41 54.338 0.2366 7.660101 28.77 12.41
10/25/2021 6:17:59 PM 12.3575 54.2435 0.2366499 7.650299 29.25999 12.3575
10/25/2021 6:32:59 PM 12.305 54.149 0.2366499 7.646099 30.02499 12.305
10/25/2021 6:47:59 PM 12.2875 54.1175 0.2369501 7.639799 30.05499 12.2875
10/25/2021 7:02:59 PM 12.2525 54.0545 0.2373501 7.641199 30.67999 12.2525
10/25/2021 7:17:59 PM 12.2175 53.9915 0.238 7.641199 31.16499 12.2175
10/25/2021 7:32:59 PM 12.185 53.933 0.2387501 7.641899 30.50999 12.185
10/25/2021 7:47:59 PM 12.1625 53.8925 0.2394 7.639799 30.845 12.1625
10/25/2021 8:03:00 PM 12.145 53.861 0.2398001 7.640499 31.33501 12.145
10/25/2021 8:17:59 PM 12.1275 53.8295 0.2394499 7.641199 33.065 12.1275
10/25/2021 8:32:59 PM 12.13 53.834 0.2391 7.645399 35.705 12.13
10/25/2021 8:47:59 PM 12.1475 53.8655 0.2384 7.640499 38.58501 12.1475
10/25/2021 9:03:00 PM 12.1475 53.8655 0.2373501 7.641199 42.44 12.1475
10/25/2021 9:18:00 PM 12.1475 53.8655 0.2367 7.640499 47.44 12.1475
10/25/2021 9:33:00 PM 12.1475 53.8655 0.236 7.635599 50.63499 12.1475
10/25/2021 9:48:00 PM 12.1475 53.8655 0.2353 7.631399 54.655 12.1475
10/25/2021 10:03:00 PM 12.145 53.861 0.2342499 7.631399 57.2 12.145
10/25/2021 10:18:00 PM 12.13 53.834 0.2336 7.625799 58.995 12.13
10/25/2021 10:33:00 PM 12.1475 53.8655 0.2325501 7.626499 60.84 12.1475
10/25/2021 11:03:00 PM 12.1675 53.9015 0.2304499 7.615999 61.22 12.1675
10/25/2021 11:17:59 PM 12.1825 53.9285 0.2298 7.611099 61.255 12.1825
10/25/2021 11:32:59 PM 12.2 53.96 0.2290499 7.606899 61.08501 12.2
10/26/2021 12:02:59 AM 12.27 54.086 0.2284 7.592899 70.11501 12.27
10/26/2021 12:17:59 AM 12.3225 54.1805 0.2276499 7.587299 103.9502 12.3225
10/26/2021 12:32:59 AM 12.375 54.275 0.2277 7.581699 86.83501 12.375
10/26/2021 12:48:00 AM 12.4075 54.3335 0.2277 7.576799 76.705 12.4075
10/26/2021 1:02:59 AM 12.4275 54.3695 0.2277 7.572599 69.52 12.4275
10/26/2021 1:17:59 AM 12.4275 54.3695 0.2280499 7.573299 61.47 12.4275
10/26/2021 1:32:59 AM 12.4275 54.3695 0.2284 7.567699 55.7 12.4275
10/26/2021 1:47:59 AM 12.4275 54.3695 0.2287 7.567699 52.895 12.4275
10/26/2021 2:02:59 AM 12.4425 54.3965 0.2291 7.563499 51.64999 12.4425
10/26/2021 2:17:59 AM 12.4425 54.3965 0.22945 7.558599 51.645 12.4425
10/26/2021 2:32:59 AM 12.4425 54.3965 0.2298 7.558599 50.11501 12.4425
10/26/2021 2:47:59 AM 12.4625 54.4325 0.2305 7.557899 49.80499 12.4625
10/26/2021 3:02:59 AM 12.4625 54.4325 0.23085 7.553699 49.66 12.4625
10/26/2021 3:17:59 AM 12.4625 54.4325 0.23115 7.553699 49.60001 12.4625
10/26/2021 3:32:59 AM 12.4625 54.4325 0.2315 7.5481 48.72501 12.4625
10/26/2021 3:47:59 AM 12.4625 54.4325 0.23185 7.5481 48.205 12.4625
10/26/2021 4:02:59 AM 12.46 54.428 0.23185 7.5481 48.83 12.46
10/26/2021 4:17:59 AM 12.48 54.464 0.23185 7.5481 53.24001 12.48
10/26/2021 4:32:59 AM 12.4775 54.4595 0.23215 7.5481 57.06 12.4775
10/26/2021 4:47:59 AM 12.495 54.491 0.2322 7.5488 54.87 12.495
10/26/2021 5:02:59 AM 12.495 54.491 0.23215 7.5488 52.895 12.495
10/26/2021 5:17:59 AM 12.4975 54.4955 0.2322 7.5481 51.99001 12.4975
10/26/2021 5:32:59 AM 12.495 54.491 0.23185 7.5488 50.285 12.495
10/26/2021 5:47:59 AM 12.515 54.527 0.2315 7.5488 50.495 12.515
10/26/2021 6:02:59 AM 12.5125 54.5225 0.2315 7.5481 49.735 12.5125
10/26/2021 6:17:59 AM 12.5125 54.5225 0.23115 7.5432 49.285 12.5125
10/26/2021 6:32:59 AM 12.53 54.554 0.23085 7.5446 48.21001 12.53
10/26/2021 6:48:00 AM 12.53 54.554 0.2304499 7.5439 48.45 12.53
10/26/2021 7:03:00 AM 12.515 54.527 0.23015 7.5446 47.75999 12.5125
10/26/2021 7:18:00 AM 12.495 54.491 0.2297501 7.5439 47.685 12.495
10/26/2021 7:33:00 AM 12.4975 54.4955 0.22945 7.5439 47.375 12.4975
10/26/2021 7:47:59 AM 12.48 54.464 0.2291 7.539 47.13 12.48
10/26/2021 8:02:59 AM 12.48 54.464 0.2287501 7.539 47.16499 12.48
10/26/2021 8:17:59 AM 12.4625 54.4325 0.2280499 7.5397 47.755 12.4625
10/26/2021 8:32:59 AM 12.46 54.428 0.2273501 7.5383 48.035 12.46
10/26/2021 8:47:59 AM 12.445 54.401 0.2266999 7.5334 48.56 12.445
10/26/2021 9:02:59 AM 12.445 54.401 0.226 7.5397 49.56 12.445
10/26/2021 9:17:59 AM 12.4275 54.3695 0.2249 7.5341 50.285 12.4275
10/26/2021 9:32:59 AM 12.41 54.338 0.2243 7.5348 51.33 12.41
10/26/2021 9:47:59 AM 12.3925 54.3065 0.2231999 7.5341 51.82001 12.3925
10/26/2021 10:02:59 AM 12.375 54.275 0.2225 7.5292 52.965 12.375
10/26/2021 10:17:59 AM 12.36 54.248 0.22185 7.5292 54.11501 12.36
10/26/2021 10:32:59 AM 12.3575 54.2435 0.22115 7.5299 54.32001 12.3575
10/26/2021 10:47:59 AM 12.3575 54.2435 0.22045 7.5292 54.66499 12.3575
10/26/2021 11:02:59 AM 12.3425 54.2165 0.2198001 7.525 55.495 12.3425
10/26/2021 11:17:59 AM 12.3375 54.2075 0.2186999 7.5236 56.38499 12.3375
10/26/2021 11:32:59 AM 12.3925 54.3065 0.2176999 7.525 56.82001 12.3925
10/26/2021 11:47:59 AM 12.6 54.68 0.2151999 7.5236 56.82001 12.6
10/26/2021 12:02:59 PM 12.7175 54.8915 0.2138 7.5236 57.05499 12.7175
10/26/2021 12:17:59 PM 12.805 55.049 0.21245 7.5243 57.575 12.805
10/26/2021 12:32:59 PM 12.8425 55.1165 0.2113501 7.5236 58.005 12.8425
10/26/2021 1:17:59 PM 12.46 54.428 0.2107501 7.5194 61.34 12.46
10/26/2021 1:32:59 PM 12.65 54.77 0.2086499 7.5201 64.5 12.65
10/26/2021 1:47:59 PM 12.7375 54.9275 0.2076 7.5145 66.825 12.7375
10/26/2021 2:02:59 PM 12.7875 55.0175 0.20655 7.5145 70.46001 12.7875
10/26/2021 2:17:59 PM 12.805 55.049 0.20615 7.5089 70.08501 12.805
10/26/2021 2:32:59 PM 12.545 54.581 0.2071999 7.5089 69.075 12.545
10/26/2021 2:47:59 PM 12.425 54.365 0.2072499 7.5054 71.785 12.425
10/26/2021 3:02:59 PM 12.58 54.644 0.2055 7.4991 76.61501 12.58
10/26/2021 3:17:59 PM 12.65 54.77 0.2047501 7.4991 81.3 12.65
10/26/2021 3:32:59 PM 12.6825 54.8285 0.20515 7.4942 87.16 12.6825
10/26/2021 3:47:59 PM 12.6675 54.8015 0.20545 7.4991 93.90039 12.6675
10/26/2021 4:02:59 PM 12.665 54.797 0.20515 7.4998 120.8999 12.665
10/26/2021 4:17:59 PM 12.4075 54.3335 0.2058 7.4991 156.4497 12.4075
10/26/2021 4:32:59 PM 12.1825 53.9285 0.20555 7.5047 192 12.1825
10/26/2021 4:47:59 PM 12.32 54.176 0.2034499 7.5047 216 12.32
10/26/2021 5:02:59 PM 12.4075 54.3335 0.2010499 7.4998 235.6499 12.4075
10/26/2021 5:32:59 PM 12.4425 54.3965 0.1972 7.49 255.4497 12.4425
10/26/2021 5:47:59 PM 12.425 54.365 0.1948 7.4851 254.3999 12.425
10/26/2021 6:02:59 PM 12.095 53.771 0.1941 7.4809 247.0498 12.095
10/26/2021 6:17:59 PM 11.885 53.393 0.1931 7.4753 241.6499 11.885
10/26/2021 6:32:59 PM 11.78 53.204 0.1917 7.4655 233.25 11.78
10/26/2021 6:47:59 PM 11.99 53.582 0.1893 7.4599 224.8501 11.99
10/26/2021 7:17:59 PM 12.1775 53.9195 0.1855 7.4557 209.1001 12.1775
10/26/2021 7:32:59 PM 12.2175 53.9915 0.1834 7.4515 206.5503 12.2175
10/26/2021 7:47:59 PM 12.235 54.023 0.1816499 7.4459 200.0996 12.235
10/26/2021 8:02:59 PM 11.975 53.555 0.1816 7.4417 200.3999 11.975
10/26/2021 8:17:59 PM 11.8175 53.2715 0.1806 7.441 199.7998 11.8175
10/26/2021 8:32:59 PM 11.71 53.078 0.1789 7.4312 199.7998 11.71
10/26/2021 8:47:59 PM 11.7825 53.2085 0.1771999 7.4263 202.9502 11.7825
10/26/2021 9:02:59 PM 11.9575 53.5235 0.1750499 7.4256 210.3003 11.9575
10/26/2021 9:17:59 PM 12.0425 53.6765 0.173 7.4207 216.4497 12.0425
10/26/2021 9:32:59 PM 12.0775 53.7395 0.1709 7.4116 225.1499 12.0775
10/26/2021 9:47:59 PM 12.115 53.807 0.16885 7.4109 236.8501 12.115
10/26/2021 10:02:59 PM 12.0975 53.7755 0.1667501 7.4116 249.1499 12.0975
10/26/2021 10:17:59 PM 11.8175 53.2715 0.1653501 7.4067 257.5503 11.8175
10/26/2021 10:32:59 PM 11.645 52.961 0.164 7.4074 263.8501 11.645
10/26/2021 10:47:59 PM 11.6775 53.0195 0.1616 7.4074 274.7998 11.6775
10/26/2021 11:02:59 PM 11.8325 53.2985 0.1585 7.4011 273.75 11.8325
10/26/2021 11:17:59 PM 11.905 53.429 0.1564 7.4067 281.5503 11.905
10/26/2021 11:32:59 PM 11.9375 53.4875 0.1543 7.3969 280.5 11.9375
10/27/2021 12:03:00 AM 11.975 53.555 0.1504499 7.3871 303.4497 11.975
10/27/2021 12:18:00 AM 11.68 53.024 0.1495 7.3878 351.4497 11.68
10/27/2021 12:33:00 AM 11.475 52.655 0.14915 7.3878 330.6001 11.475
10/27/2021 12:48:00 AM 11.33 52.394 0.1488 7.378 308.25 11.33
10/27/2021 1:03:00 AM 11.265 52.277 0.14885 7.3731 286.5 11.265
10/27/2021 1:18:00 AM 11.21 52.178 0.1485 7.3745 277.0498 11.21
10/27/2021 1:48:00 AM 11.1425 52.0565 0.1475 7.3647 269.8501 11.1425
10/27/2021 2:02:59 AM 11.2475 52.2455 0.1468001 7.3647 266.5503 11.2475
10/27/2021 2:17:59 AM 11.4375 52.5875 0.1453501 7.3591 263.5503 11.4375
10/27/2021 2:32:59 AM 11.54 52.772 0.1443 7.3584 265.5 11.54
10/27/2021 2:47:59 AM 11.6075 52.8935 0.144 7.3535 262.3501 11.6075
10/27/2021 3:02:59 AM 11.64 52.952 0.1432499 7.3528 258.1499 11.64
10/27/2021 3:17:59 AM 11.6625 52.9925 0.1425501 7.3486 257.5503 11.6625
10/27/2021 3:32:59 AM 11.6775 53.0195 0.1421999 7.3486 256.5 11.6775
10/27/2021 3:47:59 AM 11.61 52.898 0.1421999 7.3486 256.5 11.61
10/27/2021 4:02:59 AM 11.3325 52.3985 0.1429 7.3444 254.5503 11.3325
10/27/2021 4:17:59 AM 11.175 52.115 0.1432499 7.3437 250.9502 11.175
10/27/2021 4:32:59 AM 11.1775 52.1195 0.1433 7.3395 250.9502 11.1775
10/27/2021 4:47:59 AM 11.365 52.457 0.1421999 7.3388 245.6997 11.365
10/27/2021 5:02:59 AM 11.485 52.673 0.14155 7.3388 247.9502 11.485
10/27/2021 5:33:00 AM 11.59 52.862 0.14115 7.3388 240.8999 11.59
10/27/2021 5:47:59 AM 11.61 52.898 0.1408 7.3388 240.8999 11.61
10/27/2021 6:02:59 AM 11.6275 52.9295 0.14085 7.3388 238.7998 11.6275
10/27/2021 6:17:59 AM 11.4025 52.5245 0.14185 7.3388 237.75 11.4025
10/27/2021 6:32:59 AM 11.1775 52.1195 0.1426 7.3395 236.7002 11.1775
10/27/2021 6:47:59 AM 11.1425 52.0565 0.1429 7.3388 235.3501 11.1425
10/27/2021 7:02:59 AM 11.3475 52.4255 0.1419 7.3437 235.3501 11.3475
10/27/2021 7:17:59 AM 11.4675 52.6415 0.1415 7.343 233.1001 11.4675
10/27/2021 7:32:59 AM 11.5225 52.7405 0.14115 7.3437 234.6001 11.5225
10/27/2021 7:47:59 AM 11.5575 52.8035 0.1411999 7.3486 233.5503 11.5575
10/27/2021 8:02:59 AM 11.575 52.835 0.14115 7.3486 235.6499 11.575
10/27/2021 8:17:59 AM 11.5725 52.8305 0.1411 7.3479 234.6001 11.5725
10/27/2021 8:48:00 AM 11.35 52.43 0.1425501 7.3535 236.7002 11.35
10/27/2021 9:02:59 AM 11.145 52.061 0.1433 7.3542 236.8501 11.145
10/27/2021 9:17:59 AM 11.2825 52.3085 0.1429 7.3591 240.8999 11.2825
10/27/2021 9:32:59 AM 11.42 52.556 0.1425501 7.3591 241.9502 11.42
10/27/2021 9:47:59 AM 11.49 52.682 0.1421999 7.364 248.0996 11.49
10/27/2021 10:02:59 AM 11.525 52.745 0.1421999 7.3633 249.1499 11.525
10/27/2021 10:18:00 AM 11.5575 52.8035 0.1421999 7.3675 253.3501 11.5575
10/27/2021 10:32:59 AM 11.6425 52.9565 0.14185 7.3682 264.8999 11.6425
10/27/2021 10:48:00 AM 11.385 52.493 0.1429 7.3773 284.7002 11.385
10/27/2021 11:02:59 AM 11.245 52.241 0.1439501 7.3738 284.7002 11.245
10/27/2021 11:17:59 AM 11.1775 52.1195 0.1443 7.3787 290.0996 11.1775
10/27/2021 11:32:59 AM 11.195 52.151 0.1446499 7.3787 271.2002 11.195
10/27/2021 11:47:59 AM 11.405 52.529 0.1439501 7.378 269.1001 11.405
10/27/2021 12:02:59 PM 11.5425 52.7765 0.1432 7.378 265.9502 11.5425
10/27/2021 12:17:59 PM 11.63 52.934 0.1432499 7.378 263.6997 11.63
10/27/2021 12:32:59 PM 11.715 53.087 0.14285 7.3724 265.7998 11.715
10/27/2021 12:47:59 PM 11.61 52.898 0.1439 7.3773 262.6499 11.61
10/27/2021 1:02:59 PM 11.455 52.619 0.1446 7.3731 257.5503 11.455
10/27/2021 1:17:59 PM 11.3675 52.4615 0.1453 7.3787 253.5 11.3675
10/27/2021 1:32:59 PM 11.335 52.403 0.146 7.3731 250.3501 11.335
10/27/2021 1:47:59 PM 11.335 52.403 0.1464 7.3696 245.1001 11.335
10/27/2021 2:02:59 PM 11.335 52.403 0.1467501 7.3696 239.8501 11.335
10/27/2021 2:18:00 PM 11.33 52.394 0.1471 7.3633 233.1001 11.33
10/27/2021 2:32:59 PM 11.3325 52.3985 0.14745 7.3689 225 11.3325
10/27/2021 2:47:59 PM 11.365 52.457 0.1477501 7.3633 222.75 11.365
10/27/2021 3:02:59 PM 11.385 52.493 0.14815 7.3584 216.6001 11.385
10/27/2021 3:17:59 PM 11.4025 52.5245 0.14845 7.3584 209.25 11.4025
10/27/2021 3:32:59 PM 11.4375 52.5875 0.1488 7.3591 205.2002 11.4375
10/27/2021 3:47:59 PM 11.4525 52.6145 0.1495501 7.3542 195.75 11.4525
10/27/2021 4:02:59 PM 11.5075 52.7135 0.1495 7.3542 192.6001 11.5075
10/27/2021 4:17:59 PM 11.7125 53.0825 0.1494499 7.3535 188.3999 11.7125
10/27/2021 4:32:59 PM 11.835 53.303 0.1495 7.3535 181.2002 11.835
10/27/2021 4:47:59 PM 11.9225 53.4605 0.1494499 7.3535 177.2998 11.9225
10/27/2021 5:18:00 PM 12.0075 53.6135 0.15015 7.3493 168.8999 12.0075
10/27/2021 5:33:00 PM 11.9925 53.5865 0.1505 7.3493 163.6499 11.9925
10/27/2021 5:47:59 PM 11.715 53.087 0.1522499 7.3486 129.2998 11.715
10/27/2021 6:03:00 PM 11.5775 52.8395 0.1533 7.3535 130.5 11.5775
10/27/2021 6:17:59 PM 11.4875 52.6775 0.1543501 7.3535 125.8501 11.4875
10/27/2021 6:33:00 PM 11.435 52.583 0.1551 7.3493 125.8501 11.435
10/27/2021 6:47:59 PM 11.49 52.682 0.1554 7.3486 123.75 11.49
10/27/2021 7:03:00 PM 11.7475 53.1455 0.1547 7.3486 121.7998 11.7475
10/27/2021 7:18:00 PM 11.8675 53.3615 0.1547 7.3486 121.6499 11.8675
10/27/2021 7:33:00 PM 11.9725 53.5505 0.1547 7.3486 119.5503 11.9725
10/27/2021 7:48:00 PM 12.025 53.645 0.1546499 7.3493 118.9502 12.025
10/27/2021 8:03:00 PM 12.045 53.681 0.155 7.3486 117.75 12.045
10/27/2021 8:18:00 PM 12.0625 53.7125 0.155 7.3479 117.75 12.0625
10/27/2021 8:32:59 PM 11.8175 53.2715 0.1564 7.3493 114.75 11.8175
10/27/2021 8:48:00 PM 11.5375 52.7675 0.15815 7.3479 113.3999 11.5375
10/27/2021 9:02:59 PM 11.4 52.52 0.15885 7.3444 113.5503 11.4
10/27/2021 9:18:00 PM 11.5925 52.8665 0.1582 7.3444 112.3501 11.5925
10/27/2021 9:33:00 PM 11.7475 53.1455 0.1574499 7.3437 110.25 11.7475
10/27/2021 10:02:59 PM 11.9025 53.4245 0.1571 7.3437 110.0996 11.9025
10/27/2021 10:17:59 PM 11.9425 53.4965 0.1567501 7.3395 111.6001 11.9425
10/27/2021 10:33:00 PM 11.9375 53.4875 0.1571 7.3388 109.3501 11.9375
10/27/2021 10:47:59 PM 11.9575 53.5235 0.1567 7.3395 108.4497 11.9575
10/27/2021 11:02:59 PM 11.9575 53.5235 0.1567 7.3381 108.4497 11.9575
10/27/2021 11:17:59 PM 11.645 52.961 0.1584499 7.3402 106.5 11.645
10/27/2021 11:33:00 PM 11.3475 52.4255 0.1595501 7.3395 106.2002 11.3475
10/28/2021 12:02:59 AM 11.66 52.988 0.1585501 7.3346 107.1001 11.66
10/28/2021 12:17:59 AM 11.815 53.267 0.1570499 7.3332 141.4497 11.815
10/28/2021 12:32:59 AM 11.9025 53.4245 0.1567501 7.3388 135.1499 11.9025
10/28/2021 12:48:00 AM 11.8875 53.3975 0.1567501 7.3346 121.0498 11.8875
10/28/2021 1:02:59 AM 11.5075 52.7135 0.1585 7.3346 107.3999 11.5075
10/28/2021 1:17:59 AM 11.21 52.178 0.1599 7.3346 102 11.21
10/28/2021 1:32:59 AM 11.35 52.43 0.1592 7.3388 100.9502 11.35
10/28/2021 1:47:59 AM 11.505 52.709 0.1585 7.3388 98.8501 11.505
10/28/2021 2:02:59 AM 11.61 52.898 0.15815 7.3395 96.6001 11.61
10/28/2021 2:17:59 AM 11.6425 52.9565 0.1578 7.3388 96.6001 11.6425
10/28/2021 2:32:59 AM 11.6775 53.0195 0.1577501 7.3381 94.6499 11.6775
10/28/2021 2:47:59 AM 11.68 53.024 0.1577501 7.3395 94.9502 11.68
10/28/2021 3:03:00 AM 11.68 53.024 0.1578 7.3395 94.9502 11.68
10/28/2021 3:17:59 AM 11.665 52.997 0.1578 7.3388 92.7002 11.665
10/28/2021 3:32:59 AM 11.6425 52.9565 0.1577501 7.3388 93.90039 11.6425
10/28/2021 3:48:00 AM 11.6275 52.9295 0.1577501 7.3388 93.90039 11.6275
10/28/2021 4:03:00 AM 11.21 52.178 0.1595501 7.3388 92.7002 11.21
10/28/2021 4:18:00 AM 11.02 51.836 0.1606 7.3388 92.55029 11.02
10/28/2021 4:33:00 AM 11.21 52.178 0.1599 7.3346 92.55029 11.21
10/28/2021 4:48:00 AM 11.33 52.394 0.1592 7.3346 92.55029 11.33
10/28/2021 5:03:00 AM 11.4 52.52 0.1592 7.3332 91.5 11.4
10/28/2021 5:18:00 AM 11.435 52.583 0.1592 7.3332 92.3999 11.435
10/28/2021 5:33:00 AM 11.45 52.61 0.1588001 7.3332 90.30029 11.45
10/28/2021 5:48:00 AM 11.455 52.619 0.15885 7.3346 90.75 11.455
10/28/2021 6:02:59 AM 11.4525 52.6145 0.1588001 7.3388 91.7998 11.4525
10/28/2021 6:18:00 AM 11.4525 52.6145 0.1588001 7.3346 89.69971 11.4525
10/28/2021 6:32:59 AM 11.435 52.583 0.1588001 7.3388 89.69971 11.435
10/28/2021 6:48:00 AM 11.4175 52.5515 0.1588001 7.3388 89.69971 11.4175
10/28/2021 7:02:59 AM 11.4175 52.5515 0.15915 7.3388 94.83 11.4175
10/28/2021 7:17:59 AM 11.4025 52.5245 0.1591 7.3388 93.785 11.4025
10/28/2021 7:33:00 AM 11.4 52.52 0.15915 7.3388 93.995 11.4
10/28/2021 7:47:59 AM 11.385 52.493 0.1594499 7.3388 94.27499 11.385
10/28/2021 8:02:59 AM 11.3825 52.4885 0.1595 7.3437 93.095 11.3825
10/28/2021 8:17:59 AM 11.365 52.457 0.1594499 7.3437 94.035 11.365
10/28/2021 8:32:59 AM 11.35 52.43 0.15985 7.3437 92.785 11.35
10/28/2021 8:47:59 AM 11.35 52.43 0.1598001 7.343 90.63 11.35
10/28/2021 9:02:59 AM 11.35 52.43 0.1598001 7.3493 90.80499 11.35
10/28/2021 9:17:59 AM 11.3325 52.3985 0.15985 7.3486 91.155 11.3325
10/28/2021 9:32:59 AM 11.33 52.394 0.1602 7.3486 90.215 11.33
10/28/2021 9:47:59 AM 11.33 52.394 0.1605 7.3486 90.28 11.33
10/28/2021 10:02:59 AM 11.1925 52.1465 0.1612 7.3486 88.375 11.1925
10/28/2021 10:17:59 AM 10.775 51.395 0.1633501 7.3479 88.39999 10.775
10/28/2021 10:33:00 AM 10.7925 51.4265 0.1633501 7.3535 88.82001 10.7925
10/28/2021 10:47:59 AM 11 51.8 0.1623001 7.3542 88.85001 11
10/28/2021 11:02:59 AM 11.12 52.016 0.1619501 7.3528 88.535 11.12
10/28/2021 11:17:59 AM 11.21 52.178 0.16155 7.3535 88.64 11.21
10/28/2021 11:32:59 AM 11.295 52.331 0.1612 7.3528 87.74001 11.295
10/28/2021 11:47:59 AM 11.3675 52.4615 0.1616 7.3535 86.99001 11.3675
10/28/2021 12:02:59 PM 11.4175 52.5515 0.1612 7.3535 88.27499 11.4175
10/28/2021 12:17:59 PM 11.1225 52.0205 0.1629501 7.3542 87.16499 11.1225
10/28/2021 12:32:59 PM 10.985 51.773 0.1640499 7.3542 86.78 10.985
10/28/2021 12:47:59 PM 10.9475 51.7055 0.1644 7.3542 86.66499 10.9475
10/28/2021 1:03:00 PM 10.9675 51.7415 0.1644 7.3542 86.91 10.9675
10/28/2021 1:17:59 PM 11.0175 51.8315 0.1644 7.3591 86.91 11.0175
10/28/2021 1:33:00 PM 11.0525 51.8945 0.1647501 7.3591 85.69501 11.0525
10/28/2021 1:47:59 PM 11.0875 51.9575 0.1647501 7.3591 86.53 11.0875
10/28/2021 2:02:59 PM 11.1225 52.0205 0.1647 7.3584 84.61501 11.1225
10/28/2021 2:18:00 PM 11.2075 52.1735 0.1647 7.3584 85.10001 11.2075
10/28/2021 2:32:59 PM 11.24 52.232 0.1647501 7.3584 84.92999 11.24
10/28/2021 2:48:00 PM 11.295 52.331 0.1650499 7.3577 84.82001 11.295
10/28/2021 3:02:59 PM 11.3625 52.4525 0.1650499 7.3584 84.58 11.3625
10/28/2021 3:18:00 PM 11.3625 52.4525 0.1654 7.3577 83.89 11.3625
10/28/2021 3:32:59 PM 11.33 52.394 0.1657501 7.3584 83.815 11.33
10/28/2021 3:47:59 PM 11.4 52.52 0.1657501 7.3619 84.095 11.4
10/28/2021 4:02:59 PM 11.4325 52.5785 0.1657501 7.3626 82.94501 11.4325
10/28/2021 4:17:59 PM 11.45 52.61 0.1661 7.3633 82.67 11.45
10/28/2021 4:32:59 PM 11.3975 52.5155 0.1664499 7.3626 81.145 11.3975
10/28/2021 4:47:59 PM 11.3625 52.4525 0.1671 7.3668 80.485 11.3625
10/28/2021 5:02:59 PM 11.33 52.394 0.16745 7.3675 80.87 11.33
10/28/2021 5:17:59 PM 11.2775 52.2995 0.16815 7.3682 79.375 11.2775
10/28/2021 5:32:59 PM 11.2425 52.2365 0.1689 7.3682 80.035 11.2425
10/28/2021 5:47:59 PM 11.19 52.142 0.1692 7.3682 78.095 11.19
10/28/2021 6:02:59 PM 11.1575 52.0835 0.1699501 7.3689 76.67 11.1575
10/28/2021 6:17:59 PM 11.105 51.989 0.1702499 7.3731 76.84 11.105
10/28/2021 6:32:59 PM 11.07 51.926 0.1709501 7.3738 75.32001 11.07
10/28/2021 6:47:59 PM 11.0375 51.8675 0.1716499 7.3731 75.735 11.0375
10/28/2021 7:02:59 PM 11.0175 51.8315 0.1724 7.3745 75.21001 11.0175
10/28/2021 7:17:59 PM 10.97 51.746 0.1731 7.3731 75.285 10.97
10/28/2021 7:32:59 PM 10.9675 51.7415 0.1738001 7.3745 73.17 10.9675
10/28/2021 7:47:59 PM 11.175 52.115 0.1734 7.3731 73.895 11.175
10/28/2021 8:02:59 PM 11.3125 52.3625 0.1733501 7.3731 71.015 11.3125
10/28/2021 8:17:59 PM 11.3825 52.4885 0.1736999 7.3731 70.98 11.3825
10/28/2021 8:33:00 PM 11.43 52.574 0.1743501 7.3731 70.03999 11.43
10/28/2021 8:47:59 PM 11.4675 52.6415 0.1746999 7.378 68.64999 11.4675
10/28/2021 9:02:59 PM 11.4875 52.6775 0.1754 7.378 67.02499 11.4875
10/28/2021 9:17:59 PM 11.5025 52.7045 0.1757501 7.3773 66.995 11.5025
10/28/2021 9:32:59 PM 11.47 52.646 0.1767501 7.3773 66.715 11.47
10/28/2021 9:48:00 PM 11.125 52.025 0.17885 7.3829 65.955 11.125
10/28/2021 10:03:00 PM 10.9325 51.6785 0.1806499 7.3836 65.595 10.9325
10/28/2021 10:18:00 PM 10.9 51.62 0.1814 7.3836 64.175 10.9
10/28/2021 10:33:00 PM 11.105 51.989 0.181 7.3829 63.31 11.105
10/28/2021 10:48:00 PM 11.225 52.205 0.1806499 7.3878 62.645 11.225
10/28/2021 11:03:00 PM 11.295 52.331 0.1809501 7.3878 60.77 11.295
10/28/2021 11:17:59 PM 11.3275 52.3895 0.1813 7.3871 60.53 11.3275
10/28/2021 11:32:59 PM 11.3625 52.4525 0.1813 7.3864 58.825 11.3625
10/29/2021 12:03:00 AM 11.3975 52.5155 0.182 7.3927 61.375 11.3975
10/29/2021 12:18:00 AM 11.47 52.646 0.182 7.3976 87.095 11.47
10/29/2021 12:33:00 AM 11.1075 51.9935 0.1840499 7.4025 83.52 11.1075
10/29/2021 12:47:59 AM 10.95 51.71 0.1855 7.4025 73.3 10.95
10/29/2021 1:02:59 AM 10.9 51.62 0.1861999 7.4018 67.955 10.9
10/29/2021 1:17:59 AM 10.865 51.557 0.1865501 7.4081 65.63 10.865
10/29/2021 1:32:59 AM 10.8475 51.5255 0.1872499 7.4081 64.14 10.8475
10/29/2021 1:47:59 AM 10.8475 51.5255 0.1872499 7.4081 62.58 10.8475
10/29/2021 2:02:59 AM 10.8475 51.5255 0.1876 7.4074 62.47501 10.8475
10/29/2021 2:17:59 AM 10.8475 51.5255 0.1876 7.4081 61.39999 10.8475
10/29/2021 2:32:59 AM 10.8475 51.5255 0.1879501 7.4081 60.22 10.8475
10/29/2021 3:02:59 AM 10.865 51.557 0.1883 7.4081 58.97501 10.865
10/29/2021 3:17:59 AM 10.8675 51.5615 0.1886499 7.4074 58.69501 10.8675
10/29/2021 3:32:59 AM 10.9525 51.7145 0.1886499 7.4081 59.28 10.9525
10/29/2021 3:47:59 AM 11.2275 52.2095 0.1872499 7.4116 57.855 11.2275
10/29/2021 4:02:59 AM 11.38 52.484 0.1865501 7.413 57.745 11.3825
10/29/2021 4:17:59 AM 11.485 52.673 0.18615 7.4116 56.95 11.485
10/29/2021 4:32:59 AM 11.5525 52.7945 0.18615 7.4123 56.81 11.5525
10/29/2021 4:47:59 AM 11.4375 52.5875 0.18685 7.4116 56.06 11.4375
10/29/2021 5:02:59 AM 11.175 52.115 0.1882499 7.413 56.44 11.175
10/29/2021 5:17:59 AM 11.0875 51.9575 0.1889 7.4116 55.5 11.0875
10/29/2021 5:32:59 AM 11.0875 51.9575 0.1893 7.4172 55.63499 11.0875
10/29/2021 5:47:59 AM 11.3125 52.3625 0.1882499 7.4165 54.83 11.3125
10/29/2021 6:02:59 AM 11.415 52.547 0.1879 7.4172 54.38 11.415
10/29/2021 6:17:59 AM 11.4 52.52 0.1882 7.4123 51.235 11.4
10/29/2021 6:32:59 AM 11.4175 52.5515 0.1885501 7.413 47.935 11.4175
10/29/2021 6:47:59 AM 11.4 52.52 0.1889 7.4123 47.21001 11.4
10/29/2021 7:02:59 AM 11.4 52.52 0.1889 7.4116 46.2 11.4
10/29/2021 7:17:59 AM 11.4 52.52 0.1892 7.4109 46.065 11.4
10/29/2021 7:33:00 AM 11.1575 52.0835 0.1906499 7.413 45.92 11.1575
10/29/2021 7:48:00 AM 11.005 51.809 0.1917 7.4123 46.13499 11.005
10/29/2021 8:03:00 AM 10.9325 51.6785 0.1920499 7.4116 46.22501 10.9325
10/29/2021 8:17:59 AM 11.09 51.962 0.1913501 7.4165 45.95 11.09
10/29/2021 8:32:59 AM 11.1925 52.1465 0.191 7.4165 48.58501 11.1925
10/29/2021 8:47:59 AM 11.2425 52.2365 0.1906499 7.4165 46.36501 11.2425
10/29/2021 9:02:59 AM 11.28 52.304 0.1906 7.4165 46.41 11.28
10/29/2021 9:18:00 AM 11.2975 52.3355 0.1906499 7.4025 45.71001 11.2975
10/29/2021 9:32:59 AM 11.21 52.178 0.1913 7.3969 121.0498 11.21
10/29/2021 9:47:59 AM 11.2625 52.2725 0.1916499 7.4025 49.985 11.2625
10/29/2021 10:02:59 AM 11.2975 52.3355 0.1906499 7.4018 48.11 11.2975
10/29/2021 10:17:59 AM 11.315 52.367 0.1906499 7.4074 46.965 11.315
10/29/2021 10:32:59 AM 11.35 52.43 0.1903 7.4081 46.645 11.35
10/29/2021 10:47:59 AM 11.3675 52.4615 0.1903 7.4067 46.23 11.3675
10/29/2021 11:02:59 AM 11.4 52.52 0.1899 7.4074 46.235 11.4
10/29/2021 11:17:59 AM 11.435 52.583 0.1899 7.4067 45.715 11.435
10/29/2021 11:32:59 AM 11.47 52.646 0.1903 7.4074 44.905 11.47
10/29/2021 11:47:59 AM 11.4 52.52 0.1906 7.4074 45.00999 11.4
10/29/2021 12:02:59 PM 11.1925 52.1465 0.1920499 7.4081 45.09 11.1925
10/29/2021 12:32:59 PM 11.28 52.304 0.1917 7.4123 44.64 11.28
10/29/2021 12:47:59 PM 11.35 52.43 0.1913501 7.413 43.98 11.35
10/29/2021 1:02:59 PM 11.4 52.52 0.1909501 7.4221 43.87 11.4
10/29/2021 1:17:59 PM 11.435 52.583 0.191 7.4165 43.52499 11.435
10/29/2021 1:32:59 PM 11.4525 52.6145 0.1913501 7.4172 43.52499 11.4525
10/29/2021 1:47:59 PM 11.4875 52.6775 0.1913501 7.4179 42.86501 11.4875
10/29/2021 2:03:00 PM 11.5225 52.7405 0.1912499 7.4165 42.795 11.5225
10/29/2021 2:17:59 PM 11.5575 52.8035 0.1916499 7.4165 42.935 11.5575
10/29/2021 2:32:59 PM 11.5725 52.8305 0.1916499 7.4214 42.72501 11.5725
10/29/2021 2:47:59 PM 11.5725 52.8305 0.1916 7.4214 42.52 11.5725
10/29/2021 3:02:59 PM 11.3825 52.4885 0.1930499 7.4214 42.27499 11.3825
10/29/2021 3:17:59 PM 11.265 52.277 0.1937501 7.4263 41.75999 11.265
10/29/2021 3:32:59 PM 11.2975 52.3355 0.1937501 7.4263 41.83 11.2975
10/29/2021 3:47:59 PM 11.42 52.556 0.1934 7.4263 41.965 11.42
10/29/2021 4:02:59 PM 11.47 52.646 0.1934 7.4263 41.58501 11.47
10/29/2021 4:17:59 PM 11.5075 52.7135 0.1934 7.4263 41.50999 11.5075
10/29/2021 4:32:59 PM 11.505 52.709 0.1934 7.4312 40.925 11.505
10/29/2021 4:48:00 PM 11.52 52.736 0.1937 7.4361 41.16499 11.52
10/29/2021 5:03:00 PM 11.3325 52.3985 0.1948 7.4312 40.75 11.3325
10/29/2021 5:18:00 PM 11.0375 51.8675 0.19615 7.4312 40.785 11.04
10/29/2021 5:33:00 PM 10.8825 51.5885 0.1973 7.4368 40.71001 10.8825
10/29/2021 5:47:59 PM 10.7975 51.4355 0.1976499 7.4375 40.5 10.7975
10/29/2021 6:03:00 PM 10.7625 51.3725 0.1979501 7.4319 40.67999 10.7625
10/29/2021 6:17:59 PM 10.99 51.782 0.1969 7.4368 40.745 10.99
10/29/2021 6:32:59 PM 11.14 52.052 0.1962 7.4368 40.5 11.14
10/29/2021 6:47:59 PM 11.2625 52.2725 0.1955501 7.441 41.015 11.2625
10/29/2021 7:03:00 PM 11.31 52.358 0.19515 7.4417 40.60001 11.31
10/29/2021 7:18:00 PM 11.3475 52.4255 0.1948 7.4403 40.28999 11.3475
10/29/2021 7:33:00 PM 11.3825 52.4885 0.1944499 7.4452 40.74001 11.3825
10/29/2021 7:47:59 PM 11.4025 52.5245 0.1944499 7.4466 40.785 11.4025
10/29/2021 8:02:59 PM 11.4175 52.5515 0.1944499 7.4515 40.75 11.4175
10/29/2021 8:17:59 PM 11.4375 52.5875 0.1941 7.4515 40.67999 11.4375
10/29/2021 8:32:59 PM 11.16 52.088 0.1954499 7.4459 40.30499 11.16
10/29/2021 8:48:00 PM 10.9 51.62 0.1969 7.4459 41.155 10.9
10/29/2021 9:02:59 PM 10.795 51.431 0.1973 7.4466 40.77499 10.795
10/29/2021 9:17:59 PM 11.0025 51.8045 0.1962499 7.4564 40.955 11.0025
10/29/2021 9:32:59 PM 11.16 52.088 0.19515 7.4508 41.125 11.16
10/29/2021 9:47:59 PM 11.2425 52.2365 0.1944499 7.4515 41.33 11.2425
10/29/2021 10:02:59 PM 11.295 52.331 0.1938 7.455 41.75 11.295
10/29/2021 10:17:59 PM 11.3475 52.4255 0.1930499 7.4557 42.38 11.3475
10/29/2021 10:32:59 PM 11.3475 52.4255 0.192 7.4557 44.325 11.3475
10/29/2021 11:03:00 PM 11.1425 52.0565 0.1917 7.4564 51.03 11.1425
10/29/2021 11:17:59 PM 10.8625 51.5525 0.1924 7.4515 60.595 10.8625
10/29/2021 11:32:59 PM 10.71 51.278 0.1917501 7.4515 79.45 10.71
10/30/2021 12:02:59 AM 11.07 51.926 0.1869 7.441 117.4497 11.07
10/30/2021 12:18:00 AM 11.1375 52.0475 0.1851 7.4361 133.0498 11.1375
10/30/2021 12:32:59 AM 11.19 52.142 0.1837 7.4361 139.3501 11.19
10/30/2021 1:03:00 AM 11.225 52.205 0.1809501 7.4263 141.9004 11.225
10/30/2021 1:18:00 AM 11.225 52.205 0.1785 7.4221 142.7998 11.225
10/30/2021 1:33:00 AM 11.0175 51.8315 0.1775 7.4116 144 11.0175
10/30/2021 1:48:00 AM 10.7075 51.2735 0.1765 7.4074 147.75 10.7075
10/30/2021 2:03:00 AM 10.5525 50.9945 0.1741 7.4025 154.0498 10.5525
10/30/2021 2:18:00 AM 10.45 50.81 0.1713501 7.3934 165.6001 10.45
10/30/2021 2:33:00 AM 10.5675 51.0215 0.16685 7.3836 175.9502 10.5675
10/30/2021 2:48:00 AM 10.7425 51.3365 0.1616499 7.3731 195.75 10.7425
10/30/2021 3:03:00 AM 10.81 51.458 0.1557501 7.3682 226.9502 10.81
10/30/2021 3:17:59 AM 10.845 51.521 0.1509 7.3584 262.5 10.845
10/30/2021 3:32:59 AM 10.845 51.521 0.1464 7.3479 293.6997 10.845
10/30/2021 3:47:59 AM 10.8275 51.4895 0.1422499 7.3388 325.0498 10.8275
10/30/2021 4:02:59 AM 10.8125 51.4625 0.1373501 7.329 361.7998 10.8125
10/30/2021 4:17:59 AM 10.7775 51.3995 0.1331999 7.3248 405.6001 10.7775
10/30/2021 4:32:59 AM 10.7425 51.3365 0.1287 7.314301 450.4497 10.7425
10/30/2021 4:47:59 AM 10.7075 51.2735 0.1245501 7.310101 511.9502 10.7075
10/30/2021 5:03:00 AM 10.69 51.242 0.1214 7.303801 546.3003 10.69
10/30/2021 5:17:59 AM 10.535 50.963 0.119 7.300301 598.5 10.535
10/30/2021 5:32:59 AM 10.1875 50.3375 0.1177 7.295401 91.80499 10.1875
10/30/2021 5:47:59 AM 9.9975 49.9955 0.1163 7.291201 622.2002 9.997498
10/30/2021 6:02:59 AM 10.015 50.027 0.1142499 7.286301 666 10.015
10/30/2021 6:17:59 AM 10.2025 50.3645 0.1118001 7.280701 680.5503 10.2025
10/30/2021 6:32:59 AM 10.34 50.612 0.1100499 7.275801 701.25 10.34
10/30/2021 6:47:59 AM 10.3925 50.7065 0.1086999 7.266001 706.5 10.3925
10/30/2021 7:02:59 AM 10.445 50.801 0.1076499 7.260401 713.6997 10.445
10/30/2021 7:17:59 AM 10.4825 50.8685 0.1069 7.256201 704.8501 10.4825
10/30/2021 7:32:59 AM 10.4975 50.8955 0.10585 7.252001 714.4497 10.4975
10/30/2021 7:47:59 AM 10.5175 50.9315 0.1055501 7.241501 710.25 10.5175
10/30/2021 8:02:59 AM 10.5325 50.9585 0.1051999 7.236601 703.7998 10.5325
10/30/2021 8:17:59 AM 10.5325 50.9585 0.1048 7.231001 704.8501 10.5325
10/30/2021 8:32:59 AM 10.535 50.963 0.10485 7.227501 699.6001 10.535
10/30/2021 8:47:59 AM 10.1875 50.3375 0.1059 7.228201 687.2998 10.1875
10/30/2021 9:02:59 AM 9.9775 49.9595 0.1069501 7.222601 685.6499 9.977501
10/30/2021 9:17:59 AM 9.875 49.775 0.107 7.216999 675.2998 9.875
10/30/2021 9:32:59 AM 9.825 49.685 0.1077 7.217699 682.7998 9.824997
10/30/2021 9:47:59 AM 9.98 49.964 0.1077 7.217699 663.9004 9.980003
10/30/2021 10:02:59 AM 10.1875 50.3375 0.1073501 7.217699 656.5503 10.1875
10/30/2021 10:17:59 AM 10.325 50.585 0.1072499 7.216999 638.8501 10.325
10/30/2021 10:32:59 AM 10.41 50.738 0.1073001 7.216999 627.2998 10.41
10/30/2021 10:47:59 AM 10.4625 50.8325 0.1076499 7.216999 615.75 10.4625
10/30/2021 11:03:00 AM 10.5 50.9 0.1079501 7.218399 609 10.5
10/30/2021 11:17:59 AM 10.535 50.963 0.1079501 7.217699 592.2002 10.535
10/30/2021 11:32:59 AM 10.55 50.99 0.1086 7.221901 583.9502 10.55
10/30/2021 11:48:00 AM 10.585 51.053 0.1089501 7.226801 571.3501 10.585
10/30/2021 12:02:59 PM 10.6025 51.0845 0.1096499 7.232401 562.0498 10.6025
10/30/2021 12:17:59 PM 10.6025 51.0845 0.1096499 7.232401 562.0498 10.6025
10/30/2021 12:32:59 PM 10.43 50.774 0.1107 7.237301 548.3999 10.43
10/30/2021 12:47:59 PM 10.2225 50.4005 0.1114 7.242901 545.5503 10.2225
10/30/2021 1:02:59 PM 10.135 50.243 0.1121 7.242201 535.5 10.135
10/30/2021 1:17:59 PM 10.0825 50.1485 0.11285 7.247101 526.2002 10.0825
10/30/2021 1:32:59 PM 10.0675 50.1215 0.11285 7.247101 522.1499 10.0675
10/30/2021 1:47:59 PM 10.065 50.117 0.1131999 7.252001 520.0498 10.065
10/30/2021 2:02:59 PM 10.0325 50.0585 0.1135501 7.252701 519.1499 10.0325
10/30/2021 2:17:59 PM 10.0325 50.0585 0.1136 7.257601 514.9502 10.0325
10/30/2021 2:32:59 PM 10.0325 50.0585 0.1135501 7.261801 511.6499 10.0325
10/30/2021 2:47:59 PM 10.015 50.027 0.1135501 7.261801 514.9502 10.015
10/30/2021 3:02:59 PM 10.015 50.027 0.1139501 7.267401 512.7002 10.015
10/30/2021 3:17:59 PM 9.9975 49.9955 0.1139501 7.272301 509.6997 9.997498
10/30/2021 3:32:59 PM 9.98 49.964 0.1142499 7.271601 498.3003 9.980003
10/30/2021 3:47:59 PM 9.9825 49.9685 0.1146 7.271601 497.25 9.982498
10/30/2021 4:02:58 PM 9.9825 49.9685 0.1146 7.276501 486.8999 9.982498
10/30/2021 4:17:59 PM 9.9825 49.9685 0.1149501 7.275801 489.9004 9.982498
10/30/2021 4:32:59 PM 9.9825 49.9685 0.1153001 7.276501 486.75 9.982498
10/30/2021 4:47:59 PM 9.98 49.964 0.1153001 7.276501 476.25 9.980003
10/30/2021 5:02:58 PM 9.9825 49.9685 0.1156499 7.276501 474.3003 9.982498
10/30/2021 5:17:58 PM 10 50 0.1156499 7.276501 462.75 10
10/30/2021 5:32:59 PM 10 50 0.1160499 7.277201 458.7002 10
10/30/2021 5:47:59 PM 10 50 0.1163501 7.272301 444 10
10/30/2021 6:02:59 PM 10 50 0.1166999 7.271601 436.7998 10
10/30/2021 6:17:59 PM 10 50 0.1170499 7.273001 428.3999 10
10/30/2021 6:32:59 PM 9.9975 49.9955 0.1174 7.266701 422.0996 9.997498
10/30/2021 6:47:59 PM 10.0175 50.0315 0.1181 7.266701 413.8501 10.0175
10/30/2021 7:02:59 PM 10.015 50.027 0.1184499 7.263201 397.2002 10.015
10/30/2021 7:17:59 PM 10.015 50.027 0.1188001 7.257601 388.6499 10.015
10/30/2021 7:32:59 PM 10 50 0.11945 7.257601 383.5503 10
10/30/2021 7:47:59 PM 10 50 0.12015 7.252701 369 10
10/30/2021 8:02:59 PM 9.9975 49.9955 0.1205 7.252701 361.6499 9.997498
10/30/2021 8:17:59 PM 10 50 0.1212 7.247101 347.1001 10
10/30/2021 8:32:59 PM 10 50 0.1219 7.242901 337.7998 10
10/30/2021 8:47:59 PM 10.0525 50.0945 0.1222499 7.243601 329.3999 10.0525
10/30/2021 9:02:59 PM 10.2775 50.4995 0.1222 7.237301 322.9502 10.2775
10/30/2021 9:17:59 PM 10.415 50.747 0.1222 7.237301 311.5503 10.415
10/30/2021 9:32:59 PM 10.4975 50.8955 0.12255 7.233101 305.25 10.4975
10/30/2021 9:47:59 PM 10.585 51.053 0.1229 7.232401 291.4497 10.585
10/30/2021 10:02:59 PM 10.635 51.143 0.1232 7.226101 284.25 10.635
10/30/2021 10:17:59 PM 10.67 51.206 0.1235 7.225401 277.9502 10.67
10/30/2021 10:32:59 PM 10.7075 51.2735 0.1242499 7.227501 272.25 10.7075
10/30/2021 10:47:59 PM 10.7425 51.3365 0.1245501 7.222601 262.7998 10.7425
10/30/2021 11:02:59 PM 10.7775 51.3995 0.1252499 7.222601 259.6499 10.7775
10/30/2021 11:17:59 PM 10.8125 51.4625 0.1256 7.222601 249.1499 10.8125
10/30/2021 11:32:59 PM 10.845 51.521 0.1262499 7.202299 243.9004 10.845
10/31/2021 12:02:59 AM 10.9325 51.6785 0.127 7.202299 264.8999 10.95
10/31/2021 12:17:59 AM 10.9675 51.7415 0.1269501 7.212099 297.2998 10.9675
10/31/2021 12:32:59 AM 10.6225 51.1205 0.1287 7.212099 273.2998 10.6225
10/31/2021 12:47:59 AM 10.43 50.774 0.1297501 7.198099 247.9502 10.43
10/31/2021 1:02:59 AM 10.325 50.585 0.13085 7.207899 227.1001 10.325
10/31/2021 1:17:59 AM 10.2925 50.5265 0.13155 7.208599 217.5 10.2925
10/31/2021 1:32:59 AM 10.2575 50.4635 0.1319501 7.208599 208.3501 10.2575
10/31/2021 1:47:59 AM 10.24 50.432 0.1323 7.208599 205.2002 10.24
10/31/2021 2:02:59 AM 10.2425 50.4365 0.1326 7.208599 204.1499 10.2425
10/31/2021 2:17:59 AM 10.2425 50.4365 0.1329501 7.214199 200.0996 10.2425
10/31/2021 2:32:59 AM 10.38 50.684 0.1326 7.219101 196.7998 10.38
10/31/2021 2:47:59 AM 10.605 51.089 0.1319 7.218399 194.7002 10.605
10/31/2021 3:02:59 AM 10.74 51.332 0.1319 7.216999 191.5503 10.74
10/31/2021 3:17:59 AM 10.8075 51.4535 0.13185 7.212799 189.4497 10.8075
10/31/2021 3:32:59 AM 10.88 51.584 0.1318001 7.211399 187.3501 10.88
10/31/2021 3:47:59 AM 10.9125 51.6425 0.13185 7.212099 186.3003 10.9125
10/31/2021 4:02:59 AM 10.95 51.71 0.13215 7.212099 181.5 10.95
10/31/2021 4:17:59 AM 10.97 51.746 0.13215 7.231701 180.4497 10.97
10/31/2021 4:32:59 AM 10.985 51.773 0.1325 7.202299 179.3999 10.985
10/31/2021 4:47:59 AM 11.005 51.809 0.1325 7.197399 175.2002 11.005
10/31/2021 5:02:59 AM 11.02 51.836 0.13285 7.196699 176.25 11.02
10/31/2021 5:17:59 AM 11.035 51.863 0.1331999 7.202299 174.1499 11.035
10/31/2021 5:32:59 AM 11.055 51.899 0.1336 7.202999 173.1001 11.055
10/31/2021 5:47:59 AM 11.0525 51.8945 0.1335 7.206499 171 11.0525
10/31/2021 6:02:59 AM 10.7275 51.3095 0.1353001 7.207899 169.0498 10.7275
10/31/2021 6:17:59 AM 10.4975 50.8955 0.1366999 7.207899 165.4497 10.4975
10/31/2021 6:32:59 AM 10.3975 50.7155 0.1374499 7.207899 165.6001 10.3975
10/31/2021 7:03:00 AM 10.76 51.368 0.1364 7.207899 165.4497 10.76
10/31/2021 7:17:59 AM 10.8625 51.5525 0.1363501 7.207199 163.3501 10.8625
10/31/2021 7:32:59 AM 10.9325 51.6785 0.1363501 7.212099 163.2002 10.9325
10/31/2021 7:47:59 AM 10.9825 51.7685 0.1366999 7.212099 163.3501 10.9825
10/31/2021 8:17:59 AM 11.0375 51.8675 0.1370499 7.212099 161.5503 11.0375
10/31/2021 8:32:59 AM 11.0525 51.8945 0.137 7.212799 161.6997 11.0525
10/31/2021 8:47:59 AM 11.07 51.926 0.1373501 7.212799 161.5503 11.07
10/31/2021 9:02:59 AM 11.055 51.899 0.1376999 7.216999 158.5503 11.055
10/31/2021 9:17:59 AM 10.71 51.278 0.1391 7.217699 159.6001 10.71
10/31/2021 9:32:59 AM 10.5175 50.9315 0.1401999 7.216999 158.25 10.5175
10/31/2021 9:47:59 AM 10.43 50.774 0.1409 7.216999 157.2002 10.43
10/31/2021 10:02:59 AM 10.38 50.684 0.1412499 7.218399 158.25 10.38
10/31/2021 10:17:59 AM 10.3625 50.6525 0.1416 7.217699 155.1001 10.3625
10/31/2021 10:47:59 AM 10.725 51.305 0.1405 7.216999 156.3003 10.725
10/31/2021 11:02:59 AM 10.8825 51.5885 0.1401999 7.216999 156.1499 10.8825
10/31/2021 11:17:59 AM 10.985 51.773 0.1398 7.216299 154.0498 10.985
10/31/2021 11:32:59 AM 11.05 51.89 0.1397501 7.216299 155.1001 11.05
10/31/2021 11:47:59 AM 11.1075 51.9935 0.1398 7.216999 153.4497 11.1075
10/31/2021 12:02:59 PM 11.1425 52.0565 0.1401 7.216999 152.25 11.1425
10/31/2021 12:17:59 PM 11.175 52.115 0.1401 7.216999 150.1499 11.175
10/31/2021 12:32:59 PM 10.935 51.683 0.1415 7.218399 150.1499 10.935
10/31/2021 12:47:59 PM 10.7975 51.4355 0.1421999 7.217699 151.3501 10.7975
10/31/2021 1:02:59 PM 10.7925 51.4265 0.1425501 7.211399 147.75 10.7925
10/31/2021 1:17:59 PM 10.775 51.395 0.1429501 7.212099 148.7998 10.775
10/31/2021 1:32:59 PM 10.76 51.368 0.1432499 7.216999 149.8501 10.76
10/31/2021 1:47:59 PM 10.7775 51.3995 0.1436499 7.217699 148.9502 10.7775
10/31/2021 2:02:59 PM 10.9525 51.7145 0.1429501 7.217699 148.7998 10.9525
10/31/2021 2:17:59 PM 11.0875 51.9575 0.1426 7.216999 148.7998 11.0875
10/31/2021 2:33:00 PM 11.1925 52.1465 0.1425501 7.216299 147.75 11.1925
10/31/2021 2:47:59 PM 11.23 52.214 0.1425501 7.216999 150.1499 11.23
10/31/2021 3:02:59 PM 11.3 52.34 0.1425501 7.222601 151.2002 11.3
10/31/2021 3:17:59 PM 11.3175 52.3715 0.1429 7.221901 150 11.3175
10/31/2021 3:32:59 PM 11.3325 52.3985 0.14285 7.221201 152.0996 11.3325
10/31/2021 3:47:59 PM 11.1075 51.9935 0.1439 7.226801 152.25 11.1075
10/31/2021 4:02:59 PM 10.985 51.773 0.1446 7.227501 155.3999 10.985
10/31/2021 4:17:59 PM 10.9325 51.6785 0.1453501 7.232401 154.3501 10.9325
10/31/2021 4:32:59 PM 10.8975 51.6155 0.1453501 7.231001 151.0498 10.8975
10/31/2021 4:47:59 PM 10.8625 51.5525 0.1456999 7.232401 153 10.8625
10/31/2021 5:02:59 PM 10.8275 51.4895 0.1460499 7.232401 151.9502 10.8275
10/31/2021 5:17:59 PM 10.8275 51.4895 0.1464 7.233101 150.8999 10.8275
10/31/2021 5:32:59 PM 10.8125 51.4625 0.1467501 7.232401 148.9502 10.8125
10/31/2021 5:47:59 PM 10.795 51.431 0.1467501 7.237301 149.8501 10.795
10/31/2021 6:02:59 PM 10.7775 51.3995 0.1467501 7.232401 147.9004 10.7775
10/31/2021 6:17:59 PM 10.7775 51.3995 0.1471 7.233101 148.7998 10.7775
10/31/2021 6:32:59 PM 10.7775 51.3995 0.14745 7.238001 146.8501 10.7775
10/31/2021 6:47:59 PM 10.795 51.431 0.14745 7.237301 145.6499 10.795
10/31/2021 7:02:59 PM 10.7625 51.3725 0.1478 7.237301 143.6997 10.7625
10/31/2021 7:17:59 PM 10.7425 51.3365 0.14815 7.233801 143.6997 10.7425
10/31/2021 7:32:59 PM 10.7275 51.3095 0.14855 7.238701 142.7998 10.7275
10/31/2021 7:47:59 PM 10.6925 51.2465 0.14855 7.238001 143.8501 10.6925
10/31/2021 8:02:59 PM 10.675 51.215 0.1489 7.238701 141.6001 10.675
10/31/2021 8:17:59 PM 10.6775 51.2195 0.1491999 7.238001 141.6001 10.6775
10/31/2021 8:32:59 PM 10.815 51.467 0.14885 7.243601 141.6001 10.815
10/31/2021 8:47:59 PM 11.0025 51.8045 0.14815 7.237301 139.5 11.0025
10/31/2021 9:02:59 PM 11.125 52.025 0.1478 7.241501 139.5 11.125
10/31/2021 9:17:59 PM 11.1925 52.1465 0.1478 7.241501 139.5 11.1925
10/31/2021 9:32:59 PM 11.2275 52.2095 0.1474 7.240801 138.3003 11.2275
10/31/2021 9:47:59 PM 11.2625 52.2725 0.1477501 7.241501 137.25 11.2625
10/31/2021 10:02:59 PM 11.2975 52.3355 0.1477501 7.241501 137.5503 11.2975
10/31/2021 10:17:59 PM 11.3125 52.3625 0.1477 7.247101 136.6499 11.3125
10/31/2021 10:32:59 PM 11.3325 52.3985 0.1481 7.246401 136.6499 11.3325
10/31/2021 10:47:59 PM 11.35 52.43 0.1480499 7.245701 135.6001 11.35
10/31/2021 11:02:59 PM 11.365 52.457 0.1480499 7.246401 135.6001 11.365
10/31/2021 11:17:59 PM 11.385 52.493 0.1484 7.245701 134.3999 11.385
10/31/2021 11:32:59 PM 11.385 52.493 0.1487501 7.245701 132.4497 11.385
11/1/2021 12:02:59 AM 11.4025 52.5245 0.1491 7.245701 132.4497 11.4025
11/1/2021 12:17:59 AM 11.125 52.025 0.15085 7.246401 130.3501 11.125
11/1/2021 12:32:59 AM 10.8975 51.6155 0.1516 7.246401 130.0498 10.8975
11/1/2021 12:47:59 AM 10.7775 51.3995 0.1526499 7.247101 128.0996 10.7775
11/1/2021 1:02:59 AM 10.725 51.305 0.1529501 7.247101 128.0996 10.725
11/1/2021 1:17:59 AM 10.6725 51.2105 0.1536999 7.247801 126 10.6725
11/1/2021 1:32:59 AM 10.675 51.215 0.1540499 7.247101 126 10.675
11/1/2021 1:47:59 AM 10.7275 51.3095 0.1540499 7.247801 123.9004 10.7275
11/1/2021 2:02:59 AM 10.9525 51.7145 0.1533501 7.247801 123.9004 10.9525
11/1/2021 2:17:59 AM 11.09 51.962 0.153 7.247101 121.7998 11.09
11/1/2021 2:32:59 AM 11.1775 52.1195 0.1526 7.246401 120.6001 11.1775
11/1/2021 2:47:59 AM 11.2275 52.2095 0.1522499 7.245701 119.5503 11.2275
11/1/2021 3:02:59 AM 11.26 52.268 0.1526 7.251301 119.5503 11.26
11/1/2021 3:17:59 AM 11.2975 52.3355 0.1526 7.251301 120.6001 11.2975
11/1/2021 3:32:59 AM 11.3675 52.4615 0.15255 7.251301 120 11.3675
11/1/2021 3:47:59 AM 11.3825 52.4885 0.1526 7.252001 119.8501 11.3825
11/1/2021 4:02:59 AM 11.385 52.493 0.1529 7.256201 118.9502 11.385
11/1/2021 4:17:59 AM 11.4025 52.5245 0.1529501 7.256901 115.7998 11.4025
11/1/2021 4:32:59 AM 11.4025 52.5245 0.1529501 7.261101 116.7002 11.4025
11/1/2021 4:47:59 AM 11.42 52.556 0.1532499 7.265301 116.8501 11.42
11/1/2021 5:02:59 AM 11.435 52.583 0.1532499 7.266001 115.7998 11.435
11/1/2021 5:17:59 AM 11.4175 52.5515 0.1536 7.265301 115.7998 11.4175
11/1/2021 5:32:59 AM 11.245 52.241 0.1543 7.270901 116.7002 11.245
11/1/2021 5:47:59 AM 10.9 51.62 0.1557501 7.272301 115.9502 10.9
11/1/2021 6:02:59 AM 10.845 51.521 0.1560499 7.270901 116.5503 10.845
11/1/2021 6:17:59 AM 11.035 51.863 0.1557 7.270201 116.5503 11.035
11/1/2021 6:32:59 AM 11.1375 52.0475 0.155 7.275101 118.5 11.1375
11/1/2021 6:47:59 AM 11.1925 52.1465 0.155 7.274401 117.4497 11.1925
11/1/2021 7:02:59 AM 11.21 52.178 0.155 7.275801 117.9004 11.21
11/1/2021 7:17:59 AM 11.2125 52.1825 0.155 7.275801 120 11.2125
11/1/2021 7:32:59 AM 11.23 52.214 0.1549501 7.275801 118.7998 11.23
11/1/2021 7:47:59 AM 11.2275 52.2095 0.155 7.275801 120 11.2275
11/1/2021 8:03:00 AM 11.21 52.178 0.155 7.275801 118.9502 11.21
11/1/2021 8:18:00 AM 11.21 52.178 0.155 7.275801 120 11.21
11/1/2021 8:33:00 AM 11.1925 52.1465 0.1553501 7.275801 94.9502 11.1925
11/1/2021 8:48:00 AM 11.195 52.151 0.1553501 7.275801 92.7002 11.195
11/1/2021 9:03:00 AM 11.21 52.178 0.1553501 7.275101 91.7998 11.21
11/1/2021 9:18:00 AM 10.8825 51.5885 0.1570499 7.275801 93 10.8825
11/1/2021 9:32:59 AM 10.5825 51.0485 0.1585 7.275801 93.6001 10.5825
11/1/2021 9:47:59 AM 10.6875 51.2375 0.1578 7.275801 96.6001 10.6875
11/1/2021 10:02:59 AM 10.965 51.737 0.1564 7.275801 99.75 10.965
11/1/2021 10:18:00 AM 11.1225 52.0205 0.1557 7.275101 101.6997 11.1225
11/1/2021 10:32:59 AM 11.195 52.151 0.1553501 7.275101 102.1499 11.195
11/1/2021 10:47:59 AM 11.2475 52.2455 0.1556499 7.270901 97.9502 11.2475
11/1/2021 11:02:59 AM 11.245 52.241 0.1557 7.271601 99.1499 11.245
11/1/2021 11:17:59 AM 10.8475 51.5255 0.1574499 7.272301 98.09961 10.8475
11/1/2021 11:32:59 AM 10.74 51.332 0.15815 7.270901 95.69971 10.74
11/1/2021 11:47:59 AM 10.9825 51.7685 0.1574499 7.275801 97.6499 10.9825
11/1/2021 12:02:59 PM 11.1725 52.1105 0.1567501 7.274401 96.6001 11.1725
11/1/2021 12:17:59 PM 11.265 52.277 0.1564 7.275801 96.8999 11.265
11/1/2021 12:32:59 PM 11.3325 52.3985 0.1564 7.275801 97.0498 11.3325
11/1/2021 12:47:59 PM 11.4 52.52 0.1564 7.275101 97.0498 11.4
11/1/2021 1:03:00 PM 11.3325 52.3985 0.1567501 7.275801 99.1499 11.3325
11/1/2021 1:17:59 PM 11.04 51.872 0.1581 7.275101 98.09961 11.04
11/1/2021 1:32:59 PM 11.1425 52.0565 0.15815 7.276501 96 11.1425
11/1/2021 1:47:59 PM 11.2975 52.3355 0.1577501 7.276501 96.8999 11.2975
11/1/2021 2:02:59 PM 11.4025 52.5245 0.1574 7.275801 96.8999 11.4025
11/1/2021 2:17:59 PM 11.4525 52.6145 0.1574 7.280001 93.90039 11.4525
11/1/2021 2:32:59 PM 11.4875 52.6775 0.1574 7.280701 96.8999 11.4875
11/1/2021 2:47:59 PM 11.315 52.367 0.1584499 7.280701 94.9502 11.315
11/1/2021 3:02:59 PM 11.04 51.872 0.15985 7.280701 96 11.04
11/1/2021 3:17:59 PM 10.895 51.611 0.1606 7.280701 94.7998 10.895
11/1/2021 3:33:00 PM 11.14 52.052 0.15985 7.279301 94.6499 11.14
11/1/2021 3:47:59 PM 11.2775 52.2995 0.1595 7.279301 93.44971 11.2775
11/1/2021 4:02:59 PM 11.3675 52.4615 0.1592 7.280701 93.90039 11.3675
11/1/2021 4:17:59 PM 11.42 52.556 0.15915 7.280701 91.7998 11.42
11/1/2021 4:32:59 PM 11.455 52.619 0.1595 7.285601 91.7998 11.455
11/1/2021 4:48:00 PM 11.3675 52.4615 0.15985 7.285601 90.75 11.3675
11/1/2021 5:03:00 PM 11.075 51.935 0.1616 7.285601 90.8999 11.075
11/1/2021 5:17:59 PM 11.1075 51.9935 0.1619501 7.286301 89.69971 11.1075
11/1/2021 5:33:00 PM 11.2625 52.2725 0.1612499 7.286301 91.7998 11.2625
11/1/2021 5:48:00 PM 11.3325 52.3985 0.1612499 7.315001 89.69971 11.3325
11/1/2021 6:03:00 PM 11.055 51.899 0.16155 5.975901 127.2002 11.055
11/1/2021 6:18:00 PM 11.1225 52.0205 0.1626 7.280701 82.755 11.1225
11/1/2021 6:33:00 PM 11.1225 52.0205 0.1629501 7.295401 83.55 11.1225
11/1/2021 6:47:59 PM 11.105 51.989 0.16255 7.299601 84.255 11.1075
11/1/2021 7:03:00 PM 10.69 51.242 0.1644 7.305201 84.53 10.69
11/1/2021 7:17:59 PM 10.465 50.837 0.1654499 7.305901 83.50999 10.465
11/1/2021 7:32:59 PM 10.6525 51.1745 0.1647 7.300301 84.55 10.6525
11/1/2021 7:48:00 PM 10.8075 51.4535 0.1640499 7.305201 84.825 10.8075
11/1/2021 8:02:59 PM 10.8775 51.5795 0.1637 7.310101 84.06 10.8775
11/1/2021 8:17:59 PM 10.9125 51.6425 0.1633001 7.309401 85.27499 10.9125
11/1/2021 8:32:59 PM 10.91 51.638 0.1633001 7.309401 86.35001 10.91
11/1/2021 8:47:59 PM 10.915 51.647 0.1629501 7.310101 84.97501 10.915
11/1/2021 9:02:59 PM 10.915 51.647 0.1629501 7.315001 86.64 10.915
11/1/2021 9:18:00 PM 10.915 51.647 0.1629501 7.315001 87.39999 10.915
11/1/2021 9:32:59 PM 10.915 51.647 0.1629 7.319201 88.89999 10.915
11/1/2021 9:47:59 PM 10.8975 51.6155 0.1629 7.319201 87.2 10.8975
11/1/2021 10:03:00 PM 10.8775 51.5795 0.1629 7.319201 88.405 10.8775
11/1/2021 10:17:59 PM 10.8625 51.5525 0.1633001 7.3241 88.175 10.8625
11/1/2021 10:32:59 PM 10.8625 51.5525 0.1633001 7.3248 88.13499 10.8625
11/1/2021 11:02:59 PM 10.8275 51.4895 0.1636 7.3234 88.24001 10.8275
11/1/2021 11:17:59 PM 10.8275 51.4895 0.1636 7.329 87.27 10.8275
11/1/2021 11:32:59 PM 10.8125 51.4625 0.164 7.3297 87.86 10.8125
11/2/2021 12:02:59 AM 10.7725 51.3905 0.1643001 7.3332 86.50999 10.7725
11/2/2021 12:17:59 AM 10.8275 51.4895 0.1639501 7.3339 129.2998 10.8275
11/2/2021 12:32:59 AM 10.88 51.584 0.1639501 7.3381 169.9502 10.88
11/2/2021 12:47:59 AM 10.415 50.747 0.1664 7.3395 141.9004 10.415
11/2/2021 1:02:59 AM 10.135 50.243 0.16785 7.3388 127.9502 10.135
11/2/2021 1:17:59 AM 10.4275 50.7695 0.1664499 7.3388 118.5 10.4275
11/2/2021 1:32:59 AM 10.635 51.143 0.1657501 7.3388 113.3999 10.635
11/2/2021 2:03:00 AM 10.4825 50.8685 0.1664499 7.3542 105.4497 10.4825
11/2/2021 2:18:00 AM 10.135 50.243 0.16855 7.3395 103.0498 10.135
11/2/2021 2:33:00 AM 10.135 50.243 0.16855 7.3444 102 10.135
11/2/2021 3:03:00 AM 10.6175 51.1115 0.1661 7.3444 98.7002 10.6175
11/2/2021 3:18:00 AM 10.6375 51.1475 0.1661 7.3437 97.6499 10.6375
11/2/2021 3:33:00 AM 10.15 50.27 0.16815 7.3486 95.69971 10.15
11/2/2021 3:48:00 AM 9.91 49.838 0.1696499 7.3493 94.6499 9.910004
11/2/2021 4:03:00 AM 10.2225 50.4005 0.1682 7.3493 93.6001 10.2225
11/2/2021 4:18:00 AM 10.445 50.801 0.16715 7.3535 92.55029 10.445
11/2/2021 4:33:00 AM 10.5825 51.0485 0.1664499 7.3535 90.44971 10.5825
11/2/2021 4:47:59 AM 10.3425 50.6165 0.1675 7.3535 89.3999 10.3425
11/2/2021 5:02:59 AM 9.9275 49.8695 0.1692499 7.3549 95 9.927498
11/2/2021 5:17:59 AM 10.05 50.09 0.1689 7.3549 94.065 10.05
11/2/2021 5:48:00 AM 10.48 50.864 0.1664 7.3577 93.985 10.48
11/2/2021 6:03:00 AM 10.4625 50.8325 0.1664499 7.3584 90.62 10.4625
11/2/2021 6:18:00 AM 9.945 49.901 0.1692499 7.3591 87.08 9.945
11/2/2021 6:32:59 AM 9.7725 49.5905 0.1706499 7.3542 82.125 9.772499
11/2/2021 6:47:59 AM 9.9975 49.9955 0.1696 7.3549 80.28 9.997498
11/2/2021 7:02:59 AM 10.1525 50.2745 0.1689 7.3542 79.13499 10.1525
11/2/2021 7:17:59 AM 10.22 50.396 0.16815 7.3535 78.955 10.22
11/2/2021 7:32:59 AM 10.2725 50.4905 0.16815 7.3584 80.175 10.2725
11/2/2021 7:47:59 AM 10.2875 50.5175 0.16785 7.3584 80.03999 10.2875
11/2/2021 8:02:59 AM 10.2875 50.5175 0.1675 7.3584 79.34 10.2875
11/2/2021 8:17:59 AM 10.2875 50.5175 0.1675 7.3591 79.92999 10.2875
11/2/2021 8:32:59 AM 10.29 50.522 0.1678001 7.3584 79.66 10.29
11/2/2021 8:47:59 AM 10.29 50.522 0.1675 7.3591 80.675 10.29
11/2/2021 9:02:59 AM 10.31 50.558 0.16785 7.364 80.09 10.31
11/2/2021 9:17:59 AM 10.34 50.612 0.1678001 7.3584 81.61 10.34
11/2/2021 9:32:59 AM 10.345 50.621 0.1678001 7.3633 80.495 10.345
11/2/2021 9:47:59 AM 10.3425 50.6165 0.1678001 7.3633 80.14999 10.3425
11/2/2021 10:03:00 AM 10.3575 50.6435 0.1678001 7.3633 80.88499 10.3575
11/2/2021 10:17:59 AM 10.375 50.675 0.1677501 7.3633 79.83501 10.375
11/2/2021 10:32:59 AM 10.395 50.711 0.1681 7.3675 80.14999 10.395
11/2/2021 10:47:59 AM 10.3925 50.7065 0.16815 7.3682 81.02 10.3925
11/2/2021 11:03:00 AM 10.4125 50.7425 0.16845 7.3682 79.735 10.4125
11/2/2021 11:18:00 AM 10.445 50.801 0.16845 7.3682 78.795 10.445
11/2/2021 11:33:00 AM 10.465 50.837 0.1685 7.3675 79.77 10.465
11/2/2021 11:48:00 AM 10.12 50.216 0.1706 7.3689 79.255 10.12
11/2/2021 12:03:00 PM 10.065 50.117 0.17055 7.3689 79.24001 10.065
11/2/2021 12:18:00 PM 10.255 50.459 0.1699 7.3675 78.75 10.255
11/2/2021 12:33:00 PM 10.375 50.675 0.16955 7.3731 77.92 10.375
11/2/2021 12:48:00 PM 10.445 50.801 0.1692 7.3731 78.27499 10.465
11/2/2021 1:03:00 PM 10.515 50.927 0.16915 7.3731 77.27 10.515
11/2/2021 1:18:00 PM 10.55 50.99 0.16915 7.3738 75.435 10.55
11/2/2021 1:48:00 PM 10.3075 50.5535 0.1706 7.3731 74.84 10.3075
11/2/2021 2:02:59 PM 10.0975 50.1755 0.1716 7.3731 74.83501 10.0975
11/2/2021 2:18:00 PM 10.255 50.459 0.1709501 7.378 75.175 10.255
11/2/2021 2:33:00 PM 10.375 50.675 0.1702499 7.3731 74.27 10.375
11/2/2021 2:48:00 PM 10.4275 50.7695 0.1699 7.3724 73.205 10.4275
11/2/2021 3:02:59 PM 10.465 50.837 0.16985 7.3731 73.485 10.465
11/2/2021 3:17:59 PM 10.4975 50.8955 0.1699 7.3787 74.03999 10.4975
11/2/2021 3:32:59 PM 10.515 50.927 0.1695 7.3787 73.38499 10.515
11/2/2021 3:47:59 PM 10.5325 50.9585 0.16985 7.3787 73.24001 10.5325
11/2/2021 4:03:00 PM 10.5675 51.0215 0.1695 7.378 72.685 10.5675
11/2/2021 4:17:59 PM 10.5675 51.0215 0.1699 7.378 73.69501 10.5675
11/2/2021 4:32:59 PM 10.5825 51.0485 0.16985 7.378 73 10.5825
11/2/2021 4:47:59 PM 10.345 50.621 0.1712499 7.3773 72.45 10.345
11/2/2021 5:02:59 PM 10.1175 50.2115 0.1727 7.3787 73.75999 10.1175
11/2/2021 5:17:59 PM 10.2875 50.5175 0.1716 7.3822 72.71001 10.2875
11/2/2021 5:32:59 PM 10.3925 50.7065 0.1713001 7.3829 73.50999 10.3925
11/2/2021 5:47:59 PM 10.4275 50.7695 0.1712499 7.3829 72.41499 10.4275
11/2/2021 6:02:59 PM 10.43 50.774 0.1713001 7.3836 72.27499 10.43
11/2/2021 6:17:59 PM 10.43 50.774 0.1712499 7.3829 71.125 10.43
11/2/2021 6:32:59 PM 10.43 50.774 0.1712499 7.3829 71.50999 10.43
11/2/2021 6:47:59 PM 10.4125 50.7425 0.1712499 7.3836 73.145 10.4125
11/2/2021 7:02:59 PM 10.4125 50.7425 0.1712499 7.3822 72.17 10.4125
11/2/2021 7:17:59 PM 10.4125 50.7425 0.1712499 7.3836 71.96001 10.4125
11/2/2021 7:32:59 PM 10.4125 50.7425 0.1712499 7.3822 69.985 10.4125
11/2/2021 7:48:00 PM 10.4125 50.7425 0.1712499 7.3829 69.84 10.4125
11/2/2021 8:03:00 PM 10.41 50.738 0.1712499 7.3878 70.675 10.41
11/2/2021 8:18:00 PM 10.395 50.711 0.1716 7.3878 69.91 10.395
11/2/2021 8:33:00 PM 10.395 50.711 0.1719 7.3878 69.735 10.395
11/2/2021 8:48:00 PM 10.395 50.711 0.1723001 7.3885 69.015 10.395
11/2/2021 9:03:00 PM 10.3775 50.6795 0.1723001 7.3878 68.69501 10.3775
11/2/2021 9:18:00 PM 10.3775 50.6795 0.1723001 7.3836 68.355 10.3775
11/2/2021 9:33:00 PM 10.395 50.711 0.1719501 7.3878 68.80499 10.395
11/2/2021 9:48:00 PM 10.395 50.711 0.1715501 7.3871 68.905 10.395
11/2/2021 10:03:00 PM 10.395 50.711 0.1716 7.3885 68.56 10.395
11/2/2021 10:17:59 PM 10.395 50.711 0.1723001 7.3878 68.11 10.395
11/2/2021 10:32:59 PM 10.3975 50.7155 0.1723001 7.3878 67.75999 10.3975
11/2/2021 10:47:59 PM 10.3775 50.6795 0.1722499 7.3829 67.83 10.3775
11/2/2021 11:02:59 PM 10.3775 50.6795 0.1723001 7.3885 67.02499 10.3775
11/2/2021 11:18:00 PM 10.3775 50.6795 0.1726 7.3878 67.07001 10.3775
11/2/2021 11:32:59 PM 10.36 50.648 0.1726 7.3878 65.88 10.36
11/3/2021 12:02:59 AM 10.3425 50.6165 0.1733501 7.3885 65.05 10.3425
11/3/2021 12:18:00 AM 9.965 49.937 0.17545 7.3892 65.47 9.964996
11/3/2021 12:33:00 AM 9.7375 49.5275 0.17715 7.3878 65.25 9.737503
11/3/2021 12:48:00 AM 9.9275 49.8695 0.1765 7.3878 63.935 9.927498
11/3/2021 1:02:59 AM 10.0325 50.0585 0.1761 7.3871 64.455 10.0325
11/3/2021 1:17:59 AM 10.1 50.18 0.17615 7.3822 62.715 10.1
11/3/2021 1:32:59 AM 10.12 50.216 0.17615 7.3878 63.13 10.12
11/3/2021 1:47:59 AM 10.1325 50.2385 0.1761 7.3864 62.36501 10.1325
11/3/2021 2:02:59 AM 10.15 50.27 0.1768 7.3822 64.105 10.15
11/3/2021 2:33:00 AM 10.1375 50.2475 0.17715 7.3885 60.23 10.1375
11/3/2021 2:47:59 AM 10.12 50.216 0.17745 7.3885 58.77499 10.12
11/3/2021 3:02:59 AM 10.12 50.216 0.1779 7.3878 57.73 10.12
11/3/2021 3:17:59 AM 10.1 50.18 0.17785 7.3885 57.105 10.1
11/3/2021 3:32:59 AM 10.085 50.153 0.1781999 7.3885 56.515 10.085
11/3/2021 3:47:59 AM 10.0675 50.1215 0.1789 7.3885 55.16 10.0675
11/3/2021 4:02:59 AM 10.0675 50.1215 0.1791999 7.3927 54.985 10.0675
11/3/2021 4:17:59 AM 10.05 50.09 0.1796 7.3934 54.36 10.05
11/3/2021 4:32:59 AM 10.0325 50.0585 0.1799 7.392 52.97 10.0325
11/3/2021 4:48:00 AM 10.0175 50.0315 0.1806 7.3885 53.63499 10.0175
11/3/2021 5:02:59 AM 10.0175 50.0315 0.1806 7.3927 53.56 10.0175
11/3/2021 5:17:59 AM 10 50 0.1813 7.392 53.005 10
11/3/2021 5:32:59 AM 9.98 49.964 0.1816499 7.3934 54.00999 9.980003
11/3/2021 5:47:59 AM 9.9625 49.9325 0.1819501 7.392 54.12 9.962502
11/3/2021 6:03:00 AM 9.965 49.937 0.1823501 7.3934 54.985 9.964996
11/3/2021 6:18:00 AM 9.9475 49.9055 0.1823501 7.3927 54.08501 9.947502
11/3/2021 6:33:00 AM 9.93 49.874 0.1823501 7.3927 54.94501 9.93
11/3/2021 6:47:59 AM 9.93 49.874 0.1819501 7.3976 55.53999 9.93
11/3/2021 7:02:59 AM 9.91 49.838 0.182 7.3934 55.925 9.910004
11/3/2021 7:17:59 AM 9.895 49.811 0.182 7.3927 55.53999 9.894997
11/3/2021 7:32:59 AM 9.8925 49.8065 0.182 7.3976 55.88499 9.892502
11/3/2021 7:47:59 AM 9.8775 49.7795 0.1823501 7.3983 55.265 9.877502
11/3/2021 8:02:59 AM 9.86 49.748 0.1826999 7.3983 55.33 9.860001
11/3/2021 8:17:59 AM 9.84 49.712 0.1823 7.3976 55.265 9.839996
11/3/2021 8:32:59 AM 9.825 49.685 0.182 7.4032 55.53999 9.824997
11/3/2021 8:47:59 AM 9.825 49.685 0.1819501 7.3976 54.985 9.824997
11/3/2021 9:02:59 AM 9.825 49.685 0.182 7.4032 55.19 9.824997
11/3/2021 9:17:59 AM 9.86 49.748 0.1816499 7.4025 55.16 9.860001
11/3/2021 9:32:59 AM 9.895 49.811 0.1813 7.4018 54.42999 9.894997
11/3/2021 9:47:59 AM 9.945 49.901 0.1809501 7.4018 54.57001 9.945
11/3/2021 10:02:59 AM 9.965 49.937 0.1806 7.4032 55.435 9.964996
11/3/2021 10:17:59 AM 9.9625 49.9325 0.1806 7.4025 54.88 9.962502
11/3/2021 10:32:59 AM 9.98 49.964 0.1806 7.4018 55.295 9.980003
11/3/2021 10:48:00 AM 9.635 49.343 0.1823501 7.4025 55.295 9.635002
11/3/2021 11:02:59 AM 9.55 49.19 0.1830499 7.4032 56.41 9.550003
11/3/2021 11:17:59 AM 9.7225 49.5005 0.182 7.4032 55.895 9.722504
11/3/2021 11:32:59 AM 9.8075 49.6535 0.1816499 7.4032 55.785 9.807503
11/3/2021 11:47:59 AM 9.86 49.748 0.1812499 7.4081 56.065 9.860001
11/3/2021 12:02:59 PM 9.91 49.838 0.1809 7.4067 56.7 9.910004
11/3/2021 12:17:59 PM 9.9475 49.9055 0.1806 7.4032 56.55 9.947502
11/3/2021 12:32:59 PM 9.9625 49.9325 0.1806 7.4018 56.47501 9.962502
11/3/2021 12:47:59 PM 9.96 49.928 0.1802 7.4025 57.175 9.959999
11/3/2021 1:02:59 PM 10 50 0.1802499 7.4074 57.10001 10
11/3/2021 1:17:59 PM 9.825 49.685 0.1816499 7.4067 57.28 9.824997
11/3/2021 1:32:59 PM 9.8075 49.6535 0.1816499 7.4067 56.515 9.807503
11/3/2021 1:47:59 PM 9.9275 49.8695 0.1813 7.4074 56.48 9.927498
11/3/2021 2:02:59 PM 9.98 49.964 0.1809501 7.4067 56.515 9.980003
11/3/2021 2:17:59 PM 10.03 50.054 0.1809501 7.4074 56.895 10.03
11/3/2021 2:32:59 PM 10.0675 50.1215 0.1809501 7.4067 55.99001 10.0675
11/3/2021 2:47:59 PM 10.085 50.153 0.1809501 7.4123 55.955 10.085
11/3/2021 3:02:59 PM 10.0825 50.1485 0.1809 7.4116 55.955 10.0825
11/3/2021 3:33:00 PM 10.1025 50.1845 0.1816 7.4116 54.355 10.1025
11/3/2021 3:47:59 PM 10.1025 50.1845 0.1819501 7.4116 54.875 10.1025
11/3/2021 4:02:59 PM 9.705 49.469 0.1840499 7.4179 54.535 9.705002
11/3/2021 4:17:59 PM 9.6875 49.4375 0.18445 7.4074 55.06 9.6875
11/3/2021 4:32:59 PM 9.88 49.784 0.1834 7.4123 54.88 9.879997
11/3/2021 4:47:59 PM 9.965 49.937 0.1826999 7.4179 54.95 9.964996
11/3/2021 5:02:59 PM 10.015 50.027 0.1823501 7.4172 54.785 10.015
11/3/2021 5:17:59 PM 10.05 50.09 0.1823501 7.4179 55.265 10.05
11/3/2021 5:32:59 PM 10.07 50.126 0.1826499 7.4172 56.095 10.07
11/3/2021 5:47:59 PM 10.0675 50.1215 0.183 7.4123 53.905 10.0675
11/3/2021 6:02:59 PM 10.05 50.09 0.1833501 7.4172 55.67999 10.05
11/3/2021 6:17:59 PM 10.03 50.054 0.1834 7.4179 54.64 10.03
11/3/2021 6:32:59 PM 10.015 50.027 0.1837 7.4165 54.67 10.015
11/3/2021 6:47:59 PM 10.015 50.027 0.1840499 7.4221 53.63 10.015
11/3/2021 7:02:59 PM 9.9975 49.9955 0.1840499 7.4172 54.77499 9.997498
11/3/2021 7:17:59 PM 10 50 0.1844 7.4214 53.53 10
11/3/2021 7:32:59 PM 9.9975 49.9955 0.1848 7.4172 53.84 9.997498
11/3/2021 7:47:59 PM 9.9975 49.9955 0.18545 7.4172 53.63 9.997498
11/3/2021 8:02:59 PM 9.98 49.964 0.1858 7.4172 53.98 9.980003
11/3/2021 8:17:59 PM 9.98 49.964 0.1858 7.4165 53.355 9.980003
11/3/2021 8:32:59 PM 9.98 49.964 0.18615 7.4172 52.625 9.980003
11/3/2021 8:47:59 PM 9.965 49.937 0.1864499 7.4165 51.83 9.964996
11/3/2021 9:02:59 PM 9.9625 49.9325 0.1865 7.4165 51.41 9.962502
11/3/2021 9:17:59 PM 9.945 49.901 0.18685 7.4172 50.82001 9.945
11/3/2021 9:32:59 PM 9.945 49.901 0.1872 7.4221 50.155 9.945
11/3/2021 9:47:59 PM 9.9275 49.8695 0.1875 7.4172 49.64 9.927498
11/3/2021 10:02:59 PM 9.91 49.838 0.1882499 7.4172 49.08501 9.910004
11/3/2021 10:17:59 PM 9.8925 49.8065 0.1882 7.4228 48.905 9.892502
11/3/2021 10:32:59 PM 9.875 49.775 0.1885501 7.4221 49.00999 9.875
11/3/2021 10:47:59 PM 9.8775 49.7795 0.1889 7.4221 48.495 9.877502
11/3/2021 11:02:59 PM 9.8575 49.7435 0.1889 7.4221 48.35001 9.857498
11/3/2021 11:17:59 PM 9.86 49.748 0.1892 7.4221 47.97501 9.860001
11/3/2021 11:32:59 PM 9.8425 49.7165 0.1896 7.4172 47.97 9.842499
11/4/2021 12:02:59 AM 9.8075 49.6535 0.1896 7.4214 47.83501 9.807503
11/4/2021 12:17:59 AM 9.79 49.622 0.1899501 7.4221 48.17999 9.790001
11/4/2021 12:33:00 AM 9.775 49.595 0.1899501 7.4228 48.39 9.775002
11/4/2021 12:47:59 AM 9.755 49.559 0.1906 7.4221 47.83 9.754997
11/4/2021 1:02:59 AM 9.72 49.496 0.1909501 7.4221 48.11 9.720001
11/4/2021 1:17:59 AM 9.7025 49.4645 0.1913 7.4214 46.925 9.702499
11/4/2021 1:32:59 AM 9.685 49.433 0.1917 7.427 47.765 9.684998
11/4/2021 1:47:59 AM 9.6675 49.4015 0.192 7.4214 47 9.667503
11/4/2021 2:02:59 AM 9.65 49.37 0.1924 7.4263 46.58501 9.650002
11/4/2021 2:17:59 AM 9.6325 49.3385 0.1927501 7.4277 46.44 9.6325
11/4/2021 2:32:59 AM 9.6 49.28 0.1927501 7.427 45.96001 9.599998
11/4/2021 2:47:59 AM 9.58 49.244 0.1930499 7.427 46.03 9.580002
11/4/2021 3:02:59 AM 9.5625 49.2125 0.1931 7.4263 46.58501 9.5625
11/4/2021 3:17:59 AM 9.5475 49.1855 0.1934 7.4277 45.96001 9.547501
11/4/2021 3:32:59 AM 9.53 49.154 0.1934499 7.427 45.37 9.529999
11/4/2021 3:47:59 AM 9.495 49.091 0.1938 7.427 45.44 9.495003
11/4/2021 4:02:59 AM 9.475 49.055 0.1941 7.427 45.30499 9.474998
11/4/2021 4:17:59 AM 9.4575 49.0235 0.1945 7.427 45.3 9.457497
11/4/2021 4:32:59 AM 9.425 48.965 0.1952 7.4277 44.465 9.425003
11/4/2021 4:47:59 AM 9.4075 48.9335 0.1952 7.4277 44.675 9.407501
11/4/2021 5:02:59 AM 9.375 48.875 0.19515 7.4277 43.77499 9.375
11/4/2021 5:17:59 AM 9.355 48.839 0.1955501 7.427 43.325 9.355003
11/4/2021 5:32:59 AM 9.3375 48.8075 0.19585 7.427 43.425 9.337502
11/4/2021 5:47:59 AM 9.3225 48.7805 0.19585 7.427 43.705 9.322502
11/4/2021 6:02:59 AM 9.3025 48.7445 0.19585 7.4277 43.11501 9.302498
11/4/2021 6:17:59 AM 9.285 48.713 0.1962 7.427 43.145 9.285004
11/4/2021 6:32:59 AM 9.2525 48.6545 0.1962 7.427 42.8 9.252502
11/4/2021 6:47:59 AM 9.25 48.65 0.19655 7.427 43.11501 9.25
11/4/2021 7:02:59 AM 9.2325 48.6185 0.1966 7.4284 42.52 9.232498
11/4/2021 7:17:59 AM 9.1975 48.5555 0.19655 7.4284 42.77499 9.197502
11/4/2021 7:32:59 AM 9.185 48.533 0.19655 7.427 42.69501 9.184998
11/4/2021 7:47:59 AM 9.165 48.497 0.19655 7.4228 43.675 9.165001
11/4/2021 8:02:59 AM 9.1475 48.4655 0.1966 7.4277 43.46001 9.147499
11/4/2021 8:17:59 AM 9.13 48.434 0.1966 7.4235 43.53 9.129997
11/4/2021 8:32:59 AM 9.13 48.434 0.1966 7.4326 33.465 9.129997
11/4/2021 8:47:59 AM 9.095 48.371 0.1969 7.4277 33.14999 9.095001
11/4/2021 9:02:59 AM 9.08 48.344 0.1969 7.4284 32.80499 9.080002
11/4/2021 9:17:59 AM 9.0625 48.3125 0.1973 7.4284 33.325 9.0625
11/4/2021 9:32:59 AM 9.0425 48.2765 0.1972499 7.427 33.53 9.042503
11/4/2021 10:02:59 AM 9.0425 48.2765 0.1972499 7.4277 33.42999 9.042503
11/4/2021 10:17:59 AM 9.06 48.308 0.1972499 7.4277 33.5 9.059998
11/4/2021 10:32:59 AM 9.1125 48.4025 0.1969501 7.4277 33.11501 9.112503
11/4/2021 10:47:59 AM 9.1625 48.4925 0.19655 7.427 32.77 9.162498
11/4/2021 11:02:59 AM 9.215 48.587 0.19655 7.4277 32.73 9.214996
11/4/2021 11:32:59 AM 9.2675 48.6815 0.19655 7.4312 32.28 9.267502
11/4/2021 11:47:59 AM 9.2825 48.7085 0.19655 7.427 31.75999 9.282501
11/4/2021 12:03:00 PM 9.3025 48.7445 0.1969 7.4277 33.185 9.302498
11/4/2021 12:17:59 PM 9.2825 48.7085 0.19655 7.4312 32.69501 9.282501
11/4/2021 12:32:59 PM 9.2825 48.7085 0.19685 7.4263 32.38499 9.282501
11/4/2021 12:47:59 PM 9.3025 48.7445 0.19685 7.4312 32.73 9.302498
11/4/2021 1:02:59 PM 9.3 48.74 0.19685 7.4263 32 9.300003
11/4/2021 1:17:59 PM 9.3175 48.7715 0.1969 7.4319 32.39 9.317497
11/4/2021 1:32:59 PM 9.35 48.83 0.19655 7.4319 31.935 9.349998
11/4/2021 1:47:59 PM 9.37 48.866 0.19655 7.4319 32.83501 9.370003
11/4/2021 2:02:59 PM 9.405 48.929 0.19655 7.4312 32.905 9.404999
11/4/2021 2:17:59 PM 9.44 48.992 0.19655 7.4326 33.28999 9.440002
11/4/2021 2:32:59 PM 9.4575 49.0235 0.19685 7.4361 33.03999 9.457497
11/4/2021 2:47:59 PM 9.455 49.019 0.19685 7.4368 32.175 9.455002
11/4/2021 3:02:59 PM 9.475 49.055 0.1972 7.4361 33.495 9.474998
11/4/2021 3:17:59 PM 9.49 49.082 0.1976 7.4368 33.355 9.489998
11/4/2021 3:32:59 PM 9.4925 49.0865 0.1976 7.4361 33.185 9.4925
11/4/2021 4:03:00 PM 9.4925 49.0865 0.1976 7.441 33.81 9.4925
11/4/2021 4:17:59 PM 9.4725 49.0505 0.1976 7.4417 33.60001 9.472504
11/4/2021 4:32:59 PM 9.475 49.055 0.1979 7.4417 33.77499 9.474998
11/4/2021 4:47:59 PM 9.4575 49.0235 0.1982499 7.441 33.425 9.457497
11/4/2021 5:02:59 PM 9.4575 49.0235 0.1986 7.441 33.145 9.457497
11/4/2021 5:17:59 PM 9.44 48.992 0.1986 7.4459 33.74001 9.440002
11/4/2021 5:32:59 PM 9.4225 48.9605 0.1986 7.441 33.74001 9.422501
11/4/2021 5:47:59 PM 9.42 48.956 0.1989501 7.4417 33.14999 9.419998
11/4/2021 6:02:59 PM 9.405 48.929 0.1989501 7.4417 33.11 9.404999
11/4/2021 6:17:59 PM 9.4075 48.9335 0.1989501 7.4417 32.87 9.407501
11/4/2021 6:33:00 PM 9.4025 48.9245 0.1993501 7.4466 33.39 9.402496
11/4/2021 6:47:59 PM 9.39 48.902 0.1993001 7.4459 33.395 9.389999
11/4/2021 7:02:59 PM 9.3725 48.8705 0.1996499 7.4459 33.17999 9.372498
11/4/2021 7:18:00 PM 9.3725 48.8705 0.2003501 7.4466 34.02 9.372498
11/4/2021 7:32:59 PM 9.37 48.866 0.2007501 7.4466 32.87 9.370003
11/4/2021 8:02:59 PM 9.355 48.839 0.201 7.4459 33.395 9.355003
11/4/2021 8:17:59 PM 9.3525 48.8345 0.2014 7.4466 33.7 9.352501
11/4/2021 8:32:59 PM 9.3375 48.8075 0.2021 7.4466 33.285 9.337502
11/4/2021 8:47:59 PM 9.32 48.776 0.2024499 7.4473 33.355 9.32
11/4/2021 9:02:59 PM 9.3025 48.7445 0.2028001 7.4466 33.25 9.302498
11/4/2021 9:17:59 PM 9.2675 48.6815 0.2034499 7.4515 33.00999 9.267502
11/4/2021 9:32:59 PM 9.25 48.65 0.2042 7.4473 33.74001 9.25
11/4/2021 9:47:59 PM 9.215 48.587 0.20485 7.4508 32.89999 9.214996
11/4/2021 10:17:59 PM 9.18 48.524 0.2061999 7.4508 32.245 9.18
11/4/2021 10:32:59 PM 9.1475 48.4655 0.2069 7.4508 32.175 9.147499
11/4/2021 11:02:59 PM 9.1125 48.4025 0.2083001 7.4522 31.55499 9.112503
11/4/2021 11:32:59 PM 9.0775 48.3395 0.2097 7.4564 30.935 9.077499
11/5/2021 12:02:59 AM 9.025 48.245 0.2110499 7.4564 31.105 9.025002
11/5/2021 12:17:59 AM 9.0075 48.2135 0.2121 7.4564 30.06 9.0075
11/5/2021 12:32:59 AM 8.9875 48.1775 0.2127501 7.4564 30.13499 8.987503
11/5/2021 12:47:59 AM 8.9725 48.1505 0.2138 7.4571 29.88499 8.972504
11/5/2021 1:02:59 AM 8.955 48.119 0.21485 7.462 29.61 8.955002
11/5/2021 1:17:59 AM 8.9375 48.0875 0.21585 7.4613 29.465 8.9375
11/5/2021 1:32:59 AM 8.92 48.056 0.2165501 7.4613 29.67999 8.919998
11/5/2021 1:47:59 AM 8.8875 47.9975 0.2173 7.462 29.82001 8.887497
11/5/2021 2:02:59 AM 8.87 47.966 0.2176 7.4613 29.88499 8.870003
11/5/2021 2:17:59 AM 8.85 47.93 0.2183501 7.462 30.235 8.849998
11/5/2021 2:32:59 AM 8.835 47.903 0.2186499 7.462 29.99001 8.834999
11/5/2021 2:47:59 AM 8.8 47.84 0.2193501 7.4662 30.06 8.800003
11/5/2021 3:02:59 AM 8.7825 47.8085 0.2196999 7.4669 30.34 8.782501
11/5/2021 3:17:59 AM 8.765 47.777 0.2204 7.4669 30.685 8.764999
11/5/2021 3:32:59 AM 8.745 47.741 0.2207501 7.4669 30.58 8.745003
11/5/2021 3:47:59 AM 8.7325 47.7185 0.2211 7.4662 30.855 8.732498
11/5/2021 4:03:00 AM 8.695 47.651 0.2218 7.4662 30.58 8.695
11/5/2021 4:17:59 AM 8.68 47.624 0.2221 7.4662 30.685 8.68
11/5/2021 4:32:59 AM 8.66 47.588 0.22215 7.4718 30.685 8.660004
11/5/2021 5:02:59 AM 8.6275 47.5295 0.2231999 7.4718 30.78999 8.627502
11/5/2021 5:17:59 AM 8.5875 47.4575 0.22385 7.4704 30.57001 8.587502
11/5/2021 5:32:59 AM 8.5725 47.4305 0.2242499 7.4711 30.64 8.572502
11/5/2021 5:47:59 AM 8.555 47.399 0.2249 7.4753 30.85001 8.555
11/5/2021 6:02:59 AM 8.52 47.336 0.2256499 7.476 30.64 8.519997
11/5/2021 6:17:59 AM 8.52 47.336 0.2263 7.476 30.57001 8.519997
11/5/2021 6:32:59 AM 8.485 47.273 0.227 7.4746 30.57001 8.485001
11/5/2021 6:47:59 AM 8.47 47.246 0.2273501 7.476 30.82001 8.470001
11/5/2021 7:02:59 AM 8.4525 47.2145 0.2277 7.4809 30.925 8.452499
11/5/2021 7:17:59 AM 8.43 47.174 0.2280499 7.4802 30.88499 8.43
11/5/2021 7:32:59 AM 8.415 47.147 0.2284 7.4809 31.13 8.415001
11/5/2021 7:47:59 AM 8.4 47.12 0.2287 7.4802 31.06 8.400002
11/5/2021 8:02:59 AM 8.3825 47.0885 0.22915 7.4809 31.34 8.3825
11/5/2021 8:17:59 AM 8.3625 47.0525 0.22945 7.4809 31.78999 8.362503
11/5/2021 8:32:59 AM 8.3475 47.0255 0.2298 7.4858 32.105 8.347504
11/5/2021 8:47:59 AM 8.3475 47.0255 0.23015 7.4949 32.065 8.347504
11/5/2021 9:02:59 AM 8.345 47.021 0.2301 7.4851 35.47 8.345001
11/5/2021 9:17:59 AM 8.345 47.021 0.2298 7.4858 40.64 8.345001
11/5/2021 9:32:59 AM 8.38 47.084 0.2297501 7.4851 35.985 8.379997
11/5/2021 9:47:59 AM 8.43 47.174 0.2294 7.4851 34.735 8.43
11/5/2021 10:02:59 AM 8.45 47.21 0.2294 7.4851 33.935 8.449997
11/5/2021 10:17:59 AM 8.485 47.273 0.2294 7.4844 34.11 8.485001
11/5/2021 10:32:59 AM 8.52 47.336 0.2290499 7.4907 34.435 8.519997
11/5/2021 10:47:59 AM 8.555 47.399 0.229 7.4858 33.67 8.555
11/5/2021 11:02:59 AM 8.59 47.462 0.2290499 7.4914 34.22501 8.589996
11/5/2021 11:17:59 AM 8.59 47.462 0.2294 7.4907 33.95 8.589996
11/5/2021 11:32:59 AM 8.6275 47.5295 0.2294 7.49 33.845 8.627502
11/5/2021 11:47:59 AM 8.6425 47.5565 0.2294 7.49 35.33501 8.642502
11/5/2021 12:02:59 PM 8.7075 47.6735 0.2287 7.4949 40.78999 8.707497
11/5/2021 12:17:59 PM 8.7625 47.7725 0.2283 7.49 46.03 8.762497
11/5/2021 12:32:59 PM 8.76 47.768 0.2286499 7.4998 43.075 8.760002
11/5/2021 12:47:59 PM 8.78 47.804 0.2290499 7.4998 41.30499 8.779999
11/5/2021 1:02:59 PM 8.7975 47.8355 0.2293501 7.4956 36.935 8.797501
11/5/2021 1:17:59 PM 8.815 47.867 0.2293501 7.4998 35.995 8.815002
11/5/2021 1:32:59 PM 8.8325 47.8985 0.2293501 7.4949 35.125 8.832497
11/5/2021 1:47:59 PM 8.85 47.93 0.229 7.4998 35.33501 8.849998
11/5/2021 2:02:59 PM 8.885 47.993 0.229 7.4998 35.23 8.885002
11/5/2021 2:17:59 PM 8.9175 48.0515 0.2286499 7.4998 35.33501 8.917503
11/5/2021 2:32:59 PM 8.9375 48.0875 0.2286499 7.5005 35.47501 8.9375
11/5/2021 2:47:59 PM 8.9525 48.1145 0.2286499 7.4991 35.995 8.952499
11/5/2021 3:02:59 PM 8.9725 48.1505 0.229 7.504 35.645 8.972504
11/5/2021 3:17:59 PM 9.005 48.209 0.2286499 7.504 34.91499 9.004997
11/5/2021 3:32:59 PM 9.0025 48.2045 0.229 7.504 35.575 9.002502
11/5/2021 3:47:59 PM 9.005 48.209 0.229 7.5089 35.545 9.004997
11/5/2021 4:02:59 PM 9.005 48.209 0.2293501 7.5047 35.39999 9.004997
11/5/2021 4:17:59 PM 9.0225 48.2405 0.2297 7.5096 34.435 9.022499
11/5/2021 4:32:59 PM 9.0075 48.2135 0.2297 7.5089 34.53999 9.0075
11/5/2021 4:47:59 PM 9.005 48.209 0.2297 7.5047 34.575 9.004997
11/5/2021 5:02:59 PM 9.0075 48.2135 0.2300499 7.5096 34.28999 9.0075
11/5/2021 5:17:59 PM 8.99 48.182 0.23 7.5096 34.5 8.989998
11/5/2021 5:32:59 PM 8.9875 48.1775 0.23 7.5089 34.21001 8.987503
11/5/2021 5:47:59 PM 8.97 48.146 0.2303501 7.5138 33.875 8.970001
11/5/2021 6:02:59 PM 8.9525 48.1145 0.2307501 7.5096 34.36 8.952499
11/5/2021 6:17:59 PM 8.935 48.083 0.2310499 7.5089 34.22 8.934998
11/5/2021 6:32:59 PM 8.9375 48.0875 0.2307 7.5089 36.345 8.9375
11/5/2021 6:47:59 PM 8.935 48.083 0.2304 7.5138 42.035 8.934998
11/5/2021 7:02:59 PM 8.92 48.056 0.2303501 7.5145 41.065 8.919998
11/5/2021 7:17:59 PM 8.92 48.056 0.2303501 7.5138 40.125 8.919998
11/5/2021 7:32:59 PM 8.9 48.02 0.2303501 7.5138 39.36 8.900002
11/5/2021 7:47:59 PM 8.885 47.993 0.2307 7.5145 37.765 8.885002
11/5/2021 8:02:59 PM 8.8875 47.9975 0.2307 7.5138 37.56 8.887497
11/5/2021 8:17:59 PM 8.8675 47.9615 0.2310499 7.5145 37.52499 8.8675
11/5/2021 8:32:59 PM 8.365 47.057 0.2346 7.5152 37.355 8.364998
11/5/2021 8:47:59 PM 8.1375 46.6475 0.2364 7.5145 37.10001 8.137497
11/5/2021 9:02:59 PM 8.38 47.084 0.2346 7.5145 36.89 8.379997
11/5/2021 9:18:00 PM 8.5175 47.3315 0.23355 7.5138 36.405 8.517502
11/5/2021 9:33:00 PM 8.57 47.426 0.2329 7.5096 36.36501 8.57
11/5/2021 9:48:00 PM 8.57 47.426 0.2325501 7.5138 36.44 8.57
11/5/2021 10:03:00 PM 8.5725 47.4305 0.2325501 7.5103 36.24001 8.572502
11/5/2021 10:18:00 PM 8.555 47.399 0.2325 7.5145 35.75 8.555
11/5/2021 10:32:59 PM 8.54 47.372 0.2325 7.5145 36.58501 8.540001
11/5/2021 10:48:00 PM 8.52 47.336 0.2325 7.5103 35.82001 8.519997
11/5/2021 11:03:00 PM 8.505 47.309 0.23285 7.5103 35.47501 8.504997
11/5/2021 11:17:59 PM 8.5025 47.3045 0.23285 7.5096 35.75 8.502502
11/5/2021 11:33:00 PM 8.485 47.273 0.23285 7.5096 35.755 8.485001
11/6/2021 12:02:59 AM 8.4875 47.2775 0.2328001 7.5096 35.72 8.487503
11/6/2021 12:17:59 AM 8.485 47.273 0.2332 7.5152 35.125 8.485001
11/6/2021 12:32:59 AM 8.4675 47.2415 0.2332 7.5096 35.33501 8.467499
11/6/2021 12:47:59 AM 8.47 47.246 0.2335 7.5145 35.27 8.470001
11/6/2021 1:02:59 AM 8.45 47.21 0.2339 7.5145 35.235 8.449997
11/6/2021 1:17:59 AM 8.435 47.183 0.23455 7.5145 35.09 8.434998
11/6/2021 1:48:00 AM 8.4 47.12 0.2356 7.5194 34.81 8.400002
11/6/2021 2:32:59 AM 8.33 46.994 0.237 7.5194 34.12 8.330002
11/6/2021 2:47:59 AM 8.2975 46.9355 0.2373501 7.5187 34.155 8.297501
11/6/2021 3:02:59 AM 8.26 46.868 0.2377 7.5194 33.81 8.260002
11/6/2021 3:17:59 AM 8.245 46.841 0.2380499 7.5208 34.675 8.245003
11/6/2021 3:32:59 AM 8.225 46.805 0.2387501 7.5201 33.74001 8.224998
11/6/2021 3:47:59 AM 8.19 46.742 0.2390499 7.5201 34.155 8.190002
11/6/2021 4:02:59 AM 8.1575 46.6835 0.2398001 7.525 34.295 8.157501
11/6/2021 4:17:59 AM 8.14 46.652 0.24015 7.525 33.705 8.139999
11/6/2021 4:32:59 AM 8.1075 46.5935 0.24015 7.525 34.02 8.107498
11/6/2021 4:47:59 AM 8.0875 46.5575 0.2405 7.525 33.81 8.087502
11/6/2021 5:02:59 AM 8.0725 46.5305 0.2405 7.525 33.74001 8.072502
11/6/2021 5:17:59 AM 8.055 46.499 0.24045 7.5243 33.77499 8.055
11/6/2021 5:32:59 AM 8.035 46.463 0.2408001 7.5243 33.985 8.035004
11/6/2021 5:47:59 AM 8 46.4 0.2412 7.525 34.09 8
11/6/2021 6:02:59 AM 8.0025 46.4045 0.2412 7.525 33.845 8.002502
11/6/2021 6:17:59 AM 7.985 46.373 0.2419 7.525 32.94 7.985001
11/6/2021 6:32:59 AM 7.9675 46.3415 0.24255 7.525 32.425 7.967499
11/6/2021 6:47:59 AM 7.9325 46.2785 0.2429 7.525 32.11 7.932503
11/6/2021 7:03:00 AM 7.915 46.247 0.2436499 7.525 32.185 7.915001
11/6/2021 7:17:59 AM 7.8975 46.2155 0.2439501 7.5201 32.32001 7.897499
11/6/2021 7:33:00 AM 7.8775 46.1795 0.2439501 7.5236 31.995 7.877502
11/6/2021 7:47:59 AM 7.8425 46.1165 0.2443001 7.5243 32.55 7.842499
11/6/2021 8:02:59 AM 7.825 46.085 0.2446499 7.5243 31.955 7.824997
11/6/2021 8:17:59 AM 7.8075 46.0535 0.2453501 7.5243 31.37 7.807503
11/6/2021 8:32:59 AM 7.7925 46.0265 0.2457 7.5292 31.61501 7.792503
11/6/2021 8:47:59 AM 7.775 45.995 0.2460499 7.5341 31.405 7.775002
11/6/2021 9:02:59 AM 7.755 45.959 0.2464 7.5299 31.545 7.754997
11/6/2021 9:17:59 AM 7.74 45.932 0.2467501 7.5334 30.745 7.739998
11/6/2021 9:32:59 AM 7.7225 45.9005 0.2471 7.5341 30.855 7.722504
11/6/2021 9:47:59 AM 7.705 45.869 0.2474499 7.5292 30.67999 7.705002
11/6/2021 10:02:59 AM 7.6875 45.8375 0.2474 7.5341 30.22501 7.6875
11/6/2021 10:17:59 AM 7.6875 45.8375 0.2474499 7.5334 30.33501 7.6875
11/6/2021 10:48:00 AM 7.6875 45.8375 0.2478001 7.5348 29.745 7.6875
11/6/2021 11:02:59 AM 7.72 45.896 0.2474 7.5397 29.36 7.720001
11/6/2021 11:18:00 AM 7.79 46.022 0.2474 7.5383 28.98 7.790001
11/6/2021 11:32:59 AM 7.845 46.121 0.2470499 7.5383 29.045 7.845001
11/6/2021 11:47:59 AM 7.895 46.211 0.2470499 7.5383 28.73 7.894997
11/6/2021 12:02:59 PM 7.9275 46.2695 0.2470499 7.5397 28.315 7.927498
11/6/2021 12:17:59 PM 7.9825 46.3685 0.2470499 7.5404 28.22 7.982498
11/6/2021 12:32:59 PM 8.0525 46.4945 0.2470499 7.5383 27.56 8.052498
11/6/2021 12:47:59 PM 8.105 46.589 0.2466999 7.5439 27.7 8.105003
11/6/2021 1:02:59 PM 8.1575 46.6835 0.2466999 7.5432 27.8 8.157501
11/6/2021 1:17:59 PM 8.19 46.742 0.2466999 7.5446 27.55499 8.190002
11/6/2021 1:32:59 PM 8.2425 46.8365 0.2470499 7.5432 27.49001 8.2425
11/6/2021 1:47:59 PM 8.2775 46.8995 0.2470499 7.5488 27.175 8.277496
11/6/2021 2:02:59 PM 8.3125 46.9625 0.2470499 7.5495 27.175 8.3125
11/6/2021 2:18:00 PM 8.3475 47.0255 0.2470499 7.5481 26.97 8.347504
11/6/2021 2:33:00 PM 8.38 47.084 0.247 7.5488 26.795 8.379997
11/6/2021 2:48:00 PM 8.415 47.147 0.247 7.5481 26.86501 8.415001
11/6/2021 3:03:00 PM 8.4325 47.1785 0.2470499 7.5481 26.935 8.432503
11/6/2021 3:18:00 PM 8.4525 47.2145 0.247 7.552999 26.55 8.452499
11/6/2021 3:33:00 PM 8.4675 47.2415 0.2473501 7.552999 26.485 8.467499
11/6/2021 3:48:00 PM 8.49 47.282 0.2474 7.553699 26.44501 8.489998
11/6/2021 4:03:00 PM 8.4875 47.2775 0.2474 7.552999 26.62 8.487503
11/6/2021 4:18:00 PM 8.485 47.273 0.2473501 7.553699 26.55499 8.485001
11/6/2021 4:33:00 PM 8.4875 47.2775 0.2476999 7.557899 26.52 8.487503
11/6/2021 4:48:00 PM 8.485 47.273 0.2476999 7.553699 26.515 8.485001
11/6/2021 5:02:59 PM 8.47 47.246 0.2476999 7.558599 26.45 8.470001
11/6/2021 5:18:00 PM 8.45 47.21 0.2480499 7.557899 26.345 8.449997
11/6/2021 5:32:59 PM 8.4525 47.2145 0.2481 7.558599 26.27499 8.452499
11/6/2021 5:48:00 PM 8.4325 47.1785 0.2480499 7.557899 26.27499 8.432503
11/6/2021 6:03:00 PM 8.3975 47.1155 0.2480499 7.558599 26.24001 8.397499
11/6/2021 6:17:59 PM 8.3825 47.0885 0.2484 7.557899 26.38 8.3825
11/6/2021 6:32:59 PM 8.345 47.021 0.2487501 7.557899 26.10001 8.345001
11/6/2021 6:48:00 PM 8.3125 46.9625 0.2491 7.558599 26.14 8.3125
11/6/2021 7:02:59 PM 8.295 46.931 0.2494 7.557199 26.24001 8.294998
11/6/2021 7:17:59 PM 8.26 46.868 0.24945 7.558599 26.13499 8.260002
11/6/2021 7:33:00 PM 8.225 46.805 0.2498001 7.558599 25.75 8.2425
11/6/2021 7:47:59 PM 8.2075 46.7735 0.2497501 7.558599 25.78999 8.207497
11/6/2021 8:03:00 PM 8.19 46.742 0.25015 7.558599 25.685 8.190002
11/6/2021 8:18:00 PM 8.1725 46.7105 0.25015 7.559299 25.575 8.172501
11/6/2021 8:32:59 PM 8.1375 46.6475 0.2501 7.557899 25.44501 8.137497
11/6/2021 8:47:59 PM 8.1375 46.6475 0.25045 7.558599 25.545 8.137497
11/6/2021 9:02:59 PM 8.1225 46.6205 0.2505 7.553699 25.3 8.122498
11/6/2021 9:17:59 PM 8.105 46.589 0.2505 7.554399 25.265 8.105003
11/6/2021 9:32:59 PM 8.085 46.553 0.25085 7.553699 25.41 8.084999
11/6/2021 9:47:59 PM 8.0875 46.5575 0.2512 7.558599 25.47501 8.087502
11/6/2021 10:02:59 PM 8.07 46.526 0.25115 7.558599 25.44 8.07
11/6/2021 10:17:59 PM 8.0525 46.4945 0.2516 7.559299 25.06 8.052498
11/6/2021 10:32:59 PM 8.035 46.463 0.2515 7.559299 24.99001 8.035004
11/6/2021 10:47:59 PM 8.0175 46.4315 0.25155 7.558599 25.24001 8.017502
11/6/2021 11:02:59 PM 8 46.4 0.25155 7.558599 24.825 8
11/6/2021 11:17:59 PM 7.9825 46.3685 0.25155 7.559299 24.645 7.982498
11/6/2021 11:32:59 PM 7.9675 46.3415 0.2519 7.559299 25.065 7.967499
11/7/2021 12:03:00 AM 7.9475 46.3055 0.25185 7.558599 24.575 7.947502
11/7/2021 12:17:59 AM 7.9325 46.2785 0.2522499 7.558599 24.47501 7.932503
11/7/2021 12:33:00 AM 7.915 46.247 0.2521999 7.558599 24.67999 7.915001
11/7/2021 12:48:00 AM 7.9125 46.2425 0.2521999 7.559299 24.645 7.912498
11/7/2021 1:02:59 AM 7.8625 46.1525 0.2519 7.559299 24.33501 7.862503
11/7/2021 1:03:00 AM 7.895 46.211 0.25185 7.558599 24.715 7.894997
11/7/2021 1:18:00 AM 7.8975 46.2155 0.2519 7.558599 24.605 7.897499
11/7/2021 1:33:00 AM 7.88 46.184 0.25185 7.558599 24.50999 7.879997
11/7/2021 1:48:00 AM 7.88 46.184 0.2519 7.559299 24.75 7.879997
11/7/2021 2:18:00 AM 7.7775 45.9995 0.2529 7.559299 24.435 7.777496
11/7/2021 2:32:59 AM 7.76 45.968 0.2529 7.559299 24.645 7.760002
11/7/2021 2:48:00 AM 7.7225 45.9005 0.2529 7.557899 24.42999 7.722504
11/7/2021 3:02:59 AM 7.7025 45.8645 0.2529501 7.553699 24.395 7.702499
11/7/2021 3:17:59 AM 7.685 45.833 0.2529501 7.557899 24.395 7.684998
11/7/2021 3:32:59 AM 7.67 45.806 0.2529501 7.554399 24.505 7.669998
11/7/2021 3:47:59 AM 7.635 45.743 0.2533 7.557899 24.395 7.635002
11/7/2021 4:02:59 AM 7.5975 45.6755 0.2532499 7.557899 24.08501 7.597504
11/7/2021 4:17:59 AM 7.6 45.68 0.2532499 7.553699 24.395 7.599998
11/7/2021 4:33:00 AM 7.5675 45.6215 0.2536499 7.553699 24.185 7.567497
11/7/2021 5:02:59 AM 7.51 45.518 0.2536 7.553699 24.00999 7.510002
11/7/2021 5:17:59 AM 7.495 45.491 0.2536499 7.552999 24.14999 7.495003
11/7/2021 5:32:59 AM 7.4775 45.4595 0.2536499 7.553699 23.49001 7.477501
11/7/2021 5:47:59 AM 7.4625 45.4325 0.2536 7.554399 23.59 7.462502
11/7/2021 6:02:59 AM 7.4275 45.3695 0.254 7.554399 23.7 7.427498
11/7/2021 6:17:59 AM 7.41 45.338 0.2543501 7.553699 23.35001 7.410004
11/7/2021 6:32:59 AM 7.375 45.275 0.2546499 7.553699 23.66499 7.375
11/7/2021 6:47:59 AM 7.375 45.275 0.2550499 7.559299 23.39 7.375
11/7/2021 7:03:00 AM 7.34 45.212 0.2554 7.558599 23.11501 7.339996
11/7/2021 7:17:59 AM 7.325 45.185 0.2553501 7.553699 23.17999 7.324997
11/7/2021 7:32:59 AM 7.305 45.149 0.2557 7.559299 23.495 7.305
11/7/2021 7:47:59 AM 7.305 45.149 0.2557501 7.559299 23 7.305
11/7/2021 8:02:59 AM 7.305 45.149 0.2557 7.558599 23.075 7.305
11/7/2021 8:17:59 AM 7.305 45.149 0.2553501 7.557899 22.73 7.322502
11/7/2021 8:32:59 AM 7.3575 45.2435 0.2553501 7.558599 23.005 7.357498
11/7/2021 8:47:59 AM 7.39 45.302 0.255 7.558599 22.69 7.389999
11/7/2021 9:03:00 AM 7.425 45.365 0.255 7.562799 22.625 7.425003
11/7/2021 9:18:00 AM 7.4575 45.4235 0.255 7.562799 22.45 7.457497
11/7/2021 9:33:00 AM 7.4925 45.4865 0.2546499 7.557899 22.41 7.4925
11/7/2021 9:47:59 AM 7.585 45.653 0.2543001 7.564199 22.17999 7.584999
11/7/2021 10:02:59 AM 7.5825 45.6485 0.2543001 7.563499 21.935 7.582497
11/7/2021 10:17:59 AM 7.6025 45.6845 0.2543001 7.567699 21.935 7.602501
11/7/2021 10:32:59 AM 7.6375 45.7475 0.2543001 7.568399 21.83 7.637497
11/7/2021 10:47:59 AM 7.67 45.806 0.2539501 7.568399 22 7.669998
11/7/2021 11:02:59 AM 7.705 45.869 0.2539 7.568399 21.58501 7.705002
11/7/2021 11:17:59 AM 7.7575 45.9635 0.2539 7.567699 21.31 7.7575
11/7/2021 11:32:59 AM 7.79 46.022 0.2542499 7.567699 21.375 7.790001
11/7/2021 11:47:59 AM 7.8425 46.1165 0.2543001 7.573299 21.17 7.842499
11/7/2021 12:02:59 PM 7.895 46.211 0.2542499 7.573299 21.10001 7.894997
11/7/2021 12:17:59 PM 7.9275 46.2695 0.2542499 7.573299 20.82001 7.927498
11/7/2021 12:32:59 PM 7.9475 46.3055 0.2546 7.573299 20.47501 7.947502
11/7/2021 12:47:59 PM 7.9975 46.3955 0.2546 7.577499 19.92 7.997498
11/7/2021 1:02:59 PM 8.0325 46.4585 0.2546 7.578199 19.85001 8.032501
11/7/2021 1:17:59 PM 8.07 46.526 0.2546 7.576799 19.745 8.07
11/7/2021 1:32:59 PM 8.1025 46.5845 0.2549501 7.582399 19.675 8.102501
11/7/2021 1:47:59 PM 8.1375 46.6475 0.2549501 7.577499 19.71001 8.137497
11/7/2021 2:02:59 PM 8.1725 46.7105 0.2553 7.577499 19.405 8.172501
11/7/2021 2:17:59 PM 8.2075 46.7735 0.2553501 7.583099 19.36501 8.207497
11/7/2021 2:47:59 PM 8.26 46.868 0.2556499 7.582399 19.88 8.260002
11/7/2021 3:02:59 PM 8.295 46.931 0.2556499 7.587299 19.53999 8.294998
11/7/2021 3:17:59 PM 8.3275 46.9895 0.2556499 7.587299 19.33 8.327499
11/7/2021 3:32:59 PM 8.3275 46.9895 0.2556499 7.583099 19.71001 8.327499
11/7/2021 3:47:59 PM 8.105 46.589 0.2573501 7.587299 19.47 8.105003
11/7/2021 4:02:59 PM 7.9475 46.3055 0.2591 7.587299 19.61 7.947502
11/7/2021 4:17:59 PM 7.81 46.058 0.26015 7.587299 19.64 7.809998
11/7/2021 4:32:59 PM 7.705 45.869 0.2616 7.587999 19.535 7.705002
11/7/2021 4:47:59 PM 7.6 45.68 0.2623 7.587999 19.535 7.599998
11/7/2021 5:02:59 PM 7.81 46.058 0.2609501 7.588699 19.605 7.809998
11/7/2021 5:17:59 PM 7.945 46.301 0.25985 7.587999 19.64 7.945
11/7/2021 5:32:59 PM 7.9975 46.3955 0.25915 7.587299 19.71001 7.997498
11/7/2021 5:47:59 PM 8.0325 46.4585 0.25915 7.587999 19.60001 8.032501
11/7/2021 6:03:00 PM 8.0325 46.4585 0.2591 7.586599 19.355 8.032501
11/7/2021 6:18:00 PM 8.0325 46.4585 0.25915 7.588699 19.39999 8.032501
11/7/2021 6:33:00 PM 8.0375 46.4675 0.25915 7.583099 19.535 8.037498
11/7/2021 6:47:59 PM 8.035 46.463 0.2591 7.587299 19.53999 8.035004
11/7/2021 7:18:00 PM 8.02 46.436 0.25915 7.587999 19.5 8.019997
11/7/2021 7:32:59 PM 8 46.4 0.25945 7.583099 19.47 8
11/7/2021 7:47:59 PM 7.9825 46.3685 0.2591999 7.583799 19.47 7.982498
11/7/2021 8:02:59 PM 7.9825 46.3685 0.25945 7.583799 19.71001 7.982498
11/7/2021 8:17:59 PM 7.965 46.337 0.2595 7.583099 19.78 7.964996
11/7/2021 8:32:59 PM 7.965 46.337 0.25945 7.583099 19.99001 7.964996
11/7/2021 8:47:59 PM 7.965 46.337 0.2598 7.583099 19.67999 7.964996
11/7/2021 9:02:59 PM 7.9475 46.3055 0.2598 7.582399 19.67999 7.947502
11/7/2021 9:17:59 PM 7.95 46.31 0.26015 7.582399 19.53999 7.949997
11/7/2021 9:32:59 PM 7.93 46.274 0.2605501 7.583799 19.75 7.93
11/7/2021 9:47:59 PM 7.9325 46.2785 0.2605501 7.577499 19.745 7.932503
11/7/2021 10:02:59 PM 7.9325 46.2785 0.26085 7.583099 19.545 7.932503
11/7/2021 10:17:59 PM 7.9125 46.2425 0.26085 7.583099 19.645 7.912498
11/7/2021 10:32:59 PM 7.915 46.247 0.26085 7.578199 19.61 7.915001
11/7/2021 10:47:59 PM 7.8975 46.2155 0.2609 7.583099 19.855 7.897499
11/7/2021 11:02:59 PM 7.895 46.211 0.2612 7.578899 19.67999 7.894997
11/7/2021 11:17:59 PM 7.8975 46.2155 0.2612 7.577499 20.02499 7.897499
11/7/2021 11:32:59 PM 7.8775 46.1795 0.2612499 7.578899 19.995 7.877502
11/8/2021 12:02:59 AM 7.8625 46.1525 0.26155 7.578899 20.095 7.862503
11/8/2021 12:17:59 AM 7.86 46.148 0.26155 7.578899 19.88499 7.860001
11/8/2021 12:32:59 AM 7.8625 46.1525 0.26155 7.578899 19.67999 7.862503
11/8/2021 12:47:59 AM 7.845 46.121 0.26155 7.578899 19.85001 7.845001
11/8/2021 1:02:59 AM 7.845 46.121 0.2612 7.578899 19.61 7.845001
11/8/2021 1:17:59 AM 7.845 46.121 0.2616 7.578899 19.85001 7.845001
11/8/2021 1:32:59 AM 7.8275 46.0895 0.26155 7.578199 20.095 7.827499
11/8/2021 1:47:59 AM 7.8275 46.0895 0.26155 7.578899 14.995 7.827499
11/8/2021 2:02:59 AM 7.8075 46.0535 0.2619 7.583799 14.82001 7.809998
11/8/2021 2:17:59 AM 7.7925 46.0265 0.2619 7.583099 15.10001 7.792503
11/8/2021 2:32:59 AM 7.7925 46.0265 0.2623 7.584499 14.96001 7.792503
11/8/2021 2:48:00 AM 7.775 45.995 0.2626 7.583799 14.925 7.775002
11/8/2021 3:03:00 AM 7.7775 45.9995 0.2626499 7.583799 15.03 7.777496
11/8/2021 3:18:00 AM 7.76 45.968 0.2626 7.578199 14.82001 7.760002
11/8/2021 3:48:00 AM 7.74 45.932 0.2626 7.583099 14.71001 7.739998
11/8/2021 4:03:00 AM 7.7225 45.9005 0.2626 7.578899 15.03 7.722504
11/8/2021 4:18:00 AM 7.725 45.905 0.2626 7.583099 15.27 7.724998
11/8/2021 4:33:00 AM 7.705 45.869 0.2626 7.579599 15.34 7.705002
11/8/2021 4:47:59 AM 7.69 45.842 0.2626499 7.578899 14.855 7.690002
11/8/2021 5:02:59 AM 7.6725 45.8105 0.2629501 7.578899 15.205 7.672501
11/8/2021 5:17:59 AM 7.655 45.779 0.2629501 7.578899 14.855 7.654999
11/8/2021 5:32:59 AM 7.6325 45.7385 0.2629501 7.576799 15.125 7.6325
11/8/2021 5:47:59 AM 7.635 45.743 0.2629501 7.577499 14.74 7.635002
11/8/2021 6:02:59 AM 7.615 45.707 0.263 7.578199 15.02 7.614998
11/8/2021 6:17:59 AM 7.5975 45.6755 0.263 7.578199 14.42999 7.597504
11/8/2021 6:32:59 AM 7.5825 45.6485 0.2629501 7.577499 14.81 7.582497
11/8/2021 6:47:59 AM 7.565 45.617 0.2633001 7.577499 14.64 7.565002
11/8/2021 7:02:59 AM 7.5475 45.5855 0.2633501 7.578199 14.71001 7.547501
11/8/2021 7:17:59 AM 7.545 45.581 0.2636999 7.578199 14.81 7.544998
11/8/2021 7:33:00 AM 7.53 45.554 0.264 7.578199 14.74 7.529999
11/8/2021 7:47:59 AM 7.5475 45.5855 0.2640499 7.578199 14.5 7.547501
11/8/2021 8:02:59 AM 7.55 45.59 0.2644 7.577499 14.77499 7.550003
11/8/2021 8:17:59 AM 7.565 45.617 0.2643501 7.576799 14.28999 7.565002
11/8/2021 8:32:59 AM 7.6175 45.7115 0.264 7.577499 14.57001 7.6175
11/8/2021 8:47:59 AM 7.67 45.806 0.264 7.576799 14.39 7.669998
11/8/2021 9:02:59 AM 7.7025 45.8645 0.264 7.581699 14.64 7.702499
11/8/2021 9:17:59 AM 7.74 45.932 0.2639501 7.582399 14.125 7.739998
11/8/2021 9:32:59 AM 7.7775 45.9995 0.264 7.583099 14.33501 7.777496
11/8/2021 9:47:59 AM 7.93 46.274 0.2633001 7.583799 14.19501 7.93
11/8/2021 10:02:59 AM 7.88 46.184 0.2639501 7.587299 13.95 7.879997
11/8/2021 10:17:59 AM 7.8775 46.1795 0.2646499 7.587999 14.155 7.877502
11/8/2021 10:32:59 AM 7.915 46.247 0.2646 7.587299 14.05 7.915001
11/8/2021 10:47:59 AM 7.9475 46.3055 0.2647 7.587999 13.95 7.947502
11/8/2021 11:03:00 AM 7.9825 46.3685 0.265 7.592899 13.845 7.982498
11/8/2021 11:18:00 AM 8.0325 46.4585 0.265 7.592899 13.635 8.032501
11/8/2021 11:33:00 AM 8.07 46.526 0.2649501 7.592199 13.71001 8.07
11/8/2021 11:48:00 AM 8.12 46.616 0.265 7.597799 13.745 8.120003
11/8/2021 12:03:00 PM 8.175 46.715 0.2653501 7.597099 13.84 8.175003
11/8/2021 12:18:00 PM 8.19 46.742 0.2657 7.597099 13.60001 8.190002
11/8/2021 12:33:00 PM 8 46.4 0.2681 7.597099 13.81 8
11/8/2021 1:03:00 PM 7.95 46.31 0.26985 7.602699 13.815 7.949997
11/8/2021 1:18:00 PM 7.9825 46.3685 0.2698 7.607599 14.125 7.985001
11/8/2021 1:33:00 PM 8.02 46.436 0.2702 7.608299 13.985 8.019997
11/8/2021 1:47:59 PM 8.0525 46.4945 0.2702 7.607599 13.91499 8.052498
11/8/2021 2:02:59 PM 8.105 46.589 0.2702499 7.602699 14.015 8.105003
11/8/2021 2:17:59 PM 8.1725 46.7105 0.2702 7.612499 14.16 8.172501
11/8/2021 2:32:59 PM 8.2275 46.8095 0.2702499 7.612499 14.265 8.227501
11/8/2021 2:47:59 PM 8.26 46.868 0.2702499 7.612499 14.23 8.260002
11/8/2021 3:02:59 PM 8.2775 46.8995 0.2702 7.612499 14.405 8.277496
11/8/2021 3:17:59 PM 8.2975 46.9355 0.2706 7.612499 14.39999 8.297501
11/8/2021 3:32:59 PM 8.33 46.994 0.2702 7.617399 14.61 8.330002
11/8/2021 3:47:59 PM 8.35 47.03 0.27055 7.618099 14.575 8.349998
11/8/2021 4:02:59 PM 8.3325 46.9985 0.2705 7.616699 14.855 8.332497
11/8/2021 4:17:59 PM 8.28 46.904 0.2712499 7.616699 14.61 8.279999
11/8/2021 4:32:59 PM 8.225 46.805 0.2716 7.617399 14.72 8.224998
11/8/2021 4:47:59 PM 8.1375 46.6475 0.2726499 7.615999 14.71001 8.137497
11/8/2021 5:18:00 PM 7.9325 46.2785 0.2748001 7.617399 14.845 7.932503
11/8/2021 5:32:59 PM 7.845 46.121 0.2755 7.613199 14.845 7.845001
11/8/2021 5:47:59 PM 7.76 45.968 0.2765501 7.613199 14.925 7.760002
11/8/2021 6:02:59 PM 7.95 46.31 0.2748001 7.613199 14.85001 7.949997
11/8/2021 6:17:59 PM 8.14 46.652 0.2733501 7.612499 14.985 8.139999
11/8/2021 6:32:59 PM 8.225 46.805 0.2723 7.612499 14.985 8.224998
11/8/2021 6:47:59 PM 8.2775 46.8995 0.2719501 7.606899 14.91499 8.277496
11/8/2021 7:02:59 PM 8.31 46.958 0.2719501 7.606899 14.95 8.309998
11/8/2021 7:17:59 PM 8.31 46.958 0.2716 7.607599 14.985 8.309998
11/8/2021 7:32:59 PM 8.325 46.985 0.2715501 7.606199 15.19501 8.324997
11/8/2021 7:47:59 PM 8.3275 46.9895 0.2716 7.606199 15.19501 8.327499
11/8/2021 8:02:59 PM 8.325 46.985 0.2719 7.601299 14.91499 8.324997
11/8/2021 8:17:59 PM 8.3475 47.0255 0.2719501 7.602699 15.06 8.347504
11/8/2021 8:32:59 PM 8.365 47.057 0.2715501 7.602699 15.16499 8.364998
11/8/2021 8:47:59 PM 8.365 47.057 0.2715501 7.601999 15.06 8.364998
11/8/2021 9:02:59 PM 8.3625 47.0525 0.2719 7.601999 15.34 8.362503
11/8/2021 9:17:59 PM 8.3825 47.0885 0.2716 7.601999 15.375 8.3825
11/8/2021 9:33:00 PM 8.365 47.057 0.2719 7.601999 15.405 8.364998
11/8/2021 9:48:00 PM 8.3825 47.0885 0.2719 7.602699 15.265 8.3825
11/8/2021 10:02:59 PM 8.38 47.084 0.2722499 7.601999 15.375 8.3825
11/8/2021 10:17:59 PM 8.3825 47.0885 0.2726 7.601999 15.64999 8.3825
11/8/2021 10:32:59 PM 8.3825 47.0885 0.2726 7.602699 15.13 8.3825
11/8/2021 10:47:59 PM 8.38 47.084 0.2726 7.602699 15.23 8.379997
11/8/2021 11:02:59 PM 8.3625 47.0525 0.2729501 7.601999 15.515 8.362503
11/8/2021 11:17:59 PM 8.365 47.057 0.273 7.601999 15.30499 8.364998
11/8/2021 11:32:59 PM 8.365 47.057 0.2733001 7.601999 15.685 8.364998
11/9/2021 12:02:59 AM 8.3475 47.0255 0.274 7.602699 15.825 8.347504
11/9/2021 12:17:59 AM 8.365 47.057 0.2736499 7.601999 16.31 8.364998
11/9/2021 12:32:59 AM 8.365 47.057 0.274 7.602699 17.17999 8.364998
11/9/2021 12:47:59 AM 8.3625 47.0525 0.274 7.602699 17.215 8.362503
11/9/2021 1:02:59 AM 8.345 47.021 0.2743 7.601999 17.28 8.345001
11/9/2021 1:17:59 AM 8.345 47.021 0.2743501 7.601999 17.245 8.345001
11/9/2021 1:32:59 AM 8.3475 47.0255 0.2747 7.602699 16.765 8.347504
11/9/2021 1:47:59 AM 8.3475 47.0255 0.2746499 7.602699 16.87 8.347504
11/9/2021 2:17:59 AM 8.435 47.183 0.2743501 7.602699 49.88 8.434998
11/9/2021 2:32:59 AM 8.4675 47.2415 0.2743 7.617399 39.395 8.467499
11/9/2021 2:47:59 AM 8.1725 46.7105 0.2771 7.607599 33.11501 8.172501
11/9/2021 3:02:59 AM 7.6175 45.7115 0.2823501 7.601999 26.96001 7.6175
11/9/2021 3:17:59 AM 7.775 45.995 0.2813501 7.597799 20.72 7.775002
11/9/2021 3:32:59 AM 8 46.4 0.27955 7.597099 18.7 8
11/9/2021 3:47:59 AM 8.12 46.616 0.27885 7.597099 17.83 8.120003
11/9/2021 4:02:59 AM 8.19 46.742 0.2785501 7.597099 17.41499 8.190002
11/9/2021 4:17:59 AM 8.225 46.805 0.2785501 7.592199 17.14 8.224998
11/9/2021 4:32:59 AM 8.225 46.805 0.27815 7.596399 17 8.224998
11/9/2021 4:47:59 AM 8.2225 46.8005 0.27815 7.591499 17.10001 8.222504
11/9/2021 5:02:59 AM 8.24 46.832 0.2785501 7.592199 17.07001 8.239998
11/9/2021 5:17:59 AM 8.24 46.832 0.2785 7.591499 16.92999 8.239998
11/9/2021 5:32:59 AM 8.245 46.841 0.2785 7.592899 17.11 8.245003
11/9/2021 5:47:59 AM 8.2275 46.8095 0.2785 7.593599 16.89999 8.227501
11/9/2021 6:02:59 AM 8.225 46.805 0.27845 7.592899 17.045 8.224998
11/9/2021 6:17:59 AM 8.2075 46.7735 0.27845 7.592899 16.935 8.207497
11/9/2021 6:32:59 AM 8.2075 46.7735 0.2785 7.592199 17.08 8.207497
11/9/2021 6:48:00 AM 8.19 46.742 0.2785 7.592199 16.935 8.190002
11/9/2021 7:02:59 AM 8.1725 46.7105 0.2785501 7.592899 16.73 8.172501
11/9/2021 7:18:00 AM 8.1725 46.7105 0.27845 7.596399 16.8 8.172501
11/9/2021 7:32:59 AM 8.175 46.715 0.2785 7.592899 16.75999 8.175003
11/9/2021 7:47:59 AM 8.1725 46.7105 0.27885 7.592899 16.66 8.172501
11/9/2021 8:03:00 AM 8.175 46.715 0.27885 7.592199 16.38 8.175003
11/9/2021 8:17:59 AM 8.2075 46.7735 0.2785 7.592899 16.38 8.207497
11/9/2021 8:32:59 AM 8.2425 46.8365 0.2785 7.592899 16.52 8.2425
11/9/2021 8:47:59 AM 8.28 46.904 0.27815 7.596399 16.52 8.279999
11/9/2021 9:02:59 AM 8.3125 46.9625 0.2777501 7.601999 16.2 8.3125
11/9/2021 9:17:59 AM 8.345 47.021 0.27745 7.601999 16.45 8.345001
11/9/2021 9:33:00 AM 8.035 46.463 0.2802499 7.606899 16.21001 8.035004
11/9/2021 9:47:59 AM 7.8775 46.1795 0.2819501 7.606199 16.13499 7.877502
11/9/2021 10:03:00 AM 7.705 45.869 0.2837501 7.607599 16.16499 7.705002
11/9/2021 10:17:59 AM 7.67 45.806 0.2845 7.607599 16.27499 7.669998
11/9/2021 10:32:59 AM 7.7075 45.8735 0.2845 7.608299 15.96001 7.707497
11/9/2021 10:47:59 AM 7.76 45.968 0.2841 7.612499 15.99 7.760002
11/9/2021 11:02:59 AM 7.86 46.148 0.2834499 7.612499 15.815 7.860001
11/9/2021 11:17:59 AM 7.95 46.31 0.2826999 7.612499 15.995 7.949997
11/9/2021 11:32:59 AM 8.0525 46.4945 0.2824 7.612499 16.06 8.052498
11/9/2021 11:47:59 AM 8.19 46.742 0.2817 7.611799 15.89 8.190002
11/9/2021 12:02:59 PM 8.365 47.057 0.2802499 7.611799 15.75 8.364998
11/9/2021 12:17:59 PM 8.415 47.147 0.2802499 7.611799 15.785 8.415001
11/9/2021 12:32:59 PM 8.4675 47.2415 0.2803001 7.616699 15.715 8.467499
11/9/2021 12:47:59 PM 8.555 47.399 0.2802499 7.616699 15.53999 8.555
11/9/2021 1:02:59 PM 8.605 47.489 0.2802499 7.622299 15.47 8.605003
11/9/2021 1:17:59 PM 8.6375 47.5475 0.2806 7.621599 15.61 8.637497
11/9/2021 1:32:59 PM 8.66 47.588 0.2809501 7.621599 15.505 8.660004
11/9/2021 1:47:59 PM 8.69 47.642 0.2813 7.626499 15.575 8.690002
11/9/2021 2:03:00 PM 8.7075 47.6735 0.2816499 7.626499 15.715 8.707497
11/9/2021 2:18:00 PM 8.7075 47.6735 0.282 7.631399 15.53999 8.707497
11/9/2021 2:32:59 PM 8.7425 47.7365 0.2819501 7.630699 15.645 8.7425
11/9/2021 2:48:00 PM 8.7775 47.7995 0.2823001 7.630699 15.645 8.777496
11/9/2021 3:03:00 PM 8.795 47.831 0.2826999 7.631399 15.715 8.794998
11/9/2021 3:18:00 PM 8.795 47.831 0.2826999 7.631399 15.715 8.794998
11/9/2021 3:33:00 PM 8.7775 47.7995 0.283 7.630699 15.47 8.777496
11/9/2021 3:48:00 PM 8.795 47.831 0.2833501 7.636299 15.67999 8.794998
11/9/2021 4:03:00 PM 8.78 47.804 0.2833501 7.635599 15.715 8.779999
11/9/2021 4:18:00 PM 8.745 47.741 0.2837501 7.636299 15.96001 8.745003
11/9/2021 4:33:00 PM 8.73 47.714 0.2841 7.635599 15.645 8.730003
11/9/2021 4:47:59 PM 8.6925 47.6465 0.2844 7.636299 15.47 8.692497
11/9/2021 5:02:59 PM 8.695 47.651 0.2844 7.636299 15.64 8.695
11/9/2021 5:17:59 PM 8.675 47.615 0.2847501 7.636299 15.645 8.675003
11/9/2021 5:33:00 PM 8.6575 47.5835 0.28515 7.636999 15.505 8.657501
11/9/2021 5:47:59 PM 8.6425 47.5565 0.28545 7.636999 15.575 8.642502
11/9/2021 6:02:59 PM 8.625 47.525 0.2862 7.632099 15.435 8.625
11/9/2021 6:17:59 PM 8.59 47.462 0.2865 7.636299 15.61 8.589996
11/9/2021 6:33:00 PM 8.59 47.462 0.28685 7.632099 15.645 8.589996
11/9/2021 6:47:59 PM 8.6075 47.4935 0.28685 7.632099 15.615 8.607498
11/9/2021 7:02:59 PM 8.59 47.462 0.2869 7.632799 15.51 8.589996
11/9/2021 7:17:59 PM 8.575 47.435 0.28685 7.632099 15.685 8.574997
11/9/2021 7:32:59 PM 8.555 47.399 0.2872499 7.632799 15.39999 8.555
11/9/2021 8:03:00 PM 8.5225 47.3405 0.2875501 7.632099 15.47501 8.522499
11/9/2021 8:17:59 PM 8.505 47.309 0.2876 7.627899 15.61 8.504997
11/9/2021 8:32:59 PM 8.4875 47.2775 0.2879501 7.626499 15.545 8.487503
11/9/2021 8:47:59 PM 8.4675 47.2415 0.2883 7.627899 15.615 8.467499
11/9/2021 9:02:59 PM 8.4525 47.2145 0.2882499 7.627199 15.58 8.452499
11/9/2021 9:17:59 PM 8.435 47.183 0.2886499 7.622999 15.715 8.434998
11/9/2021 9:32:59 PM 8.4 47.12 0.2886499 7.622999 15.82001 8.400002
11/9/2021 9:47:59 PM 8.3825 47.0885 0.289 7.622299 15.685 8.3825
11/9/2021 10:02:59 PM 8.3675 47.0615 0.289 7.622999 15.64999 8.3675
11/9/2021 10:17:59 PM 8.3675 47.0615 0.2894 7.623699 15.615 8.3675
11/9/2021 10:32:59 PM 8.3325 46.9985 0.2893001 7.622999 15.575 8.332497
11/9/2021 10:47:59 PM 8.315 46.967 0.2896999 7.618799 15.615 8.315002
11/9/2021 11:02:59 PM 8.2975 46.9355 0.2900499 7.618099 15.755 8.297501
11/9/2021 11:17:59 PM 8.2825 46.9085 0.2904 7.618099 15.67999 8.282501
11/9/2021 11:32:59 PM 8.28 46.904 0.2907501 7.618799 15.78999 8.279999
11/10/2021 12:02:59 AM 8.28 46.904 0.2907 7.618099 15.58 8.279999
11/10/2021 12:17:59 AM 8.385 47.093 0.2900499 7.613899 15.405 8.385002
11/10/2021 12:33:00 AM 8.625 47.525 0.2879 7.613199 15.58 8.625
11/10/2021 12:48:00 AM 8.7825 47.8085 0.28655 7.612499 15.575 8.782501
11/10/2021 1:03:00 AM 8.85 47.93 0.2862 7.611799 15.505 8.849998
11/10/2021 1:18:00 AM 8.9175 48.0515 0.2855 7.611799 15.575 8.917503
11/10/2021 1:33:00 AM 8.97 48.146 0.2851 7.611099 15.39999 8.970001
11/10/2021 1:48:00 AM 9.0225 48.2405 0.2847501 7.611799 15.67999 9.022499
11/10/2021 2:03:00 AM 9.04 48.272 0.2847501 7.611799 15.64 9.040001
11/10/2021 2:17:59 AM 9.075 48.335 0.2843501 7.611799 15.69 9.074997
11/10/2021 2:32:59 AM 9.11 48.398 0.284 7.611799 15.62 9.110001
11/10/2021 2:47:59 AM 9.11 48.398 0.2840499 7.612499 15.645 9.110001
11/10/2021 3:02:59 AM 9.0425 48.2765 0.2846999 7.611799 15.58 9.042503
11/10/2021 3:17:59 AM 8.71 47.678 0.2875501 7.606899 15.37 8.709999
11/10/2021 3:32:59 AM 8.555 47.399 0.2892499 7.611799 15.51 8.555
11/10/2021 3:47:59 AM 8.47 47.246 0.29 7.607599 15.37 8.470001
11/10/2021 4:02:59 AM 8.54 47.372 0.2896499 7.608299 15.58 8.540001
11/10/2021 4:17:59 AM 8.7975 47.8355 0.2875501 7.607599 15.47 8.797501
11/10/2021 4:32:59 AM 8.9375 48.0875 0.28615 7.606899 15.44 8.9375
11/10/2021 4:47:59 AM 9.0225 48.2405 0.28545 7.606199 15.39999 9.022499
11/10/2021 5:02:59 AM 9.075 48.335 0.2850499 7.606199 15.435 9.092499
11/10/2021 5:17:59 AM 9.125 48.425 0.2850499 7.606199 15.33501 9.125
11/10/2021 5:32:59 AM 9.16 48.488 0.2847501 7.606199 15.33 9.160004
11/10/2021 6:02:59 AM 9.2175 48.5915 0.2846999 7.606899 15.47501 9.217499
11/10/2021 6:17:59 AM 9.0075 48.2135 0.2864499 7.607599 15.375 9.0075
11/10/2021 6:32:59 AM 8.7275 47.7095 0.2889 7.606899 15.575 8.727501
11/10/2021 6:47:59 AM 8.6075 47.4935 0.2903 7.608299 15.51 8.607498
11/10/2021 7:02:59 AM 8.5225 47.3405 0.2910499 7.607599 15.405 8.522499
11/10/2021 7:17:59 AM 8.4875 47.2775 0.2914 7.608299 15.58 8.487503
11/10/2021 7:32:59 AM 8.7475 47.7455 0.2893001 7.607599 15.3 8.747498
11/10/2021 7:47:59 AM 8.9375 48.0875 0.2875501 7.573999 12.52 8.9375
11/10/2021 8:02:59 AM 9.0425 48.2765 0.2868001 7.577499 11.965 9.042503
11/10/2021 8:17:59 AM 9.1425 48.4565 0.2861 7.587999 12.065 9.142502
11/10/2021 8:33:00 AM 9.215 48.587 0.2858 7.592899 12.205 9.214996
11/10/2021 8:47:59 AM 9.2975 48.7355 0.2851 7.591499 12.10001 9.297501
11/10/2021 9:02:59 AM 9.37 48.866 0.2851 7.597099 12.28 9.370003
11/10/2021 9:17:59 AM 9.425 48.965 0.2846999 7.597799 12.005 9.425003
11/10/2021 9:33:00 AM 9.3175 48.7715 0.2857501 7.597099 12.105 9.317497
11/10/2021 9:47:59 AM 9.06 48.308 0.2882 7.602699 12.045 9.059998
11/10/2021 10:03:00 AM 8.9525 48.1145 0.2896 7.601999 12.105 8.952499
11/10/2021 10:18:00 AM 9.195 48.551 0.2875 7.606899 12.105 9.195
11/10/2021 10:48:00 AM 9.49 49.082 0.2858 7.611799 12.065 9.489998
11/10/2021 11:02:59 AM 9.58 49.244 0.2858 7.611799 12.17999 9.580002
11/10/2021 11:17:59 AM 9.6475 49.3655 0.2857501 7.617399 12.07001 9.647499
11/10/2021 11:32:59 AM 9.4575 49.0235 0.2875 7.621599 12.175 9.457497
11/10/2021 11:47:59 AM 9.235 48.623 0.2899501 7.622999 12.075 9.235001
11/10/2021 12:02:59 PM 9.1625 48.4925 0.2909501 7.621599 12.07001 9.162498
11/10/2021 12:17:59 PM 9.1775 48.5195 0.2916499 7.626499 12.07001 9.177498
11/10/2021 12:32:59 PM 9.1975 48.5555 0.2916999 7.627199 11.965 9.197502
11/10/2021 12:47:59 PM 9.2325 48.6185 0.2920499 7.632099 12.175 9.232498
11/10/2021 1:02:59 PM 9.2525 48.6545 0.2927501 7.632099 11.89999 9.252502
11/10/2021 1:17:59 PM 9.355 48.839 0.2924 7.637699 12.105 9.355003
11/10/2021 1:32:59 PM 9.6475 49.3655 0.2906499 7.641199 11.92999 9.647499
11/10/2021 1:47:59 PM 9.8375 49.7075 0.2899 7.640499 11.895 9.837502
11/10/2021 2:02:59 PM 9.9425 49.8965 0.2896 7.646099 11.92999 9.942497
11/10/2021 2:17:59 PM 10.0475 50.0855 0.2896 7.646099 12.145 10.0475
11/10/2021 2:32:59 PM 10.1025 50.1845 0.28955 7.650999 11.795 10.1025
11/10/2021 2:47:59 PM 9.995 49.991 0.2906 7.651699 11.795 9.995003
11/10/2021 3:02:59 PM 9.79 49.622 0.2927 7.656601 11.69501 9.790001
11/10/2021 3:17:59 PM 9.7375 49.5275 0.2937501 7.656601 11.765 9.737503
11/10/2021 3:32:59 PM 9.645 49.361 0.2947501 7.660801 11.72501 9.644997
11/10/2021 3:47:59 PM 9.5925 49.2665 0.2954499 7.660101 11.615 9.592499
11/10/2021 4:02:59 PM 9.56 49.208 0.2961999 7.661501 11.58501 9.559998
11/10/2021 4:17:59 PM 9.5275 49.1495 0.29655 7.661501 11.44501 9.527496
11/10/2021 4:32:59 PM 9.46 49.028 0.2972499 7.666401 11.41 9.459999
11/10/2021 4:47:59 PM 9.425 48.965 0.2979 7.662201 12.52 9.425003
11/10/2021 5:02:59 PM 9.39 48.902 0.2979501 7.665701 21.62 9.389999
11/10/2021 5:17:59 PM 9.34 48.812 0.2983001 7.666401 23.91 9.339996
11/10/2021 5:32:59 PM 9.2175 48.5915 0.299 7.666401 21.065 9.217499
11/10/2021 5:47:59 PM 9.44 48.992 0.2969 7.666401 19.255 9.440002
11/10/2021 6:02:59 PM 9.6825 49.4285 0.29485 7.666401 17.905 9.682503
11/10/2021 6:17:59 PM 9.7175 49.4915 0.2948 7.665701 14.745 9.717499
11/10/2021 6:33:00 PM 9.7525 49.5545 0.29445 7.660101 12.935 9.752502
11/10/2021 6:47:59 PM 9.77 49.586 0.29445 7.659401 12.31 9.769997
11/10/2021 7:03:00 PM 9.7525 49.5545 0.2948 7.660101 12 9.752502
11/10/2021 7:18:00 PM 9.75 49.55 0.2947501 7.660101 12 9.75
11/10/2021 7:33:00 PM 9.735 49.523 0.2948 7.660801 12.065 9.735001
11/10/2021 7:47:59 PM 9.7375 49.5275 0.2947501 7.661501 12.005 9.737503
11/10/2021 8:03:00 PM 9.735 49.523 0.2947501 7.660801 11.97 9.735001
11/10/2021 8:17:59 PM 9.72 49.496 0.29515 7.661501 12.11 9.720001
11/10/2021 8:32:59 PM 9.705 49.469 0.2951 7.660101 12.25 9.705002
11/10/2021 8:47:59 PM 9.685 49.433 0.2954499 7.655899 12.28 9.684998
11/10/2021 9:02:59 PM 9.685 49.433 0.2954 7.660101 12.28 9.684998
11/10/2021 9:17:59 PM 9.665 49.397 0.2957501 7.660801 12.39 9.665001
11/10/2021 9:32:59 PM 9.65 49.37 0.2958001 7.661501 12.385 9.650002
11/10/2021 10:03:00 PM 9.25 48.65 0.2993 7.661501 12.56 9.25
11/10/2021 10:17:59 PM 8.92 48.056 0.3021 7.660801 12.485 8.919998
11/10/2021 10:32:59 PM 9.1625 48.4925 0.3 7.660801 12.595 9.162498
11/10/2021 10:47:59 PM 9.3175 48.7715 0.29855 7.660101 12.55 9.317497
11/10/2021 11:02:59 PM 9.3875 48.8975 0.2979 7.660801 12.59 9.387497
11/10/2021 11:17:59 PM 9.42 48.956 0.29785 7.665001 12.865 9.419998
11/10/2021 11:33:00 PM 9.44 48.992 0.2979 7.660801 12.76 9.440002
11/11/2021 12:02:59 AM 9.455 49.019 0.2982499 7.665701 12.625 9.455002
11/11/2021 12:17:59 AM 9.4375 48.9875 0.2982499 7.664301 12.72501 9.4375
11/11/2021 12:32:59 AM 9.4225 48.9605 0.2982499 7.660101 12.83 9.422501
11/11/2021 1:02:59 AM 9.37 48.866 0.2986 7.660101 12.795 9.370003
11/11/2021 1:17:59 AM 9.35 48.83 0.2989 7.659401 12.89999 9.349998
11/11/2021 1:32:59 AM 9.335 48.803 0.2989501 7.659401 12.89999 9.334999
11/11/2021 1:47:59 AM 9.3175 48.7715 0.2992499 7.660801 12.89999 9.317497
11/11/2021 2:02:59 AM 9.3025 48.7445 0.2992499 7.661501 13.045 9.302498
11/11/2021 2:17:59 AM 9.2675 48.6815 0.2992499 7.660801 13.045 9.267502
11/11/2021 2:32:59 AM 9.285 48.713 0.2992499 7.660801 14.75 9.285004
11/11/2021 2:47:59 AM 9.2675 48.6815 0.29855 7.665701 16.41499 9.267502
11/11/2021 3:02:59 AM 9.2675 48.6815 0.29855 7.660801 15.755 9.267502
11/11/2021 3:17:59 AM 9.2675 48.6815 0.2982 7.660801 15.64999 9.267502
11/11/2021 3:32:59 AM 9.25 48.65 0.2979 7.665701 14.99 9.25
11/11/2021 3:47:59 AM 9.2325 48.6185 0.29785 7.660101 14.675 9.232498
11/11/2021 4:02:59 AM 9.2175 48.5915 0.29785 7.660101 14.57001 9.217499
11/11/2021 4:18:00 AM 9.1975 48.5555 0.29785 7.660801 14.61 9.197502
11/11/2021 4:33:00 AM 9.0425 48.2765 0.2992499 7.660101 43.32001 9.042503
11/11/2021 4:47:59 AM 8.9725 48.1505 0.3003001 7.646099 26.10001 8.972504
11/11/2021 5:02:59 AM 9.06 48.308 0.2991999 7.645399 11.73 9.059998
11/11/2021 5:17:59 AM 9.0425 48.2765 0.2991999 7.650999 11.92999 9.042503
11/11/2021 5:32:59 AM 9.025 48.245 0.2992499 7.655199 12.005 9.025002
11/11/2021 5:47:59 AM 9.005 48.209 0.2989 7.650999 11.8 9.004997
11/11/2021 6:02:59 AM 8.9875 48.1775 0.2989501 7.651699 11.69501 8.987503
11/11/2021 6:17:59 AM 8.9375 48.0875 0.2996 7.651699 11.10001 8.9375
11/11/2021 6:32:59 AM 8.9025 48.0245 0.2996 7.646099 10.755 8.902496
11/11/2021 6:47:59 AM 8.8675 47.9615 0.2999501 7.646799 10.755 8.8675
11/11/2021 7:02:59 AM 8.85 47.93 0.2999501 7.645399 10.755 8.849998
11/11/2021 7:17:59 AM 8.8175 47.8715 0.3 7.646799 11.03 8.817497
11/11/2021 7:32:59 AM 8.8175 47.8715 0.2995501 7.646099 10.75 8.817497
11/11/2021 7:47:59 AM 8.8 47.84 0.2996 7.645399 10.895 8.800003
11/11/2021 8:02:59 AM 8.7975 47.8355 0.2992499 7.646099 10.89 8.797501
11/11/2021 8:32:59 AM 8.78 47.804 0.2989 7.646099 10.86 8.779999
11/11/2021 8:47:59 AM 8.815 47.867 0.2982499 7.646799 11.105 8.815002
11/11/2021 9:02:59 AM 8.8525 47.9345 0.2982 7.651699 10.995 8.852501
11/11/2021 9:32:59 AM 8.885 47.993 0.2979 7.650999 10.96001 8.885002
11/11/2021 9:47:59 AM 8.9175 48.0515 0.2975 7.651699 10.965 8.919998
11/11/2021 10:02:59 AM 8.92 48.056 0.2975501 7.655899 11.03 8.919998
11/11/2021 10:17:59 AM 8.92 48.056 0.2975 7.656601 11.105 8.919998
11/11/2021 10:32:59 AM 8.92 48.056 0.2975 7.660101 11.24 8.919998
11/11/2021 10:47:59 AM 8.92 48.056 0.2975 7.660101 11.10001 8.919998
11/11/2021 11:02:59 AM 8.9 48.02 0.2975 7.665701 11.105 8.900002
11/11/2021 11:17:59 AM 8.9025 48.0245 0.2975 7.665001 11.205 8.902496
11/11/2021 11:32:59 AM 8.9375 48.0875 0.2975 7.669901 11.135 8.9375
11/11/2021 11:47:59 AM 8.9525 48.1145 0.2975 7.670601 11.10001 8.952499
11/11/2021 12:02:59 PM 8.97 48.146 0.29785 7.674801 11.135 8.970001
11/11/2021 12:17:59 PM 8.73 47.714 0.2999501 7.675501 11.175 8.730003
11/11/2021 12:32:59 PM 8.765 47.777 0.2996 7.681101 11.21001 8.764999
11/11/2021 12:47:59 PM 8.855 47.939 0.2992499 7.680401 11.17 8.855003
11/11/2021 1:02:59 PM 8.9375 48.0875 0.2986 7.685301 11.205 8.9375
11/11/2021 1:18:00 PM 9.0075 48.2135 0.2979 7.690201 11.205 9.0075
11/11/2021 1:32:59 PM 9.025 48.245 0.2975501 7.690901 11.135 9.025002
11/11/2021 1:47:59 PM 9.0575 48.3035 0.2975501 7.690201 11.135 9.057503
11/11/2021 2:02:59 PM 9.075 48.335 0.29715 7.695101 11.035 9.074997
11/11/2021 2:17:59 PM 9.1125 48.4025 0.2972 7.695101 11.065 9.112503
11/11/2021 2:32:59 PM 9.13 48.434 0.29715 7.694401 11.10001 9.129997
11/11/2021 2:47:59 PM 9.145 48.461 0.2975 7.694401 11.035 9.144997
11/11/2021 3:02:59 PM 9.145 48.461 0.2975 7.700001 11.065 9.144997
11/11/2021 3:17:59 PM 9.075 48.335 0.2982 7.700001 11.205 9.074997
11/11/2021 3:32:59 PM 9.0075 48.2135 0.2989501 7.705601 11.17 9.0075
11/11/2021 3:47:59 PM 9.095 48.371 0.2982 7.704201 11.205 9.095001
11/11/2021 4:02:59 PM 9.1275 48.4295 0.29785 7.704201 11.24 9.127502
11/11/2021 4:17:59 PM 9.1475 48.4655 0.2979 7.704901 11.10001 9.147499
11/11/2021 4:32:59 PM 9.18 48.524 0.2975 7.709801 11.17 9.18
11/11/2021 4:47:59 PM 9.18 48.524 0.2975 7.709101 11.27499 9.18
11/11/2021 5:02:59 PM 9.1975 48.5555 0.2975501 7.709801 11.27499 9.197502
11/11/2021 5:17:59 PM 9.1975 48.5555 0.29715 7.709801 11.24 9.197502
11/11/2021 5:32:59 PM 9.1975 48.5555 0.29715 7.709101 11.41499 9.197502
11/11/2021 5:47:59 PM 9.0425 48.2765 0.2982 7.709101 11.205 9.042503
11/11/2021 6:02:59 PM 8.955 48.119 0.2993 7.704201 12.07001 8.955002
11/11/2021 6:17:59 PM 8.9375 48.0875 0.2986499 7.710501 21.66 8.9375
11/11/2021 6:32:59 PM 9.06 48.308 0.2975 7.710501 21.175 9.059998
11/11/2021 6:47:59 PM 9.13 48.434 0.2965 7.710501 19.05499 9.129997
11/11/2021 7:02:59 PM 9.1475 48.4655 0.29645 7.704201 16.52 9.147499
11/11/2021 7:17:59 PM 9.145 48.461 0.2968 7.704201 13.39 9.144997
11/11/2021 7:32:59 PM 9.1275 48.4295 0.29715 7.700001 12.35001 9.127502
11/11/2021 7:47:59 PM 8.97 48.146 0.2985 7.699301 11.83 8.970001
11/11/2021 8:02:59 PM 8.8675 47.9615 0.2996 7.700001 11.72501 8.8675
11/11/2021 8:17:59 PM 8.8 47.84 0.3 7.700001 11.765 8.800003
11/11/2021 8:32:59 PM 8.8875 47.9975 0.2992499 7.700001 11.73 8.887497
11/11/2021 8:47:59 PM 8.955 48.119 0.29855 7.700001 11.59 8.955002
11/11/2021 9:02:59 PM 9.0075 48.2135 0.2982 7.700001 11.72501 9.0075
11/11/2021 9:17:59 PM 9.04 48.272 0.2982 7.694401 11.765 9.040001
11/11/2021 9:32:59 PM 9.06 48.308 0.2982 7.694401 11.865 9.059998
11/11/2021 9:47:59 PM 9.075 48.335 0.2982 7.695101 11.865 9.074997
11/11/2021 10:02:59 PM 9.0925 48.3665 0.29785 7.699301 11.97501 9.092499
11/11/2021 10:17:59 PM 9.11 48.398 0.29785 7.695101 11.89999 9.110001
11/11/2021 10:32:59 PM 9.005 48.209 0.29885 7.694401 11.765 9.004997
11/11/2021 10:47:59 PM 8.835 47.903 0.3006499 7.695101 11.94 8.834999
11/11/2021 11:02:59 PM 8.8175 47.8715 0.3006499 7.695801 11.865 8.817497
11/11/2021 11:17:59 PM 8.82 47.876 0.3006499 7.695101 11.97 8.82
11/11/2021 11:32:59 PM 8.8525 47.9345 0.3006499 7.694401 11.905 8.852501
11/12/2021 12:02:59 AM 8.9875 48.1775 0.2996 7.690201 13.605 8.987503
11/12/2021 12:32:59 AM 9.215 48.587 0.2975 7.694401 31.66 9.214996
11/12/2021 12:47:59 AM 9.3 48.74 0.2968 7.699301 27.455 9.300003
11/12/2021 1:02:59 AM 9.3 48.74 0.2968 7.689501 21 9.300003
11/12/2021 1:17:59 AM 9.215 48.587 0.29785 7.690201 15.37 9.214996
11/12/2021 1:32:59 AM 9.1625 48.4925 0.29855 7.689501 13.81 9.162498
11/12/2021 1:47:59 AM 9.13 48.434 0.2992499 7.689501 13.215 9.129997
11/12/2021 2:02:59 AM 9.095 48.371 0.2996 7.689501 13.015 9.095001
11/12/2021 2:17:59 AM 9.165 48.497 0.2992499 7.690901 12.84 9.165001
11/12/2021 2:32:59 AM 9.215 48.587 0.2989 7.685301 12.80499 9.214996
11/12/2021 2:47:59 AM 9.25 48.65 0.2989 7.684601 12.8 9.25
11/12/2021 3:02:59 AM 9.285 48.713 0.2989 7.684601 12.875 9.285004
11/12/2021 3:17:59 AM 9.3175 48.7715 0.29855 7.685301 12.84 9.317497
11/12/2021 3:32:59 AM 9.355 48.839 0.29855 7.685301 12.765 9.355003
11/12/2021 3:47:59 AM 9.3 48.74 0.2989 7.685301 12.765 9.300003
11/12/2021 4:02:59 AM 9.195 48.551 0.2999501 7.684601 12.94501 9.195
11/12/2021 4:17:59 AM 9.0775 48.3395 0.301 7.680401 12.905 9.077499
11/12/2021 4:32:59 AM 9.06 48.308 0.301 7.685301 12.875 9.059998
11/12/2021 4:47:59 AM 9.01 48.218 0.3016999 7.685301 12.83501 9.010002
11/12/2021 5:02:59 AM 8.94 48.092 0.3020499 7.686001 13.015 8.940002
11/12/2021 5:17:59 AM 8.9025 48.0245 0.3024 7.679701 12.97501 8.902496
11/12/2021 5:32:59 AM 8.9025 48.0245 0.3024 7.684601 12.935 8.902496
11/12/2021 5:47:59 AM 8.8675 47.9615 0.3027501 7.685301 12.87 8.8675
11/12/2021 6:02:59 AM 8.85 47.93 0.3024499 7.685301 13.145 8.849998
11/12/2021 6:17:59 AM 8.815 47.867 0.3024499 7.685301 13.075 8.815002
11/12/2021 6:32:59 AM 8.8 47.84 0.3027501 7.690201 12.83 8.800003
11/12/2021 6:47:59 AM 8.7825 47.8085 0.3028001 7.686001 12.97501 8.782501
11/12/2021 7:03:00 AM 8.7625 47.7725 0.3028001 7.686001 13.01 8.762497
11/12/2021 7:18:00 AM 8.7475 47.7455 0.3028001 7.680401 13.145 8.747498
11/12/2021 7:33:00 AM 8.75 47.75 0.30285 7.681101 13.11 8.75
11/12/2021 8:03:00 AM 8.7675 47.7815 0.3017501 7.681101 13.705 8.767502
11/12/2021 8:18:00 AM 8.7675 47.7815 0.30145 7.676901 14.605 8.767502
11/12/2021 8:32:59 AM 8.7825 47.8085 0.3007501 7.676201 16.24001 8.782501
11/12/2021 8:48:00 AM 8.8325 47.8985 0.2997 7.671301 15.19501 8.832497
11/12/2021 9:02:59 AM 9.075 48.335 0.29685 7.665701 16.965 9.074997
11/12/2021 9:17:59 AM 9.2475 48.6455 0.29515 7.670601 16.685 9.247498
11/12/2021 9:33:00 AM 9.3525 48.8345 0.2941 7.665001 16.02499 9.352501
11/12/2021 9:47:59 AM 9.4375 48.9875 0.2933501 7.665001 15.67999 9.4375
11/12/2021 10:02:59 AM 9.4925 49.0865 0.2926499 7.660801 15.13 9.4925
11/12/2021 10:17:59 AM 9.5275 49.1495 0.2919501 7.660101 15.17 9.527496
11/12/2021 10:48:00 AM 9.3025 48.7445 0.2941 7.660801 14.505 9.302498
11/12/2021 11:02:59 AM 9.11 48.398 0.29585 7.660801 14.155 9.110001
11/12/2021 11:18:00 AM 9.04 48.272 0.2969 7.660101 14.045 9.040001
11/12/2021 11:32:59 AM 9.0775 48.3395 0.2965 7.660801 14.015 9.077499
11/12/2021 11:47:59 AM 9.3725 48.8705 0.29445 7.660801 14.115 9.372498
11/12/2021 12:02:59 PM 9.5775 49.2395 0.2927 7.660101 14.19 9.577499
11/12/2021 12:17:59 PM 9.715 49.487 0.2916999 7.660801 14.5 9.714996
11/12/2021 12:32:59 PM 9.855 49.739 0.2906 7.660801 14.645 9.855003
11/12/2021 12:47:59 PM 9.89 49.802 0.2905501 7.660101 15.095 9.889999
11/12/2021 1:02:59 PM 9.6525 49.3745 0.2933501 7.661501 15.755 9.652496
11/12/2021 1:17:59 PM 9.545 49.181 0.2947501 7.660801 15.62 9.544998
11/12/2021 1:32:59 PM 9.525 49.145 0.2954499 7.660801 15.785 9.525002
11/12/2021 1:47:59 PM 9.545 49.181 0.29585 7.660801 15.99 9.544998
11/12/2021 2:02:59 PM 9.56 49.208 0.2958001 7.660801 16.30499 9.559998
11/12/2021 2:17:59 PM 9.82 49.676 0.2937501 7.660801 16.265 9.82
11/12/2021 2:32:59 PM 9.9925 49.9865 0.2923 7.655199 17.205 9.9925
11/12/2021 2:47:59 PM 10.1175 50.2115 0.2909 7.650999 18.98 10.1175
11/12/2021 3:02:59 PM 10.22 50.396 0.2892499 7.646099 20.44 10.22
11/12/2021 3:17:59 PM 10.2075 50.3735 0.2875 7.641899 22.595 10.2075
11/12/2021 3:32:59 PM 9.9475 49.9055 0.28715 7.636299 24.125 9.947502
11/12/2021 3:48:00 PM 9.805 49.649 0.2854 7.630699 25.37 9.805
11/12/2021 4:03:00 PM 9.7175 49.4915 0.2837 7.626499 26.96001 9.717499
11/12/2021 4:18:00 PM 9.6475 49.3655 0.282 7.622299 28.63 9.647499
11/12/2021 4:33:00 PM 9.5975 49.2755 0.2803001 7.621599 30.02 9.597504
11/12/2021 4:48:00 PM 9.5125 49.1225 0.2789501 7.621599 31.55 9.512497
11/12/2021 5:03:00 PM 9.4075 48.9335 0.2786 7.617399 32.455 9.407501
11/12/2021 5:18:00 PM 9.6325 49.3385 0.2758 7.617399 32.52 9.6325
11/12/2021 5:32:59 PM 9.8225 49.6805 0.2730499 7.617399 32.73 9.822502
11/12/2021 5:47:59 PM 9.925 49.865 0.2702499 7.617399 32.515 9.925003
11/12/2021 6:02:59 PM 9.9775 49.9595 0.2675 7.617399 33.17999 9.977501
11/12/2021 6:18:00 PM 10.01 50.018 0.2636499 7.606199 34.105 10.01
11/12/2021 6:32:59 PM 10.01 50.018 0.25915 7.601999 36.505 10.01
11/12/2021 6:47:59 PM 10.015 50.027 0.2539501 7.592899 40.405 10.015
11/12/2021 7:02:59 PM 10.0475 50.0855 0.2476999 7.583799 46.235 10.0475
11/12/2021 7:17:59 PM 9.63 49.334 0.2439501 7.568399 53.485 9.629997
11/12/2021 7:32:59 PM 9.3375 48.8075 0.2394499 7.558599 60.36 9.337502
11/12/2021 7:48:00 PM 9.58 49.244 0.23115 7.5488 67.2 9.580002
11/12/2021 8:02:59 PM 9.77 49.586 0.2246 7.5383 72.715 9.769997
11/12/2021 8:17:59 PM 9.855 49.739 0.2190499 7.5292 77.5 9.855003
11/12/2021 8:32:59 PM 9.9075 49.8335 0.2152499 7.5187 82.02 9.907501
11/12/2021 8:47:59 PM 9.925 49.865 0.2121 7.5138 82.815 9.925003
11/12/2021 9:02:59 PM 9.9425 49.8965 0.2097 7.5089 82.395 9.942497
11/12/2021 9:17:59 PM 9.9425 49.8965 0.2076 7.5096 83.59 9.942497
11/12/2021 9:32:59 PM 9.9425 49.8965 0.20585 7.5054 81.05499 9.942497
11/12/2021 9:47:59 PM 9.9275 49.8695 0.2034499 7.5047 80.02 9.927498
11/12/2021 10:02:59 PM 9.4575 49.0235 0.2042499 7.5047 78.97501 9.457497
11/12/2021 10:17:59 PM 9.18 48.524 0.2039 7.4956 77.37 9.18
11/12/2021 10:32:59 PM 9.4225 48.9605 0.2007501 7.4907 77.75 9.422501
11/12/2021 10:47:59 PM 9.56 49.208 0.1983501 7.4858 77.785 9.559998
11/12/2021 11:02:59 PM 9.6325 49.3385 0.1962499 7.4753 77.155 9.6325
11/12/2021 11:17:59 PM 9.6475 49.3655 0.1945 7.4704 78.995 9.647499
11/12/2021 11:32:59 PM 9.665 49.397 0.1927501 7.4704 79.235 9.665001
11/13/2021 12:02:59 AM 9.6475 49.3655 0.1903 7.4662 78.83 9.647499
11/13/2021 12:17:59 AM 9.65 49.37 0.1896 7.4655 77.825 9.650002
11/13/2021 12:32:59 AM 9.63 49.334 0.1889501 7.4662 78.59 9.629997
11/13/2021 12:47:59 AM 9.5975 49.2755 0.1885501 7.4655 78.345 9.597504
11/13/2021 1:02:59 AM 9.5775 49.2395 0.1882 7.4662 78.485 9.577499
11/13/2021 1:17:59 AM 9.5625 49.2125 0.1875501 7.4711 76.82001 9.5625
11/13/2021 1:32:59 AM 9.545 49.181 0.1875501 7.4704 75.95 9.544998
11/13/2021 1:48:00 AM 9.5275 49.1495 0.1872 7.4711 75.535 9.527496
11/13/2021 2:03:00 AM 9.495 49.091 0.18715 7.4704 73.63 9.495003
11/13/2021 2:17:59 AM 9.475 49.055 0.1868 7.4711 72.655 9.474998
11/13/2021 2:33:00 AM 9.46 49.028 0.1865 7.4655 70.36501 9.459999
11/13/2021 2:47:59 AM 9.4225 48.9605 0.1865 7.4704 70.08501 9.422501
11/13/2021 3:02:59 AM 9.405 48.929 0.18615 7.4669 67.205 9.404999
11/13/2021 3:17:59 AM 9.3875 48.8975 0.18615 7.4648 65.99001 9.387497
11/13/2021 3:32:59 AM 9.025 48.245 0.1879 7.4662 64.74001 9.025002
11/13/2021 3:47:59 AM 8.6425 47.5565 0.1900499 7.4662 63.205 8.642502
11/13/2021 4:02:59 AM 8.87 47.966 0.1886499 7.4662 62.2 8.870003
11/13/2021 4:17:59 AM 9.0075 48.2135 0.1879501 7.4613 61.295 9.0075
11/13/2021 4:32:59 AM 9.075 48.335 0.1876 7.4613 59.94 9.074997
11/13/2021 4:47:59 AM 9.1075 48.3935 0.1876 7.4606 59.075 9.107498
11/13/2021 5:02:59 AM 9.1075 48.3935 0.1879501 7.4662 57.82001 9.107498
11/13/2021 5:17:59 AM 9.1075 48.3935 0.1883 7.4655 56.675 9.107498
11/13/2021 5:32:59 AM 9.095 48.371 0.1886 7.4606 55.88499 9.095001
11/13/2021 5:47:59 AM 9.0775 48.3395 0.1893 7.4606 53.91499 9.077499
11/13/2021 6:02:59 AM 9.075 48.335 0.1896499 7.4662 52.73 9.074997
11/13/2021 6:17:59 AM 9.0575 48.3035 0.1903 7.4655 51.655 9.057503
11/13/2021 6:32:59 AM 9.04 48.272 0.1906499 7.4662 50.715 9.040001
11/13/2021 6:47:59 AM 9.025 48.245 0.1910499 7.4704 49.465 9.025002
11/13/2021 7:02:59 AM 9.0075 48.2135 0.1917 7.4704 48.67 9.0075
11/13/2021 7:17:59 AM 8.99 48.182 0.1924 7.4711 47.31 8.989998
11/13/2021 7:32:59 AM 8.9725 48.1505 0.1931 7.476 46.78999 8.972504
11/13/2021 7:47:59 AM 8.9725 48.1505 0.1937501 7.4809 46.13499 8.972504
11/13/2021 8:02:59 AM 8.955 48.119 0.1945 7.476 45.19501 8.955002
11/13/2021 8:17:59 AM 8.955 48.119 0.19485 7.476 44.57001 8.955002
11/13/2021 8:32:59 AM 8.955 48.119 0.19585 7.4795 43.66499 8.955002
11/13/2021 8:47:59 AM 8.955 48.119 0.1962 7.4809 42.175 8.955002
11/13/2021 9:02:59 AM 8.815 47.867 0.1976 7.4809 41.92999 8.815002
11/13/2021 9:17:59 AM 8.45 47.21 0.2003501 7.4851 41.47501 8.449997
11/13/2021 9:32:59 AM 8.6225 47.5205 0.1997 7.4858 41.47 8.622498
11/13/2021 9:47:59 AM 8.76 47.768 0.199 7.49 40.155 8.760002
11/13/2021 10:02:59 AM 8.83 47.894 0.1989501 7.4893 39.94501 8.830002
11/13/2021 10:17:59 AM 8.865 47.957 0.199 7.4949 39.565 8.864998
11/13/2021 10:32:59 AM 8.885 47.993 0.1993001 7.4949 38.95 8.885002
11/13/2021 10:47:59 AM 8.885 47.993 0.1996499 7.4998 38.74001 8.904999
11/13/2021 11:03:00 AM 8.9025 48.0245 0.2003001 7.4998 38.005 8.902496
11/13/2021 11:18:00 AM 8.92 48.056 0.2007 7.5005 37.49001 8.919998
11/13/2021 11:32:59 AM 8.935 48.083 0.2007 7.504 37.55499 8.934998
11/13/2021 11:47:59 AM 8.97 48.146 0.201 7.504 36.86 8.970001
11/13/2021 12:02:59 PM 8.9725 48.1505 0.2010499 7.5096 37.07001 8.972504
11/13/2021 12:17:59 PM 8.4675 47.2415 0.20415 7.5159 36.795 8.467499
11/13/2021 12:32:59 PM 8.33 46.994 0.2052 7.5096 36.33501 8.330002
11/13/2021 12:47:59 PM 8.59 47.462 0.2035 7.5103 36.02 8.589996
11/13/2021 1:02:59 PM 8.7275 47.7095 0.2028001 7.5096 35.815 8.727501
11/13/2021 1:17:59 PM 8.795 47.831 0.2024499 7.5145 35.85001 8.794998
11/13/2021 1:32:59 PM 8.8475 47.9255 0.2027501 7.5187 34.91 8.847504
11/13/2021 1:47:59 PM 8.885 47.993 0.2028001 7.5201 35.23 8.885002
11/13/2021 2:02:59 PM 8.9225 48.0605 0.2024 7.5194 35.125 8.922501
11/13/2021 2:17:59 PM 8.935 48.083 0.2020499 7.5201 34.78 8.934998
11/13/2021 2:32:59 PM 8.955 48.119 0.2020499 7.5187 34.815 8.955002
11/13/2021 2:47:59 PM 8.54 47.372 0.2045 7.525 34.22501 8.540001
11/13/2021 3:02:59 PM 8.5175 47.3315 0.2045 7.5187 34.495 8.517502
11/13/2021 3:17:59 PM 8.7425 47.7365 0.2028001 7.5236 34.53 8.7425
11/13/2021 3:32:59 PM 8.8475 47.9255 0.2021 7.5187 33.87 8.847504
11/13/2021 3:47:59 PM 8.92 48.056 0.2017501 7.525 34.33 8.919998
11/13/2021 4:02:59 PM 8.955 48.119 0.2014 7.525 34.155 8.955002
11/13/2021 4:17:59 PM 8.955 48.119 0.2013501 7.5243 34.605 8.955002
11/13/2021 4:32:59 PM 8.99 48.182 0.2007 7.5292 40.50999 8.989998
11/13/2021 4:47:59 PM 9.0075 48.2135 0.2 7.5292 46.30499 9.0075
11/13/2021 5:02:59 PM 8.85 47.93 0.2006499 7.5341 44.155 8.849998
11/13/2021 5:17:59 PM 8.2775 46.8995 0.2042 7.5348 41.50999 8.277496
11/13/2021 5:32:59 PM 8.245 46.841 0.20485 7.5292 37.41499 8.245003
11/13/2021 5:47:59 PM 8.4675 47.2415 0.2035 7.5243 35.61 8.467499
11/13/2021 6:02:59 PM 8.5875 47.4575 0.2024499 7.5285 35.39999 8.587502
11/13/2021 6:17:59 PM 8.6575 47.5835 0.2021 7.5292 35.605 8.657501
11/13/2021 6:32:59 PM 8.7075 47.6735 0.2021 7.5236 35.57001 8.707497
11/13/2021 6:47:59 PM 8.7425 47.7365 0.2021 7.5236 35.71001 8.7425
11/13/2021 7:02:59 PM 8.7275 47.7095 0.2024 7.5243 35.78999 8.727501
11/13/2021 7:17:59 PM 8.73 47.714 0.2027501 7.5243 36.205 8.730003
11/13/2021 7:32:59 PM 8.7125 47.6825 0.2030499 7.5243 36.31 8.712502
11/13/2021 7:47:59 PM 8.7125 47.6825 0.2031 7.525 36.13499 8.712502
11/13/2021 8:03:00 PM 8.6925 47.6465 0.2031 7.525 36.34 8.692497
11/13/2021 8:18:00 PM 8.6925 47.6465 0.2034499 7.5194 36.34 8.692497
11/13/2021 8:33:00 PM 8.6775 47.6195 0.2034 7.5187 36.45 8.677498
11/13/2021 8:47:59 PM 8.675 47.615 0.2037501 7.5201 36.59 8.675003
11/13/2021 9:02:59 PM 8.675 47.615 0.2038001 7.5201 35.82001 8.675003
11/13/2021 9:17:59 PM 8.675 47.615 0.2041 7.5194 36.10001 8.675003
11/13/2021 9:32:59 PM 8.6775 47.6195 0.2041 7.5201 35.61501 8.677498
11/13/2021 9:47:59 PM 8.4 47.12 0.2061999 7.5194 35.78999 8.400002
11/13/2021 10:02:59 PM 8 46.4 0.2090499 7.5201 35.33 8
11/13/2021 10:17:59 PM 8.225 46.805 0.2079501 7.5152 34.77 8.224998
11/13/2021 10:32:59 PM 8.38 47.084 0.2072499 7.5187 34.495 8.379997
11/13/2021 10:47:59 PM 8.4675 47.2415 0.2069501 7.5145 34.32001 8.467499
11/13/2021 11:02:59 PM 8.5175 47.3315 0.2069501 7.5145 33.8 8.517502
11/13/2021 11:17:59 PM 8.5525 47.3945 0.2072499 7.5096 33.56 8.552498
11/13/2021 11:32:59 PM 8.575 47.435 0.20755 7.5152 32.73 8.574997
11/14/2021 12:02:59 AM 8.555 47.399 0.2086499 7.5061 32.28 8.555
11/14/2021 12:17:59 AM 8.5725 47.4305 0.2093001 7.5103 31.97 8.572502
11/14/2021 12:32:59 AM 8.555 47.399 0.2103501 7.5103 31.795 8.555
11/14/2021 12:47:59 AM 8.575 47.435 0.2114 7.5096 31.035 8.574997
11/14/2021 1:17:59 AM 8.555 47.399 0.2137501 7.5138 30.16 8.555
11/14/2021 1:32:59 AM 8.555 47.399 0.2148 7.5096 30.095 8.555
11/14/2021 1:47:59 AM 8.5375 47.3675 0.21585 7.5201 29.22501 8.537498
11/14/2021 2:02:59 AM 8.5225 47.3405 0.2172499 7.5194 28.88 8.522499
11/14/2021 2:17:59 AM 8.505 47.309 0.2183 7.5194 28.60001 8.504997
11/14/2021 2:32:59 AM 8.5025 47.3045 0.2193 7.5236 28.28999 8.502502
11/14/2021 2:47:59 AM 8.485 47.273 0.2204 7.525 28.22 8.485001
11/14/2021 3:02:59 AM 8.485 47.273 0.2214 7.5334 27.66499 8.485001
11/14/2021 3:17:59 AM 8.485 47.273 0.2224 7.5285 27.35001 8.485001
11/14/2021 3:32:59 AM 8.4675 47.2415 0.22315 7.5299 27.38499 8.467499
11/14/2021 3:47:59 AM 8.47 47.246 0.22415 7.5334 27.145 8.470001
11/14/2021 4:02:59 AM 8.4525 47.2145 0.2245501 7.5341 26.935 8.452499
11/14/2021 4:17:59 AM 8.45 47.21 0.2252 7.5299 26.62 8.449997
11/14/2021 4:32:59 AM 8.45 47.21 0.2259501 7.5341 26.62 8.449997
11/14/2021 4:47:59 AM 8.435 47.183 0.2262499 7.5397 26.485 8.434998
11/14/2021 5:03:00 AM 8.4325 47.1785 0.2266 7.5397 26.105 8.432503
11/14/2021 5:17:59 AM 8.415 47.147 0.2269501 7.539 25.995 8.415001
11/14/2021 5:47:59 AM 8.415 47.147 0.2276499 7.5439 25.58 8.415001
11/14/2021 6:02:59 AM 8.4 47.12 0.228 7.5488 25.685 8.400002
11/14/2021 6:17:59 AM 8.4 47.12 0.2283 7.5432 25.235 8.400002
11/14/2021 6:32:59 AM 8.3825 47.0885 0.2283 7.5481 25.06 8.3825
11/14/2021 6:47:59 AM 8.3625 47.0525 0.2283501 7.5439 24.95 8.362503
11/14/2021 7:02:59 AM 8.365 47.057 0.2283 7.5439 24.575 8.364998
11/14/2021 7:17:59 AM 8.365 47.057 0.2283501 7.5446 24.125 8.364998
11/14/2021 7:32:59 AM 8.35 47.03 0.228 7.5439 23.845 8.349998
11/14/2021 7:47:59 AM 8.35 47.03 0.2279501 7.5439 23.81 8.349998
11/14/2021 8:02:59 AM 8.3625 47.0525 0.2276499 7.5439 23.32001 8.362503
11/14/2021 8:17:59 AM 8.3625 47.0525 0.2276499 7.5481 23.28999 8.362503
11/14/2021 8:32:59 AM 8.345 47.021 0.2273 7.5488 22.905 8.345001
11/14/2021 8:47:59 AM 8.33 46.994 0.2273 7.5488 22.735 8.330002
11/14/2021 9:02:59 AM 8.33 46.994 0.2273501 7.5495 22.49001 8.330002
11/14/2021 9:17:59 AM 8.33 46.994 0.2269501 7.5481 22.455 8.330002
11/14/2021 9:32:59 AM 7.9175 46.2515 0.2297501 7.5495 22.14 7.917503
11/14/2021 9:47:59 AM 7.7575 45.9635 0.2305 7.5488 22.035 7.7575
11/14/2021 10:02:59 AM 7.9825 46.3685 0.2291 7.5439 21.86 7.982498
11/14/2021 10:17:59 AM 8.12 46.616 0.228 7.5481 21.72 8.120003
11/14/2021 10:32:59 AM 8.1875 46.7375 0.2273501 7.5481 21.47501 8.1875
11/14/2021 11:02:59 AM 8.24 46.832 0.2269501 7.5481 21.16499 8.239998
11/14/2021 11:17:59 AM 8.2975 46.9355 0.2269501 7.553699 21.07001 8.297501
11/14/2021 11:32:59 AM 8.3125 46.9625 0.2269501 7.552999 20.75999 8.3125
11/14/2021 11:47:59 AM 8.345 47.021 0.2266 7.553699 20.75 8.345001
11/14/2021 12:02:59 PM 8.3825 47.0885 0.2266 7.553699 20.685 8.3825
11/14/2021 12:17:59 PM 8.415 47.147 0.2266 7.553699 20.685 8.415001
11/14/2021 12:32:59 PM 8.435 47.183 0.2262499 7.552999 20.48 8.434998
11/14/2021 12:47:59 PM 8.4325 47.1785 0.2266499 7.558599 20.265 8.432503
11/14/2021 1:02:59 PM 8.45 47.21 0.2266499 7.563499 19.955 8.449997
11/14/2021 1:17:59 PM 8.4675 47.2415 0.2269501 7.567699 20.095 8.467499
11/14/2021 1:32:59 PM 8.4675 47.2415 0.2269 7.567699 19.92 8.467499
11/14/2021 1:47:59 PM 8.485 47.273 0.2269501 7.568399 20.02499 8.485001
11/14/2021 2:03:00 PM 8.4875 47.2775 0.2273 7.572599 19.88499 8.487503
11/14/2021 2:17:59 PM 8.485 47.273 0.2272499 7.567699 19.745 8.485001
11/14/2021 2:32:59 PM 8.485 47.273 0.2273 7.573299 19.605 8.485001
11/14/2021 2:47:59 PM 8.485 47.273 0.2276499 7.572599 19.39999 8.485001
11/14/2021 3:02:59 PM 8.4675 47.2415 0.228 7.577499 19.575 8.467499
11/14/2021 3:17:59 PM 8.47 47.246 0.2279501 7.573299 19.435 8.470001
11/14/2021 3:32:59 PM 8.45 47.21 0.2283501 7.578199 19.02 8.449997
11/14/2021 3:47:59 PM 8.4325 47.1785 0.2287 7.577499 18.425 8.432503
11/14/2021 4:02:59 PM 8.4175 47.1515 0.2290499 7.578199 18.14999 8.417503
11/14/2021 4:17:59 PM 8.4025 47.1245 0.2290499 7.578199 18.00999 8.402496
11/14/2021 4:32:59 PM 8.3825 47.0885 0.2294 7.578199 18.22 8.3825
11/14/2021 4:47:59 PM 8.3825 47.0885 0.2297501 7.578199 18.255 8.3825
11/14/2021 5:02:59 PM 8.365 47.057 0.2297501 7.577499 18.14999 8.364998
11/14/2021 5:17:59 PM 8.3475 47.0255 0.2297501 7.578899 18.17999 8.347504
11/14/2021 5:32:59 PM 8.3475 47.0255 0.2301 7.578899 18.185 8.347504
11/14/2021 6:10:12 PM 8.295 46.931 0.2301 7.578199 18.11501 8.294998
11/14/2021 6:17:58 PM 8.295 46.931 0.2301 7.578199 18.11501 8.294998
11/14/2021 6:32:58 PM 8.2775 46.8995 0.2304499 7.578899 18.185 8.277496
11/14/2021 6:47:58 PM 8.2625 46.8725 0.2304499 7.578899 18.255 8.262497
11/14/2021 7:02:58 PM 8.26 46.868 0.2304499 7.578899 18.08501 8.260002
11/14/2021 7:17:58 PM 8.245 46.841 0.2304499 7.578199 18.08 8.245003
11/14/2021 7:32:58 PM 8.2275 46.8095 0.2304499 7.578899 18.22501 8.227501
11/14/2021 7:47:58 PM 8.21 46.778 0.2304499 7.578899 18.015 8.209999
11/14/2021 8:02:58 PM 8.2075 46.7735 0.2304499 7.578899 18.015 8.207497
11/14/2021 8:17:58 PM 8.1925 46.7465 0.2305 7.578899 18.22 8.192497
11/14/2021 8:32:58 PM 8.175 46.715 0.2304499 7.577499 17.98 8.175003
11/14/2021 8:47:58 PM 8.1725 46.7105 0.2304499 7.578899 18.045 8.172501
11/14/2021 9:02:58 PM 8.1575 46.6835 0.2304499 7.578199 18.00999 8.157501
11/14/2021 9:17:58 PM 8.1575 46.6835 0.2308 7.573299 17.98 8.157501
11/14/2021 9:32:58 PM 8.14 46.652 0.2308 7.573999 18.185 8.139999
11/14/2021 9:47:58 PM 8.1225 46.6205 0.2308 7.578899 18.015 8.122498
11/14/2021 10:02:59 PM 8.1225 46.6205 0.2308 7.578199 18.015 8.122498
11/14/2021 10:17:59 PM 8.125 46.625 0.2308 7.573999 17.84 8.125
11/14/2021 10:32:59 PM 8.1225 46.6205 0.2308 7.573999 18.015 8.122498
11/14/2021 10:47:59 PM 8.1225 46.6205 0.2307501 7.572599 17.94501 8.122498
11/14/2021 11:02:58 PM 8.125 46.625 0.23115 7.572599 17.875 8.125
11/14/2021 11:17:59 PM 8.1225 46.6205 0.23115 7.573299 17.80499 8.122498
11/15/2021 12:02:59 AM 8.105 46.589 0.2315501 7.573999 17.97501 8.105003
11/15/2021 12:17:59 AM 8.0875 46.5575 0.23185 7.573999 18.045 8.087502
11/15/2021 12:32:59 AM 8.0875 46.5575 0.23185 7.573299 17.94501 8.087502
11/15/2021 12:47:59 AM 8.0725 46.5305 0.2319 7.573299 17.91 8.072502
11/15/2021 1:02:59 AM 8.0725 46.5305 0.23185 7.572599 17.98 8.072502
11/15/2021 1:17:59 AM 8.0725 46.5305 0.2322 7.574699 17.875 8.072502
11/15/2021 1:32:59 AM 8.0725 46.5305 0.2325 7.572599 17.91 8.072502
11/15/2021 1:47:59 AM 8.0525 46.4945 0.23285 7.573299 17.905 8.052498
11/15/2021 2:02:59 AM 8.0325 46.4585 0.2332 7.573999 17.735 8.032501
11/15/2021 2:17:59 AM 8.0375 46.4675 0.23355 7.569099 17.80499 8.037498
11/15/2021 2:32:59 AM 8.02 46.436 0.2339 7.573999 17.66499 8.019997
11/15/2021 2:47:59 AM 8.0025 46.4045 0.2346 7.573299 17.63 8.014999
11/15/2021 3:02:59 AM 8.0025 46.4045 0.2346 7.573299 17.52499 8.002502
11/15/2021 3:17:59 AM 8.0025 46.4045 0.2349501 7.573999 17.595 8.002502
11/15/2021 3:32:59 AM 7.985 46.373 0.2353 7.573299 17.565 7.985001
11/15/2021 3:47:58 AM 7.985 46.373 0.2356499 7.573999 17.425 7.985001
11/15/2021 4:02:58 AM 7.965 46.337 0.236 7.573299 17.595 7.964996
11/15/2021 4:17:58 AM 7.965 46.337 0.2363501 7.573299 17.46001 7.964996
11/15/2021 4:32:58 AM 7.95 46.31 0.2367 7.572599 17.7 7.949997
11/15/2021 4:47:58 AM 7.95 46.31 0.2366499 7.573299 17.35001 7.949997
11/15/2021 5:02:58 AM 7.935 46.283 0.2370499 7.573299 17.39 7.934998
11/15/2021 5:17:58 AM 7.93 46.274 0.2370499 7.573999 17.355 7.93
11/15/2021 5:32:58 AM 7.9125 46.2425 0.2374 7.578199 17.495 7.912498
11/15/2021 5:47:58 AM 7.9175 46.2515 0.2374 7.573299 17.52499 7.917503
11/15/2021 6:02:58 AM 7.915 46.247 0.2373501 7.578899 17.56 7.915001
11/15/2021 6:17:58 AM 7.8975 46.2155 0.2377 7.578899 17.455 7.897499
11/15/2021 6:32:58 AM 7.9 46.22 0.2380499 7.573299 17.425 7.900002
11/15/2021 6:47:58 AM 7.8775 46.1795 0.2384 7.578199 17.595 7.877502
11/15/2021 7:02:58 AM 7.88 46.184 0.2384499 7.578199 17.7 7.879997
11/15/2021 7:17:58 AM 7.8625 46.1525 0.2388 7.578899 17.7 7.862503
11/15/2021 7:32:58 AM 7.8625 46.1525 0.2387501 7.578199 17.66499 7.862503
11/15/2021 7:47:58 AM 7.845 46.121 0.2391 7.578199 17.63499 7.845001
11/15/2021 8:02:59 AM 7.8275 46.0895 0.2391 7.578899 17.56 7.827499
11/15/2021 8:17:59 AM 7.8275 46.0895 0.2391 7.592899 17.77 7.827499
11/15/2021 8:32:59 AM 7.8275 46.0895 0.2394499 7.578899 17.66 7.827499
11/15/2021 8:47:59 AM 7.8275 46.0895 0.2391 7.578199 17.7 7.827499
11/15/2021 9:02:59 AM 7.845 46.121 0.2394499 7.583799 17.94 7.845001
11/15/2021 9:17:59 AM 7.8625 46.1525 0.23915 7.583799 17.595 7.862503
11/15/2021 9:32:59 AM 7.8625 46.1525 0.2391 7.583799 17.53 7.862503
11/15/2021 9:47:58 AM 7.865 46.157 0.2391 7.583099 17.63 7.864998
11/15/2021 10:02:59 AM 7.88 46.184 0.2391 7.583099 17.455 7.879997
11/15/2021 10:17:59 AM 7.8975 46.2155 0.2391 7.583799 17.39 7.897499
11/15/2021 10:32:59 AM 7.9125 46.2425 0.2387501 7.587999 17.59 7.912498
11/15/2021 10:47:59 AM 7.9325 46.2785 0.2387501 7.588699 13.28999 7.932503
11/15/2021 11:02:59 AM 7.9325 46.2785 0.2387501 7.587999 13.255 7.932503
11/15/2021 11:17:59 AM 7.9325 46.2785 0.2387501 7.592199 13.185 7.932503
11/15/2021 11:32:59 AM 7.95 46.31 0.2387501 7.592199 13.08501 7.949997
11/15/2021 11:47:59 AM 7.9825 46.3685 0.2387501 7.592899 13.045 7.982498
11/15/2021 12:02:59 PM 8.0175 46.4315 0.2391 7.598499 13.115 8.017502
11/15/2021 12:17:59 PM 8.0525 46.4945 0.2387 7.597799 12.94501 8.052498
11/15/2021 12:32:59 PM 8.0875 46.5575 0.2387 7.597799 13.08 8.087502
11/15/2021 12:47:59 PM 8.105 46.589 0.2387501 7.602699 13.08 8.105003
11/15/2021 1:02:59 PM 8.1225 46.6205 0.2387501 7.606899 13.115 8.122498
11/15/2021 1:17:59 PM 8.155 46.679 0.2383501 7.606899 13.115 8.154999
11/15/2021 1:32:59 PM 8.1725 46.7105 0.2383501 7.611799 13.14999 8.172501
11/15/2021 1:47:59 PM 8.19 46.742 0.2383501 7.611799 13.22 8.190002
11/15/2021 2:02:59 PM 8.1925 46.7465 0.2384 7.611799 13.36 8.192497
11/15/2021 2:17:59 PM 8.175 46.715 0.2384 7.616699 13.185 8.175003
11/15/2021 2:32:59 PM 8.175 46.715 0.2387501 7.616699 13.255 8.175003
11/15/2021 2:47:58 PM 8.14 46.652 0.2387501 7.622299 13.185 8.139999
11/15/2021 3:02:58 PM 8.1375 46.6475 0.2387501 7.622299 13.22 8.137497
11/15/2021 3:17:59 PM 8.1225 46.6205 0.2387501 7.622299 13.14999 8.122498
11/15/2021 3:32:59 PM 8.14 46.652 0.2384 7.627199 13.115 8.139999
11/15/2021 3:47:59 PM 8.1225 46.6205 0.2384 7.627199 13.465 8.122498
11/15/2021 4:02:59 PM 8.14 46.652 0.23